Provisional Data: Tuscarora Creek near Woodhull, NY


Please select a monitoring station.
Please select start date.
Please select start date.

Toggle Unit: C/F Toggle Unit: C/F
Sample Time Temperature (C) Temperature (F) Specific Conductivity (mS/cm) pH   Turbidity (NTU+) DO (mg/L)
3/7/2021 12:00:00 AM -0.04 31.928 0.351 7.71 4.64 14.05
3/7/2021 12:15:00 AM -0.04 31.928 0.351 7.73 4.77 14.05
3/7/2021 12:30:00 AM -0.04 31.928 0.352 7.73 4.74 14.05
3/7/2021 12:45:00 AM -0.05 31.91 0.352 7.73 4.63 14.07
3/7/2021 1:00:00 AM -0.05 31.91 0.353 7.72 4.78 14.06
3/7/2021 1:15:00 AM -0.05 31.91 0.353 7.72 4.75 14.06
3/7/2021 1:30:00 AM -0.05 31.91 0.354 7.72 4.63 14.06
3/7/2021 1:45:00 AM -0.05 31.91 0.355 7.71 4.47 14.07
3/7/2021 2:00:00 AM -0.05 31.91 0.355 7.72 4.89 14.08
3/7/2021 2:15:00 AM -0.05 31.91 0.356 7.71 5.05 14.07
3/7/2021 2:30:00 AM -0.05 31.91 0.356 7.71 4.76 14.07
3/7/2021 2:45:00 AM -0.05 31.91 0.357 7.71 4.83 14.09
3/7/2021 3:00:00 AM -0.05 31.91 0.357 7.71 4.91 14.09
3/7/2021 3:15:00 AM -0.05 31.91 0.358 7.71 4.86 14.08
3/7/2021 3:30:00 AM -0.05 31.91 0.359 7.7 10.19 14.08
3/7/2021 3:45:00 AM -0.05 31.91 0.359 7.7 5.07 14.08
3/7/2021 4:00:00 AM -0.05 31.91 0.36 7.7 5.93 14.08
3/7/2021 4:15:00 AM -0.05 31.91 0.36 7.7 5.05 14.09
3/7/2021 4:30:00 AM -0.05 31.91 0.361 7.7 4.48 14.08
3/7/2021 4:45:00 AM -0.05 31.91 0.362 7.69 4.35 14.07
3/7/2021 5:00:00 AM -0.04 31.928 0.363 7.69 4.22 14.07
3/7/2021 5:15:00 AM -0.04 31.928 0.364 7.69 4.14 14.08
3/7/2021 5:30:00 AM -0.04 31.928 0.365 7.68 4.13 14.07
3/7/2021 5:45:00 AM -0.04 31.928 0.366 7.67 4.05 14.07
3/7/2021 6:00:00 AM -0.04 31.928 0.367 7.69 4.2 14.06
3/7/2021 6:15:00 AM -0.04 31.928 0.368 7.68 4.1 14.06
3/7/2021 6:30:00 AM -0.04 31.928 0.37 7.68 4.16 14.07
3/7/2021 6:45:00 AM -0.04 31.928 0.37 7.68 4.13 14.08
3/7/2021 7:00:00 AM -0.04 31.928 0.372 7.69 4.16 14.13
3/7/2021 7:15:00 AM -0.04 31.928 0.373 7.7 4.14 14.21
3/7/2021 7:30:00 AM -0.03 31.946 0.374 7.71 4.02 14.34
3/7/2021 7:45:00 AM -0.03 31.946 0.375 7.73 3.93 14.45
3/7/2021 8:00:00 AM -0.02 31.964 0.376 7.75 4.05 14.58
3/7/2021 8:15:00 AM -0.01 31.982 0.376 7.77 4.02 14.71
3/7/2021 8:30:00 AM -0.01 31.982 0.377 7.79 4.05 14.78
3/7/2021 8:45:00 AM 0 32 0.378 7.81 4 14.86
3/7/2021 9:00:00 AM 0.01 32.018 0.378 7.83 4.07 14.96
3/7/2021 9:15:00 AM 0.01 32.018 0.377 7.86 3.98 15.04
3/7/2021 9:30:00 AM 0.02 32.036 0.377 7.89 4.15 15.11
3/7/2021 9:45:00 AM 0.03 32.054 0.376 7.92 3.84 15.18
3/7/2021 10:00:00 AM 0.05 32.09 0.375 7.95 5.81 15.19
3/7/2021 10:15:00 AM 0.04 32.072 0.374 7.98 4.24 15.21
3/7/2021 10:30:00 AM 0.06 32.108 0.374 8.03 4.22 15.2
3/7/2021 10:45:00 AM 0.02 32.036 0.373 8.05 4.46 15.22
3/7/2021 11:00:00 AM 0.07 32.126 0.374 8.08 4.48 15.2
3/7/2021 11:15:00 AM 0.03 32.054 0.373 8.1 4.85 15.17
3/7/2021 11:30:00 AM 0.03 32.054 0.374 8.11 4.56 15.1
3/7/2021 11:45:00 AM 0.06 32.108 0.374 8.13 4.73 15.07
3/7/2021 12:00:00 PM 0.07 32.126 0.374 8.13 4.61 15.06
3/7/2021 12:15:00 PM 0.16 32.288 0.373 8.16 4.53 15.08
3/7/2021 12:30:00 PM 0.23 32.414 0.372 8.15 4.54 15.04
3/7/2021 12:45:00 PM 0.39 32.702 0.368 8.18 4.46 15.09
3/7/2021 1:00:00 PM 0.48 32.864 0.362 8.17 4.54 15.11
3/7/2021 1:15:00 PM 0.59 33.062 0.356 8.17 4.37 15.1
3/7/2021 1:30:00 PM 0.65 33.17 0.349 8.2 4.63 15.07
3/7/2021 1:45:00 PM 0.62 33.116 0.346 8.18 4.56 15.04
3/7/2021 2:00:00 PM 0.7 33.26 0.344 8.2 4.35 15.02
3/7/2021 2:15:00 PM 0.86 33.548 0.345 8.22 4.48 15
3/7/2021 2:30:00 PM 0.99 33.782 0.347 8.25 4.5 14.97
3/7/2021 2:45:00 PM 1.06 33.908 0.35 8.27 4.61 14.92
3/7/2021 3:00:00 PM 1.08 33.944 0.353 8.28 4.76 14.9
3/7/2021 3:15:00 PM 1.09 33.962 0.353 8.29 4.73 14.88
3/7/2021 3:30:00 PM 1.08 33.944 0.354 8.29 5.01 14.88
3/7/2021 3:45:00 PM 1.07 33.926 0.354 8.29 4.87 14.85
3/7/2021 4:00:00 PM 1.02 33.836 0.355 8.29 4.86 14.82
3/7/2021 4:15:00 PM 0.97 33.746 0.355 8.3 4.96 14.82
3/7/2021 4:30:00 PM 0.9 33.62 0.355 8.29 4.99 14.8
3/7/2021 4:45:00 PM 0.82 33.476 0.354 8.28 4.99 14.79
3/7/2021 5:00:00 PM 0.74 33.332 0.351 8.26 4.97 14.76
3/7/2021 5:15:00 PM 0.66 33.188 0.348 8.22 5.1 14.71
3/7/2021 5:30:00 PM 0.6 33.08 0.346 8.22 5.19 14.66
3/7/2021 5:45:00 PM 0.54 32.972 0.345 8.19 5.28 14.59
3/7/2021 6:00:00 PM 0.5 32.9 0.344 8.15 5.59 14.51
3/7/2021 6:15:00 PM 0.44 32.792 0.343 8.11 5.34 14.4
3/7/2021 6:30:00 PM 0.4 32.72 0.343 8.07 5.2 14.31
3/7/2021 6:45:00 PM 0.36 32.648 0.343 8.02 5.25 14.23
3/7/2021 7:00:00 PM 0.33 32.594 0.343 7.99 5.24 14.12
3/7/2021 7:15:00 PM 0.29 32.522 0.344 7.95 5.76 14.06
3/7/2021 7:30:00 PM 0.25 32.45 0.345 7.92 5.54 14.04
3/7/2021 7:45:00 PM 0.21 32.378 0.346 7.9 5.39 14.02
3/7/2021 8:00:00 PM 0.18 32.324 0.348 7.88 5.18 14.03
3/7/2021 8:15:00 PM 0.14 32.252 0.35 7.86 5.55 14
3/7/2021 8:30:00 PM 0.1 32.18 0.351 7.84 5.33 13.99
3/7/2021 8:45:00 PM 0.06 32.108 0.352 7.82 5.55 13.94
3/7/2021 9:00:00 PM 0.01 32.018 0.352 7.81 5.31 13.95
3/7/2021 9:15:00 PM -0.03 31.946 0.353 7.8 5.34 13.96
3/7/2021 9:30:00 PM -0.07 31.874 0.354 7.78 5.27 14.03
3/7/2021 9:45:00 PM -0.05 31.91 0.356 7.78 5.31 14.06
3/7/2021 10:00:00 PM -0.04 31.928 0.357 7.75 5.16 14.04
3/7/2021 10:15:00 PM -0.03 31.946 0.359 7.73 5.23 14.06
3/7/2021 10:30:00 PM -0.04 31.928 0.359 7.74 5.37 14.08
3/7/2021 10:45:00 PM -0.04 31.928 0.36 7.73 5.22 14.07
3/7/2021 11:00:00 PM -0.04 31.928 0.361 7.74 5.62 14.11
3/7/2021 11:15:00 PM -0.04 31.928 0.362 7.73 5.39 14.12
3/7/2021 11:30:00 PM -0.04 31.928 0.362 7.73 5.18 14.12
3/7/2021 11:45:00 PM -0.04 31.928 0.363 7.73 5.04 14.13
3/8/2021 12:00:00 AM -0.04 31.928 0.362 7.73 5.72 14.14
3/8/2021 12:15:00 AM -0.04 31.928 0.362 7.73 5.65 14.14
3/8/2021 12:30:00 AM -0.04 31.928 0.363 7.73 5.2 14.14
3/8/2021 12:45:00 AM -0.04 31.928 0.363 7.73 5.14 14.14
3/8/2021 1:00:00 AM -0.04 31.928 0.365 7.71 4.96 14.1
3/8/2021 1:15:00 AM -0.04 31.928 0.366 7.69 4.93 14.03
3/8/2021 1:30:00 AM -0.04 31.928 0.368 7.7 5.27 13.96
3/8/2021 1:45:00 AM -0.03 31.946 0.37 7.69 5.31 13.96
3/8/2021 2:00:00 AM -0.03 31.946 0.371 7.68 5.36 13.98
3/8/2021 2:15:00 AM -0.03 31.946 0.373 7.67 5.18 13.98
3/8/2021 2:30:00 AM -0.03 31.946 0.374 7.67 4.97 13.97
3/8/2021 2:45:00 AM -0.03 31.946 0.376 7.66 4.88 13.93
3/8/2021 3:00:00 AM -0.02 31.964 0.377 7.66 4.89 13.93
3/8/2021 3:15:00 AM -0.02 31.964 0.379 7.65 5.42 13.98
3/8/2021 3:30:00 AM -0.02 31.964 0.38 7.64 4.92 13.94
3/8/2021 3:45:00 AM -0.02 31.964 0.382 7.64 4.82 13.94
3/8/2021 4:00:00 AM -0.02 31.964 0.383 7.63 4.6 13.95
3/8/2021 4:15:00 AM -0.02 31.964 0.384 7.63 4.65 13.97
3/8/2021 4:30:00 AM -0.02 31.964 0.386 7.62 4.5 13.93
3/8/2021 4:45:00 AM -0.02 31.964 0.387 7.62 4.63 13.91
3/8/2021 5:00:00 AM -0.01 31.982 0.389 7.6 4.51 13.91
3/8/2021 5:15:00 AM -0.01 31.982 0.39 7.61 4.56 13.89
3/8/2021 5:30:00 AM -0.01 31.982 0.391 7.6 4.48 13.89
3/8/2021 5:45:00 AM -0.01 31.982 0.392 7.6 4.49 13.87
3/8/2021 6:00:00 AM -0.01 31.982 0.394 7.59 4.43 13.84
3/8/2021 6:15:00 AM 0 32 0.395 7.58 4.44 13.83
3/8/2021 6:30:00 AM 0 32 0.396 7.58 4.44 13.81
3/8/2021 6:45:00 AM 0 32 0.397 7.58 4.49 13.8
3/8/2021 7:00:00 AM 0 32 0.398 7.58 4.43 13.81
3/8/2021 7:15:00 AM 0.01 32.018 0.399 7.57 4.39 13.84
3/8/2021 7:30:00 AM 0.01 32.018 0.4 7.58 4.43 13.91
3/8/2021 7:45:00 AM 0.02 32.036 0.401 7.59 4.33 14.03
3/8/2021 8:00:00 AM 0.03 32.054 0.401 7.61 4.39 14.18
3/8/2021 8:15:00 AM 0.05 32.09 0.401 7.63 4.36 14.4
3/8/2021 8:30:00 AM 0.09 32.162 0.401 7.66 4.34 14.59
3/8/2021 8:45:00 AM 0.11 32.198 0.399 7.69 4.23 14.81
3/8/2021 9:00:00 AM 0.13 32.234 0.398 7.72 4.24 14.98
3/8/2021 9:15:00 AM 0.15 32.27 0.396 7.75 4.29 15.08
3/8/2021 9:30:00 AM 0.17 32.306 0.394 7.78 4.13 15.16
3/8/2021 9:45:00 AM 0.17 32.306 0.391 7.82 4.33 15.2
3/8/2021 10:00:00 AM 0.16 32.288 0.388 7.85 4.23 15.18
3/8/2021 10:15:00 AM 0.14 32.252 0.384 7.91 4.44 15.17
3/8/2021 10:30:00 AM 0.13 32.234 0.38 7.96 4.32 15.2
3/8/2021 10:45:00 AM 0.09 32.162 0.379 8.01 4.51 15.2
3/8/2021 11:00:00 AM 0.04 32.072 0.379 8.05 4.27 15.22
3/8/2021 11:15:00 AM 0.09 32.162 0.382 8.1 4.45 15.22
3/8/2021 11:30:00 AM 0.05 32.09 0.384 8.13 4.28 15.21
3/8/2021 11:45:00 AM 0.01 32.018 0.387 8.15 4.46 15.17
3/8/2021 12:00:00 PM 0 32 0.389 8.16 4.46 15.17
3/8/2021 12:15:00 PM 0.03 32.054 0.389 8.16 4.51 15.18
3/8/2021 12:30:00 PM 0.08 32.144 0.388 8.18 4.5 15.31
3/8/2021 12:45:00 PM 0.1 32.18 0.388 8.2 4.36 15.3
3/8/2021 1:00:00 PM 0.13 32.234 0.387 8.18 4.43 15.26
3/8/2021 1:15:00 PM 0.17 32.306 0.385 8.19 4.42 15.31
3/8/2021 1:30:00 PM 0.22 32.396 0.378 8.21 4.52 15.28
3/8/2021 1:45:00 PM 0.26 32.468 0.37 8.23 4.49 15.19
3/8/2021 2:00:00 PM 0.27 32.486 0.367 8.26 4.49 15.32
3/8/2021 2:15:00 PM 0.27 32.486 0.365 8.26 4.59 15.29
3/8/2021 2:30:00 PM 0.29 32.522 0.365 8.3 4.64 15.3
3/8/2021 2:45:00 PM 0.28 32.504 0.365 8.32 4.81 15.28
3/8/2021 3:00:00 PM 0.31 32.558 0.364 8.35 4.92 15.26
3/8/2021 3:15:00 PM 0.33 32.594 0.364 8.36 4.79 15.22
3/8/2021 3:30:00 PM 0.38 32.684 0.363 8.38 4.73 15.21
3/8/2021 3:45:00 PM 0.42 32.756 0.365 8.39 5.05 15.18
3/8/2021 4:00:00 PM 0.45 32.81 0.366 8.4 5.45 15.16
3/8/2021 4:15:00 PM 0.44 32.792 0.365 8.41 5.47 15.12
3/8/2021 4:30:00 PM 0.41 32.738 0.364 8.39 5.46 15.09
3/8/2021 4:45:00 PM 0.4 32.72 0.364 8.39 5.31 15.06
3/8/2021 5:00:00 PM 0.37 32.666 0.362 8.39 5.38 15.04
3/8/2021 5:15:00 PM 0.33 32.594 0.359 8.38 5.47 15
3/8/2021 5:30:00 PM 0.29 32.522 0.356 8.36 5.53 14.96
3/8/2021 5:45:00 PM 0.26 32.468 0.354 8.34 5.86 14.9
3/8/2021 6:00:00 PM 0.22 32.396 0.351 8.29 5.64 14.81
3/8/2021 6:15:00 PM 0.18 32.324 0.348 8.25 5.91 14.71
3/8/2021 6:30:00 PM 0.14 32.252 0.348 8.19 5.66 14.6
3/8/2021 6:45:00 PM 0.11 32.198 0.348 8.14 5.64 14.5
3/8/2021 7:00:00 PM 0.08 32.144 0.349 8.08 5.66 14.42
3/8/2021 7:15:00 PM 0.05 32.09 0.352 8.04 5.74 14.36
3/8/2021 7:30:00 PM 0.03 32.054 0.353 8.01 5.76 14.33
3/8/2021 7:45:00 PM 0.01 32.018 0.355 7.98 5.74 14.27
3/8/2021 8:00:00 PM 0 32 0.356 7.95 5.79 14.23
3/8/2021 8:15:00 PM -0.01 31.982 0.356 7.93 5.64 14.21
3/8/2021 8:30:00 PM -0.02 31.964 0.357 7.91 5.67 14.19
3/8/2021 8:45:00 PM -0.02 31.964 0.358 7.89 5.74 14.16
3/8/2021 9:00:00 PM -0.01 31.982 0.359 7.87 5.6 14.13
3/8/2021 9:15:00 PM -0.01 31.982 0.36 7.86 5.77 14.1
3/8/2021 9:30:00 PM 0 32 0.361 7.85 5.57 14.07
3/8/2021 9:45:00 PM 0 32 0.362 7.83 5.55 14.06
3/8/2021 10:00:00 PM 0.01 32.018 0.362 7.82 5.35 14.02
3/8/2021 10:15:00 PM 0.03 32.054 0.363 7.81 5.36 14.02
3/8/2021 10:30:00 PM 0.04 32.072 0.363 7.81 5.2 13.98
3/8/2021 10:45:00 PM 0.05 32.09 0.363 7.79 5.17 13.99
3/8/2021 11:00:00 PM 0.06 32.108 0.364 7.79 5.43 13.97
3/8/2021 11:15:00 PM 0.08 32.144 0.363 7.78 5.09 13.92
3/8/2021 11:30:00 PM 0.09 32.162 0.363 7.78 5.31 13.94
3/8/2021 11:45:00 PM 0.11 32.198 0.363 7.78 5.64 13.94
3/9/2021 12:00:00 AM 0.1 32.18 0.363 7.76 5.33 13.9
3/9/2021 12:15:00 AM 0.09 32.162 0.363 7.76 5.23 13.86
3/9/2021 12:30:00 AM 0.09 32.162 0.363 7.75 4.97 13.89
3/9/2021 12:45:00 AM 0.08 32.144 0.362 7.76 5.12 13.91
3/9/2021 1:00:00 AM 0.06 32.108 0.361 7.74 4.96 13.86
3/9/2021 1:15:00 AM 0.05 32.09 0.36 7.75 5.06 13.89
3/9/2021 1:30:00 AM 0.04 32.072 0.36 7.74 5.24 13.86
3/9/2021 1:45:00 AM 0.04 32.072 0.36 7.74 5.18 13.9
3/9/2021 2:00:00 AM 0.02 32.036 0.359 7.74 4.85 13.9
3/9/2021 2:15:00 AM 0.02 32.036 0.358 7.72 4.91 13.9
3/9/2021 2:30:00 AM 0.01 32.018 0.358 7.74 5.02 13.88
3/9/2021 2:45:00 AM 0.01 32.018 0.358 7.73 5 13.89
3/9/2021 3:00:00 AM 0 32 0.357 7.73 4.78 13.88
3/9/2021 3:15:00 AM -0.01 31.982 0.357 7.73 4.93 13.92
3/9/2021 3:30:00 AM -0.02 31.964 0.356 7.73 4.79 13.84
3/9/2021 3:45:00 AM -0.03 31.946 0.355 7.73 4.64 13.89
3/9/2021 4:00:00 AM -0.03 31.946 0.354 7.73 4.64 13.87
3/9/2021 4:15:00 AM -0.04 31.928 0.355 7.73 4.74 13.9
3/9/2021 4:30:00 AM -0.05 31.91 0.354 7.72 4.58 13.85
3/9/2021 4:45:00 AM -0.06 31.892 0.354 7.72 4.68 13.93
3/9/2021 5:00:00 AM -0.06 31.892 0.354 7.72 4.65 13.92
3/9/2021 5:15:00 AM -0.06 31.892 0.354 7.7 4.71 13.93
3/9/2021 5:30:00 AM -0.05 31.91 0.355 7.71 4.72 13.93
3/9/2021 5:45:00 AM -0.04 31.928 0.355 7.71 4.74 13.95
3/9/2021 6:00:00 AM -0.04 31.928 0.355 7.7 4.69 13.93
3/9/2021 6:15:00 AM -0.04 31.928 0.356 7.69 4.7 13.96
3/9/2021 6:30:00 AM -0.05 31.91 0.355 7.71 4.52 13.98
3/9/2021 6:45:00 AM -0.04 31.928 0.356 7.71 4.59 13.98
3/9/2021 7:00:00 AM -0.04 31.928 0.356 7.72 4.48 14.05
3/9/2021 7:15:00 AM -0.03 31.946 0.356 7.74 4.39 14.16
3/9/2021 7:30:00 AM -0.03 31.946 0.356 7.76 4.53 14.29
3/9/2021 7:45:00 AM -0.02 31.964 0.355 7.78 4.31 14.46
3/9/2021 8:00:00 AM 0.01 32.018 0.355 7.81 4.62 14.59
3/9/2021 8:15:00 AM 0.03 32.054 0.355 7.85 4.39 14.75
3/9/2021 8:30:00 AM 0.04 32.072 0.354 7.89 4.39 14.9
3/9/2021 8:45:00 AM 0.06 32.108 0.353 7.91 4.38 15.01
3/9/2021 9:00:00 AM 0.11 32.198 0.352 7.97 4.43 15.08
3/9/2021 9:15:00 AM 0.25 32.45 0.351 8.02 4.79 15.13
3/9/2021 9:30:00 AM 0.41 32.738 0.351 8.06 4.63 15.2
3/9/2021 9:45:00 AM 0.59 33.062 0.35 8.09 4.36 15.19
3/9/2021 10:00:00 AM 0.81 33.458 0.35 8.13 4.52 15.21
3/9/2021 10:15:00 AM 1.08 33.944 0.351 8.16 4.37 15.16
3/9/2021 10:30:00 AM 1.32 34.376 0.351 8.16 4.5 15.19
3/9/2021 10:45:00 AM 1.55 34.79 0.351 8.21 4.19 15.16
3/9/2021 11:00:00 AM 1.77 35.186 0.35 8.23 4.54 15.12
3/9/2021 11:15:00 AM 2.08 35.744 0.349 8.26 4.35 15.07
3/9/2021 11:30:00 AM 2.31 36.158 0.348 8.28 4.3 15.02
3/9/2021 11:45:00 AM 2.54 36.572 0.348 8.29 4.23 14.94
3/9/2021 12:00:00 PM 2.79 37.022 0.348 8.31 5.37 14.88
3/9/2021 12:15:00 PM 3.05 37.49 0.349 8.31 5.17 14.86
3/9/2021 12:30:00 PM 3.3 37.94 0.349 8.33 4.78 14.8
3/9/2021 12:45:00 PM 3.48 38.264 0.348 8.34 4.67 14.69
3/9/2021 1:00:00 PM 3.61 38.498 0.347 8.37 4.74 14.64
3/9/2021 1:15:00 PM 3.75 38.75 0.346 8.39 6.23 14.55
3/9/2021 1:30:00 PM 3.88 38.984 0.345 8.42 4.55 14.47
3/9/2021 1:45:00 PM 3.98 39.164 0.344 8.44 4.86 14.36
3/9/2021 2:00:00 PM 4.17 39.506 0.343 8.46 4.8 14.27
3/9/2021 2:15:00 PM 4.3 39.74 0.342 8.49 5.48 14.19
3/9/2021 2:30:00 PM 4.49 40.082 0.341 8.51 4.85 14.13
3/9/2021 2:45:00 PM 4.58 40.244 0.34 8.54 4.96 14.16
3/9/2021 3:00:00 PM 4.74 40.532 0.34 8.56 4.77 14
3/9/2021 3:15:00 PM 4.86 40.748 0.34 8.57 5.16 13.94
3/9/2021 3:30:00 PM 4.97 40.946 0.339 8.6 5.07 13.83
3/9/2021 3:45:00 PM 5.04 41.072 0.338 8.61 5.2 13.74
3/9/2021 4:00:00 PM 5 41 0.337 8.62 5.49 13.75
3/9/2021 4:15:00 PM 5 41 0.337 8.63 5.66 13.65
3/9/2021 4:30:00 PM 5.02 41.036 0.336 8.63 5.98 13.57
3/9/2021 4:45:00 PM 5.03 41.054 0.334 8.63 5.99 13.52
3/9/2021 5:00:00 PM 5.02 41.036 0.331 8.62 6.41 13.44
3/9/2021 5:15:00 PM 4.96 40.928 0.329 8.59 6.95 13.31
3/9/2021 5:30:00 PM 4.89 40.802 0.327 8.55 7.49 13.18
3/9/2021 5:45:00 PM 4.85 40.73 0.325 8.49 8.03 13.05
3/9/2021 6:00:00 PM 4.76 40.568 0.323 8.41 7.71 12.93
3/9/2021 6:15:00 PM 4.64 40.352 0.322 8.3 10 12.81
3/9/2021 6:30:00 PM 4.47 40.046 0.319 8.19 12.45 12.75
3/9/2021 6:45:00 PM 4.27 39.686 0.314 8.1 16.19 12.72
3/9/2021 7:00:00 PM 3.89 39.002 0.303 7.98 18.74 12.79
3/9/2021 7:15:00 PM 3.37 38.066 0.294 7.88 32.91 12.92
3/9/2021 7:30:00 PM 2.93 37.274 0.291 7.83 23.7 13.05
3/9/2021 7:45:00 PM 2.65 36.77 0.291 7.81 31.75 13.12
3/9/2021 8:00:00 PM 2.45 36.41 0.293 7.81 35.23 13.17
3/9/2021 8:15:00 PM 2.31 36.158 0.294 7.79 36.08 13.2
3/9/2021 8:30:00 PM 2.19 35.942 0.292 7.78 38.83 13.24
3/9/2021 8:45:00 PM 2.07 35.726 0.289 7.77 44.08 13.29
3/9/2021 9:00:00 PM 1.94 35.492 0.287 7.75 50.85 13.34
3/9/2021 9:15:00 PM 1.8 35.24 0.285 7.74 55.93 13.41
3/9/2021 9:30:00 PM 1.65 34.97 0.281 7.72 42.93 13.47
3/9/2021 9:45:00 PM 1.51 34.718 0.277 7.71 34 13.54
3/9/2021 10:00:00 PM 1.37 34.466 0.274 7.68 43.52 13.61
3/9/2021 10:15:00 PM 1.23 34.214 0.27 7.69 49.12 13.66
3/9/2021 10:30:00 PM 1.1 33.98 0.267 7.68 35.61 13.72
3/9/2021 10:45:00 PM 0.99 33.782 0.265 7.68 31.8 13.77
3/9/2021 11:00:00 PM 0.88 33.584 0.263 7.67 31.15 13.81
3/9/2021 11:15:00 PM 0.77 33.386 0.261 7.66 30.42 13.87
3/9/2021 11:30:00 PM 0.67 33.206 0.26 7.66 32.81 13.91
3/9/2021 11:45:00 PM 0.58 33.044 0.26 7.66 31.11 13.95
3/10/2021 12:00:00 AM 0.49 32.882 0.259 7.66 29.77 13.99
3/10/2021 12:15:00 AM 0.42 32.756 0.259 7.66 28.97 14.02
3/10/2021 12:30:00 AM 0.35 32.63 0.259 7.66 32.51 14.05
3/10/2021 12:45:00 AM 0.28 32.504 0.258 7.66 26.84 14.08
3/10/2021 1:00:00 AM 0.21 32.378 0.258 7.66 25.19 14.11
3/10/2021 1:15:00 AM 0.16 32.288 0.257 7.65 24.44 14.11
3/10/2021 1:30:00 AM 0.1 32.18 0.257 7.66 32.63 14.15
3/10/2021 1:45:00 AM 0.05 32.09 0.256 7.65 27.76 14.17
3/10/2021 2:00:00 AM 0.01 32.018 0.256 7.66 25.48 14.19
3/10/2021 2:15:00 AM -0.03 31.946 0.257 7.65 24.52 14.2
3/10/2021 2:30:00 AM -0.07 31.874 0.257 7.65 22.25 14.22
3/10/2021 2:45:00 AM -0.07 31.874 0.257 7.65 22.27 14.25
3/10/2021 3:00:00 AM -0.07 31.874 0.258 7.65 28.19 14.25
3/10/2021 3:15:00 AM -0.07 31.874 0.259 7.65 22.23 14.25
3/10/2021 3:30:00 AM -0.07 31.874 0.259 7.65 20.42 14.25
3/10/2021 3:45:00 AM -0.07 31.874 0.26 7.65 19.09 14.25
3/10/2021 4:00:00 AM -0.06 31.892 0.261 7.65 19.93 14.25
3/10/2021 4:15:00 AM -0.06 31.892 0.261 7.66 19.38 14.27
3/10/2021 4:30:00 AM -0.06 31.892 0.263 7.65 18.78 14.26
3/10/2021 4:45:00 AM -0.06 31.892 0.264 7.63 18.1 14.25
3/10/2021 5:00:00 AM -0.06 31.892 0.264 7.65 16.9 14.26
3/10/2021 5:15:00 AM -0.06 31.892 0.265 7.66 17.78 14.25
3/10/2021 5:30:00 AM -0.06 31.892 0.266 7.65 15.7 14.25
3/10/2021 5:45:00 AM -0.06 31.892 0.267 7.65 16.02 14.25
3/10/2021 6:00:00 AM -0.06 31.892 0.268 7.65 14.55 14.25
3/10/2021 6:15:00 AM -0.06 31.892 0.269 7.65 16.07 14.25
3/10/2021 6:30:00 AM -0.06 31.892 0.27 7.65 13.34 14.25
3/10/2021 6:45:00 AM -0.06 31.892 0.27 7.65 14.51 14.26
3/10/2021 7:00:00 AM -0.06 31.892 0.271 7.67 13.72 14.3
3/10/2021 7:15:00 AM -0.06 31.892 0.272 7.67 12.48 14.34
3/10/2021 7:30:00 AM -0.05 31.91 0.273 7.68 12.56 14.39
3/10/2021 7:45:00 AM -0.04 31.928 0.275 7.7 11.97 14.46
3/10/2021 8:00:00 AM -0.03 31.946 0.276 7.71 13.26 14.55
3/10/2021 8:15:00 AM -0.02 31.964 0.277 7.73 11.96 14.62
3/10/2021 8:30:00 AM -0.02 31.964 0.276 7.75 12.95 14.68
3/10/2021 8:45:00 AM 0 32 0.277 7.77 10.82 14.73
3/10/2021 9:00:00 AM 0.01 32.018 0.277 7.8 11.5 14.78
3/10/2021 9:15:00 AM 0.03 32.054 0.276 7.83 11.5 14.82
3/10/2021 9:30:00 AM 0.13 32.234 0.276 7.86 11.51 14.86
3/10/2021 9:45:00 AM 0.3 32.54 0.275 7.89 11.14 14.89
3/10/2021 10:00:00 AM 0.45 32.81 0.275 7.92 10.24 14.93
3/10/2021 10:15:00 AM 0.62 33.116 0.274 7.95 10.62 14.95
3/10/2021 10:30:00 AM 0.79 33.422 0.273 7.97 10.43 14.95
3/10/2021 10:45:00 AM 1.01 33.818 0.272 8.01 10.4 14.93
3/10/2021 11:00:00 AM 1.23 34.214 0.27 8.02 9.91 14.91
3/10/2021 11:15:00 AM 1.47 34.646 0.269 8.05 9.74 14.88
3/10/2021 11:30:00 AM 1.71 35.078 0.267 8.07 10.27 14.83
3/10/2021 11:45:00 AM 1.96 35.528 0.266 8.1 10.33 14.76
3/10/2021 12:00:00 PM 2.21 35.978 0.266 8.12 9.83 14.7
3/10/2021 12:15:00 PM 2.46 36.428 0.267 8.14 10.02 14.63
3/10/2021 12:30:00 PM 2.7 36.86 0.268 8.17 9.9 14.56
3/10/2021 12:45:00 PM 2.92 37.256 0.269 8.18 9.69 14.48
3/10/2021 1:00:00 PM 3.15 37.67 0.27 8.21 9.61 14.39
3/10/2021 1:15:00 PM 3.39 38.102 0.269 8.22 9.32 14.31
3/10/2021 1:30:00 PM 3.65 38.57 0.268 8.26 10.78 14.24
3/10/2021 1:45:00 PM 3.91 39.038 0.267 8.28 9.85 14.15
3/10/2021 2:00:00 PM 4.16 39.488 0.265 8.3 10.44 14.05
3/10/2021 2:15:00 PM 4.39 39.902 0.265 8.31 10.41 13.95
3/10/2021 2:30:00 PM 4.6 40.28 0.265 8.32 9.95 13.87
3/10/2021 2:45:00 PM 4.8 40.64 0.266 8.34 10.6 13.77
3/10/2021 3:00:00 PM 4.96 40.928 0.266 8.36 9.46 13.69
3/10/2021 3:15:00 PM 5.09 41.162 0.266 8.36 10.01 13.61
3/10/2021 3:30:00 PM 5.18 41.324 0.265 8.37 10.41 13.51
3/10/2021 3:45:00 PM 5.25 41.45 0.265 8.36 10.84 13.42
3/10/2021 4:00:00 PM 5.28 41.504 0.264 8.33 11.63 13.32
3/10/2021 4:15:00 PM 5.26 41.468 0.262 8.29 13.7 13.21
3/10/2021 4:30:00 PM 5.19 41.342 0.257 8.22 17.14 13.09
3/10/2021 4:45:00 PM 5.01 41.018 0.252 8.12 23.62 12.96
3/10/2021 5:00:00 PM 4.74 40.532 0.247 7.98 36 12.82
3/10/2021 5:15:00 PM 4.47 40.046 0.246 7.86 74.37 12.74
3/10/2021 5:30:00 PM 4.24 39.632 0.245 7.8 98.48 12.7
3/10/2021 5:45:00 PM 4.03 39.254 0.243 7.75 108.97 12.7
3/10/2021 6:00:00 PM 3.8 38.84 0.239 7.7 160.24 12.73
3/10/2021 6:15:00 PM 3.56 38.408 0.233 7.66 141.52 12.79
3/10/2021 6:30:00 PM 3.31 37.958 0.227 7.62 193.17 12.86
3/10/2021 6:45:00 PM 3.06 37.508 0.221 7.59 158.79 12.94
3/10/2021 7:00:00 PM 2.82 37.076 0.215 7.56 236.48 13.03
3/10/2021 7:15:00 PM 2.59 36.662 0.21 7.53 156.36 13.11
3/10/2021 7:30:00 PM 2.39 36.302 0.205 7.53 168.98 13.19
3/10/2021 7:45:00 PM 2.23 36.014 0.2 7.53 142.48 13.25
3/10/2021 8:00:00 PM 2.1 35.78 0.197 7.52 124.67 13.3
3/10/2021 8:15:00 PM 1.98 35.564 0.194 7.53 148.87 13.36
3/10/2021 8:30:00 PM 1.88 35.384 0.192 7.52 125.9 13.4
3/10/2021 8:45:00 PM 1.79 35.222 0.19 7.52 123.08 13.43
3/10/2021 9:00:00 PM 1.72 35.096 0.189 7.52 138.41 13.47
3/10/2021 9:15:00 PM 1.65 34.97 0.188 7.52 105.52 13.5
3/10/2021 9:30:00 PM 1.59 34.862 0.187 7.51 85.02 13.52
3/10/2021 9:45:00 PM 1.53 34.754 0.186 7.52 100.4 13.55
3/10/2021 10:00:00 PM 1.48 34.664 0.186 7.51 81.36 13.57
3/10/2021 10:15:00 PM 1.43 34.574 0.185 7.51 104.63 13.59
3/10/2021 10:30:00 PM 1.39 34.502 0.185 7.51 96.92 13.6
3/10/2021 10:45:00 PM 1.35 34.43 0.185 7.52 91.12 13.62
3/10/2021 11:00:00 PM 1.32 34.376 0.185 7.52 74.92 13.63
3/10/2021 11:15:00 PM 1.29 34.322 0.186 7.52 100.44 13.65
3/10/2021 11:30:00 PM 1.26 34.268 0.186 7.52 56.65 13.65
3/10/2021 11:45:00 PM 1.23 34.214 0.186 7.52 53.05 13.66
3/11/2021 12:00:00 AM 1.22 34.196 0.187 7.52 48.46 13.66
3/11/2021 12:15:00 AM 1.2 34.16 0.187 7.52 52.84 13.67
3/11/2021 12:30:00 AM 1.19 34.142 0.187 7.53 70.33 13.67
3/11/2021 12:45:00 AM 1.19 34.142 0.188 7.53 40.66 13.68
3/11/2021 1:00:00 AM 1.19 34.142 0.188 7.53 58.84 13.68
3/11/2021 1:15:00 AM 1.19 34.142 0.189 7.53 37.54 13.68
3/11/2021 1:30:00 AM 1.2 34.16 0.189 7.53 43.17 13.68
3/11/2021 1:45:00 AM 1.21 34.178 0.19 7.54 52.43 13.67
3/11/2021 2:00:00 AM 1.22 34.196 0.19 7.54 44.85 13.67
3/11/2021 2:15:00 AM 1.24 34.232 0.191 7.54 38.09 13.66
3/11/2021 2:30:00 AM 1.26 34.268 0.192 7.54 44.5 13.65
3/11/2021 2:45:00 AM 1.28 34.304 0.192 7.54 72.01 13.64
3/11/2021 3:00:00 AM 1.29 34.322 0.193 7.55 36.18 13.63
3/11/2021 3:15:00 AM 1.31 34.358 0.194 7.55 42.32 13.62
3/11/2021 3:30:00 AM 1.33 34.394 0.194 7.55 36.2 13.61
3/11/2021 3:45:00 AM 1.35 34.43 0.194 7.55 35.01 13.59
3/11/2021 4:00:00 AM 1.37 34.466 0.195 7.55 33.48 13.59
3/11/2021 4:15:00 AM 1.38 34.484 0.195 7.53 40.81 13.58
3/11/2021 4:30:00 AM 1.4 34.52 0.196 7.55 41.41 13.57
3/11/2021 4:45:00 AM 1.42 34.556 0.196 7.55 32.47 13.55
3/11/2021 5:00:00 AM 1.44 34.592 0.196 7.56 35.87 13.56
3/11/2021 5:15:00 AM 1.45 34.61 0.197 7.55 45.62 13.55
3/11/2021 5:30:00 AM 1.47 34.646 0.197 7.55 29.42 13.54
3/11/2021 5:45:00 AM 1.47 34.646 0.198 7.55 29.85 13.52
3/11/2021 6:00:00 AM 1.47 34.646 0.198 7.53 22.75 13.53
3/11/2021 6:15:00 AM 1.47 34.646 0.198 7.55 25.58 13.53
3/11/2021 6:30:00 AM 1.48 34.664 0.198 7.55 26.35 13.52
3/11/2021 6:45:00 AM 1.49 34.682 0.198 7.55 30.34 13.52
3/11/2021 7:00:00 AM 1.5 34.7 0.199 7.55 23.32 13.52
3/11/2021 7:15:00 AM 1.5 34.7 0.198 7.54 22.27 13.54
3/11/2021 7:30:00 AM 1.51 34.718 0.199 7.56 28.13 13.57
3/11/2021 7:45:00 AM 1.5 34.7 0.199 7.56 25.99 13.58
3/11/2021 8:00:00 AM 1.51 34.718 0.199 7.57 26.32 13.61
3/11/2021 8:15:00 AM 1.55 34.79 0.199 7.59 23.9 13.65
3/11/2021 8:30:00 AM 1.6 34.88 0.199 7.6 24.43 13.7
3/11/2021 8:45:00 AM 1.67 35.006 0.199 7.62 23.13 13.73
3/11/2021 9:00:00 AM 1.74 35.132 0.2 7.63 22.7 13.75
3/11/2021 9:15:00 AM 1.89 35.402 0.2 7.66 24.11 13.79
3/11/2021 9:30:00 AM 2.05 35.69 0.199 7.69 22.81 13.81
3/11/2021 9:45:00 AM 2.31 36.158 0.199 7.73 20.62 13.83
3/11/2021 10:00:00 AM 2.43 36.374 0.199 7.71 33.18 13.79
3/11/2021 10:15:00 AM 2.54 36.572 0.199 7.75 22.11 13.75
3/11/2021 10:30:00 AM 2.75 36.95 0.199 7.77 21.79 13.74
3/11/2021 10:45:00 AM 2.99 37.382 0.198 7.8 22.05 13.71
3/11/2021 11:00:00 AM 3.21 37.778 0.198 7.81 21.63 13.66
3/11/2021 11:15:00 AM 3.45 38.21 0.198 7.83 21.72 13.59
3/11/2021 11:30:00 AM 3.69 38.642 0.198 7.85 22.52 13.54
3/11/2021 11:45:00 AM 3.94 39.092 0.198 7.86 22.35 13.48
3/11/2021 12:00:00 PM 4.16 39.488 0.197 7.87 25.23 13.41
3/11/2021 12:15:00 PM 4.38 39.884 0.196 7.88 25.1 13.33
3/11/2021 12:30:00 PM 4.62 40.316 0.196 7.89 24.49 13.26
3/11/2021 12:45:00 PM 4.86 40.748 0.195 7.9 30.09 13.18
3/11/2021 1:00:00 PM 5 41 0.194 7.89 24.96 13.07
3/11/2021 1:15:00 PM 5.11 41.198 0.192 7.88 26.77 12.97
3/11/2021 1:30:00 PM 5.23 41.414 0.191 7.86 29.15 12.88
3/11/2021 1:45:00 PM 5.43 41.774 0.189 7.86 30.68 12.8
3/11/2021 2:00:00 PM 5.56 42.008 0.187 7.84 48.06 12.68
3/11/2021 2:15:00 PM 5.61 42.098 0.185 7.8 48.31 12.56
3/11/2021 2:30:00 PM 5.7 42.26 0.183 7.77 70.79 12.46
3/11/2021 2:45:00 PM 5.81 42.458 0.18 7.74 58.34 12.39
3/11/2021 3:00:00 PM 5.85 42.53 0.178 7.71 73.6 12.31
3/11/2021 3:15:00 PM 5.8 42.44 0.175 7.71 102.32 12.26
3/11/2021 3:30:00 PM 5.77 42.386 0.172 7.62 106.85 12.22
3/11/2021 3:45:00 PM 5.67 42.206 0.169 7.59 117.74 12.2
3/11/2021 4:00:00 PM 5.56 42.008 0.165 7.56 122.36 12.2
3/11/2021 4:15:00 PM 5.42 41.756 0.162 7.52 154.31 12.21
3/11/2021 4:30:00 PM 5.29 41.522 0.158 7.48 159.41 12.24
3/11/2021 4:45:00 PM 5.17 41.306 0.155 7.46 183.33 12.28
3/11/2021 5:00:00 PM 5.04 41.072 0.152 7.45 223.28 12.31
3/11/2021 5:15:00 PM 4.92 40.856 0.149 7.44 157.69 12.34
3/11/2021 5:30:00 PM 4.81 40.658 0.146 7.42 241.49 12.36
3/11/2021 5:45:00 PM 4.72 40.496 0.144 7.4 150.05 12.39
3/11/2021 6:00:00 PM 4.65 40.37 0.143 7.42 210.36 12.4
3/11/2021 6:15:00 PM 4.57 40.226 0.141 7.41 178.86 12.41
3/11/2021 6:30:00 PM 4.5 40.1 0.14 7.41 160 12.43
3/11/2021 6:45:00 PM 4.45 40.01 0.139 7.41 167.03 12.44
3/11/2021 7:00:00 PM 4.4 39.92 0.138 7.4 129.25 12.46
3/11/2021 7:15:00 PM 4.35 39.83 0.137 7.4 138.3 12.47
3/11/2021 7:30:00 PM 4.3 39.74 0.137 7.39 157.25 12.49
3/11/2021 7:45:00 PM 4.24 39.632 0.136 7.39 131.5 12.5
3/11/2021 8:00:00 PM 4.2 39.56 0.136 7.39 106.33 12.52
3/11/2021 8:15:00 PM 4.17 39.506 0.136 7.39 136.01 12.54
3/11/2021 8:30:00 PM 4.12 39.416 0.135 7.39 109.86 12.55
3/11/2021 8:45:00 PM 4.07 39.326 0.135 7.38 117.3 12.57
3/11/2021 9:00:00 PM 4.02 39.236 0.135 7.38 122.86 12.59
3/11/2021 9:15:00 PM 3.99 39.182 0.135 7.38 86.75 12.6
3/11/2021 9:30:00 PM 3.95 39.11 0.135 7.39 79.67 12.61
3/11/2021 9:45:00 PM 3.93 39.074 0.135 7.39 113.26 12.62
3/11/2021 10:00:00 PM 3.92 39.056 0.135 7.39 107.16 12.63
3/11/2021 10:15:00 PM 3.89 39.002 0.135 7.39 79.88 12.64
3/11/2021 10:30:00 PM 3.87 38.966 0.136 7.36 87.21 12.64
3/11/2021 10:45:00 PM 3.85 38.93 0.136 7.4 103.34 12.65
3/11/2021 11:00:00 PM 3.83 38.894 0.136 7.39 64.21 12.64
3/11/2021 11:15:00 PM 3.82 38.876 0.136 7.4 86.94 12.66
3/11/2021 11:30:00 PM 3.8 38.84 0.136 7.39 59.86 12.66
3/11/2021 11:45:00 PM 3.78 38.804 0.136 7.4 58.5 12.67
3/12/2021 12:00:00 AM 3.77 38.786 0.137 7.4 69.7 12.67
3/12/2021 12:15:00 AM 3.77 38.786 0.137 7.4 67.09 12.67
3/12/2021 12:30:00 AM 3.77 38.786 0.137 7.4 57.1 12.68
3/12/2021 12:45:00 AM 3.75 38.75 0.138 7.4 57.24 12.68
3/12/2021 1:00:00 AM 3.73 38.714 0.138 7.4 70.72 12.69
3/12/2021 1:15:00 AM 3.73 38.714 0.138 7.41 86.4 12.69
3/12/2021 1:30:00 AM 3.72 38.696 0.138 7.39 71.11 12.7
3/12/2021 1:45:00 AM 3.7 38.66 0.138 7.4 51.18 12.71
3/12/2021 2:00:00 AM 3.66 38.588 0.138 7.4 57.26 12.71
3/12/2021 2:15:00 AM 3.63 38.534 0.138 7.4 55.64 12.72
3/12/2021 2:30:00 AM 3.59 38.462 0.138 7.4 50.49 12.73
3/12/2021 2:45:00 AM 3.56 38.408 0.138 7.41 64.59 12.75
3/12/2021 3:00:00 AM 3.53 38.354 0.139 7.4 66.49 12.76
3/12/2021 3:15:00 AM 3.5 38.3 0.139 7.4 84.67 12.77
3/12/2021 3:30:00 AM 3.46 38.228 0.139 7.4 81.39 12.79
3/12/2021 3:45:00 AM 3.41 38.138 0.139 7.4 78.26 12.8
3/12/2021 4:00:00 AM 3.36 38.048 0.14 7.4 75.56 12.83
3/12/2021 4:15:00 AM 3.31 37.958 0.139 7.4 63.23 12.84
3/12/2021 4:30:00 AM 3.25 37.85 0.14 7.4 56.95 12.86
3/12/2021 4:45:00 AM 3.18 37.724 0.14 7.39 68.41 12.89
3/12/2021 5:00:00 AM 3.11 37.598 0.14 7.39 66.83 12.91
3/12/2021 5:15:00 AM 3.04 37.472 0.141 7.39 51.8 12.93
3/12/2021 5:30:00 AM 2.96 37.328 0.141 7.37 47.39 12.97
3/12/2021 5:45:00 AM 2.88 37.184 0.141 7.38 56.56 12.99
3/12/2021 6:00:00 AM 2.81 37.058 0.141 7.38 76.75 13.01
3/12/2021 6:15:00 AM 2.73 36.914 0.142 7.38 51.9 13.04
3/12/2021 6:30:00 AM 2.65 36.77 0.143 7.38 47.94 13.07
3/12/2021 6:45:00 AM 2.58 36.644 0.143 7.38 57.91 13.1
3/12/2021 7:00:00 AM 2.5 36.5 0.143 7.38 43.12 13.14
3/12/2021 7:15:00 AM 2.44 36.392 0.145 7.38 42.44 13.17
3/12/2021 7:30:00 AM 2.38 36.284 0.145 7.38 41.75 13.2
3/12/2021 7:45:00 AM 2.33 36.194 0.145 7.39 48.97 13.25
3/12/2021 8:00:00 AM 2.3 36.14 0.146 7.4 47.15 13.28
3/12/2021 8:15:00 AM 2.29 36.122 0.147 7.41 37.66 13.32
3/12/2021 8:30:00 AM 2.29 36.122 0.147 7.42 36.57 13.35
3/12/2021 8:45:00 AM 2.33 36.194 0.148 7.44 35.49 13.4
3/12/2021 9:00:00 AM 2.38 36.284 0.148 7.46 34.63 13.43
3/12/2021 9:15:00 AM 2.45 36.41 0.148 7.47 33.95 13.45
3/12/2021 9:30:00 AM 2.54 36.572 0.148 7.49 37.05 13.47
3/12/2021 9:45:00 AM 2.66 36.788 0.149 7.52 33.08 13.48
3/12/2021 10:00:00 AM 2.79 37.022 0.15 7.53 38.2 13.47
3/12/2021 10:15:00 AM 2.93 37.274 0.149 7.55 32.27 13.47
3/12/2021 10:30:00 AM 3.09 37.562 0.151 7.56 34.1 13.45
3/12/2021 10:45:00 AM 3.25 37.85 0.151 7.57 48.46 13.42
3/12/2021 11:00:00 AM 3.43 38.174 0.151 7.59 30.89 13.38
3/12/2021 11:15:00 AM 3.62 38.516 0.151 7.6 31.3 13.35
3/12/2021 11:30:00 AM 3.82 38.876 0.153 7.61 27.98 13.3
3/12/2021 11:45:00 AM 4.01 39.218 0.153 7.63 29.35 13.25
3/12/2021 12:00:00 PM 4.21 39.578 0.153 7.63 29.84 13.19
3/12/2021 12:15:00 PM 4.41 39.938 0.153 7.64 26.94 13.13
3/12/2021 12:30:00 PM 4.61 40.298 0.154 7.65 28.44 13.07
3/12/2021 12:45:00 PM 4.8 40.64 0.155 7.66 30.55 13.02
3/12/2021 1:00:00 PM 4.99 40.982 0.155 7.67 35.98 12.95
3/12/2021 1:15:00 PM 5.19 41.342 0.155 7.68 27.15 12.88
3/12/2021 1:30:00 PM 5.37 41.666 0.156 7.68 27.27 12.82
3/12/2021 1:45:00 PM 5.54 41.972 0.155 7.69 24.66 12.77
3/12/2021 2:00:00 PM 5.7 42.26 0.157 7.69 23.58 12.7
3/12/2021 2:15:00 PM 5.85 42.53 0.157 7.7 26.87 12.65
3/12/2021 2:30:00 PM 5.99 42.782 0.157 7.71 24.29 12.59
3/12/2021 2:45:00 PM 6.1 42.98 0.157 7.71 26.76 12.54
3/12/2021 3:00:00 PM 6.2 43.16 0.158 7.7 23.42 12.48
3/12/2021 3:15:00 PM 6.28 43.304 0.157 7.7 25.27 12.43
3/12/2021 3:30:00 PM 6.33 43.394 0.159 7.66 24.75 12.38
3/12/2021 3:45:00 PM 6.36 43.448 0.159 7.7 27.39 12.34
3/12/2021 4:00:00 PM 6.37 43.466 0.159 7.68 27.09 12.29
3/12/2021 4:15:00 PM 6.36 43.448 0.158 7.67 28.41 12.25
3/12/2021 4:30:00 PM 6.34 43.412 0.158 7.66 26.09 12.21
3/12/2021 4:45:00 PM 6.3 43.34 0.159 7.64 26.12 12.17
3/12/2021 5:00:00 PM 6.24 43.232 0.159 7.62 28.84 12.13
3/12/2021 5:15:00 PM 6.17 43.106 0.159 7.6 26.47 12.1
3/12/2021 5:30:00 PM 6.09 42.962 0.159 7.57 27.93 12.07
3/12/2021 5:45:00 PM 6.01 42.818 0.159 7.55 25.76 12.06
3/12/2021 6:00:00 PM 5.93 42.674 0.158 7.53 27.79 12.05
3/12/2021 6:15:00 PM 5.85 42.53 0.159 7.52 33.26 12.04
3/12/2021 6:30:00 PM 5.75 42.35 0.159 7.51 27.07 12.04
3/12/2021 6:45:00 PM 5.66 42.188 0.158 7.48 26.06 12.04
3/12/2021 7:00:00 PM 5.58 42.044 0.159 7.49 24.83 12.05
3/12/2021 7:15:00 PM 5.48 41.864 0.158 7.47 30.32 12.07
3/12/2021 7:30:00 PM 5.37 41.666 0.157 7.46 30.46 12.09
3/12/2021 7:45:00 PM 5.26 41.468 0.158 7.45 33.26 12.13
3/12/2021 8:00:00 PM 5.15 41.27 0.158 7.44 27.54 12.16
3/12/2021 8:15:00 PM 5.05 41.09 0.158 7.44 27.47 12.19
3/12/2021 8:30:00 PM 4.94 40.892 0.158 7.43 29.57 12.21
3/12/2021 8:45:00 PM 4.82 40.676 0.158 7.43 31.87 12.25
3/12/2021 9:00:00 PM 4.72 40.496 0.159 7.43 27.81 12.29
3/12/2021 9:15:00 PM 4.61 40.298 0.159 7.42 25.69 12.32
3/12/2021 9:30:00 PM 4.49 40.082 0.159 7.42 27.13 12.37
3/12/2021 9:45:00 PM 4.36 39.848 0.159 7.42 30.18 12.4
3/12/2021 10:00:00 PM 4.24 39.632 0.159 7.42 26.56 12.45
3/12/2021 10:15:00 PM 4.11 39.398 0.159 7.42 29.26 12.49
3/12/2021 10:30:00 PM 3.99 39.182 0.159 7.42 29.56 12.54
3/12/2021 10:45:00 PM 3.86 38.948 0.16 7.41 29 12.59
3/12/2021 11:00:00 PM 3.72 38.696 0.16 7.4 28.32 12.64
3/12/2021 11:15:00 PM 3.59 38.462 0.161 7.41 28.17 12.68
3/12/2021 11:30:00 PM 3.47 38.246 0.161 7.42 29.03 12.73
3/12/2021 11:45:00 PM 3.35 38.03 0.162 7.41 26.74 12.77
3/13/2021 12:00:00 AM 3.24 37.832 0.162 7.42 28.84 12.82
3/13/2021 12:15:00 AM 3.11 37.598 0.162 7.39 25.48 12.87
3/13/2021 12:30:00 AM 2.99 37.382 0.163 7.42 25.47 12.91
3/13/2021 12:45:00 AM 2.86 37.148 0.164 7.42 24.83 12.96
3/13/2021 1:00:00 AM 2.74 36.932 0.164 7.42 32.86 13.01
3/13/2021 1:15:00 AM 2.61 36.698 0.165 7.42 36.17 13.07
3/13/2021 1:30:00 AM 2.49 36.482 0.166 7.42 28.17 13.11
3/13/2021 1:45:00 AM 2.38 36.284 0.165 7.43 23.75 13.17
3/13/2021 2:00:00 AM 2.27 36.086 0.166 7.42 27.02 13.21
3/13/2021 2:15:00 AM 2.16 35.888 0.167 7.42 25.06 13.25
3/13/2021 2:30:00 AM 2.05 35.69 0.167 7.43 25.13 13.29
3/13/2021 2:45:00 AM 1.95 35.51 0.167 7.43 25.78 13.34
3/13/2021 3:00:00 AM 1.84 35.312 0.168 7.43 30.76 13.38
3/13/2021 3:15:00 AM 1.74 35.132 0.168 7.4 23.42 13.42
3/13/2021 3:30:00 AM 1.64 34.952 0.17 7.44 22.52 13.46
3/13/2021 3:45:00 AM 1.55 34.79 0.169 7.44 24.97 13.5
3/13/2021 4:00:00 AM 1.46 34.628 0.171 7.44 22 13.55
3/13/2021 4:15:00 AM 1.36 34.448 0.171 7.44 22.06 13.58
3/13/2021 4:30:00 AM 1.27 34.286 0.171 7.44 21.59 13.62
3/13/2021 4:45:00 AM 1.18 34.124 0.171 7.44 22.25 13.66
3/13/2021 5:00:00 AM 1.1 33.98 0.172 7.44 20.71 13.69
3/13/2021 5:15:00 AM 1.02 33.836 0.172 7.43 24.82 13.73
3/13/2021 5:30:00 AM 0.94 33.692 0.173 7.45 22.75 13.75
3/13/2021 5:45:00 AM 0.86 33.548 0.174 7.45 22.67 13.79
3/13/2021 6:00:00 AM 0.79 33.422 0.173 7.45 19.5 13.82
3/13/2021 6:15:00 AM 0.71 33.278 0.173 7.45 21.13 13.86
3/13/2021 6:30:00 AM 0.64 33.152 0.174 7.42 20.85 13.89
3/13/2021 6:45:00 AM 0.58 33.044 0.175 7.46 19.47 13.93
3/13/2021 7:00:00 AM 0.51 32.918 0.176 7.47 20.58 13.98
3/13/2021 7:15:00 AM 0.46 32.828 0.176 7.48 19.73 14.05
3/13/2021 7:30:00 AM 0.42 32.756 0.177 7.49 18.73 14.11
3/13/2021 7:45:00 AM 0.39 32.702 0.178 7.5 18.41 14.18
3/13/2021 8:00:00 AM 0.36 32.648 0.178 7.52 19.39 14.25
3/13/2021 8:15:00 AM 0.35 32.63 0.179 7.49 19.07 14.3
3/13/2021 8:30:00 AM 0.38 32.684 0.178 7.55 17.72 14.38
3/13/2021 8:45:00 AM 0.41 32.738 0.179 7.57 17.63 14.42
3/13/2021 9:00:00 AM 0.46 32.828 0.179 7.59 17.86 14.46
3/13/2021 9:15:00 AM 0.53 32.954 0.18 7.61 17.86 14.5
3/13/2021 9:30:00 AM 0.63 33.134 0.179 7.63 16.21 14.52
3/13/2021 9:45:00 AM 0.75 33.35 0.18 7.64 16.81 14.53
3/13/2021 10:00:00 AM 0.89 33.602 0.18 7.67 17.41 14.53
3/13/2021 10:15:00 AM 1.06 33.908 0.18 7.68 16.94 14.51
3/13/2021 10:30:00 AM 1.23 34.214 0.181 7.69 15.14 14.49
3/13/2021 10:45:00 AM 1.4 34.52 0.181 7.7 16.94 14.46
3/13/2021 11:00:00 AM 1.59 34.862 0.181 7.69 15.54 14.42
3/13/2021 11:15:00 AM 1.78 35.204 0.181 7.73 16.19 14.38
3/13/2021 11:30:00 AM 1.98 35.564 0.181 7.75 15.66 14.33
3/13/2021 11:45:00 AM 2.19 35.942 0.182 7.76 15.58 14.26
3/13/2021 12:00:00 PM 2.4 36.32 0.182 7.77 16.74 14.18
3/13/2021 12:15:00 PM 2.63 36.734 0.182 7.78 15.11 14.12
3/13/2021 12:30:00 PM 2.85 37.13 0.182 7.77 15.11 14.03
3/13/2021 12:45:00 PM 3.07 37.526 0.182 7.81 14.65 13.95
3/13/2021 1:00:00 PM 3.28 37.904 0.182 7.82 14.78 13.88
3/13/2021 1:15:00 PM 3.49 38.282 0.183 7.82 14.3 13.81
3/13/2021 1:30:00 PM 3.69 38.642 0.182 7.84 14.2 13.74
3/13/2021 1:45:00 PM 3.88 38.984 0.183 7.84 14.3 13.67
3/13/2021 2:00:00 PM 4.05 39.29 0.183 7.85 14.61 13.59
3/13/2021 2:15:00 PM 4.21 39.578 0.183 7.85 15.43 13.52
3/13/2021 2:30:00 PM 4.35 39.83 0.183 7.86 13.53 13.46
3/13/2021 2:45:00 PM 4.47 40.046 0.183 7.87 15.12 13.4
3/13/2021 3:00:00 PM 4.58 40.244 0.184 7.87 14.41 13.34
3/13/2021 3:15:00 PM 4.65 40.37 0.184 7.87 15.03 13.29
3/13/2021 3:30:00 PM 4.72 40.496 0.185 7.87 13.42 13.24
3/13/2021 3:45:00 PM 4.75 40.55 0.185 7.84 15.26 13.2
3/13/2021 4:00:00 PM 4.77 40.586 0.185 7.86 13.64 13.15
3/13/2021 4:15:00 PM 4.78 40.604 0.186 7.85 14.47 13.1
3/13/2021 4:30:00 PM 4.76 40.568 0.186 7.84 14.1 13.06
3/13/2021 4:45:00 PM 4.73 40.514 0.186 7.82 14.7 13.01
3/13/2021 5:00:00 PM 4.68 40.424 0.185 7.8 13.11 12.94
3/13/2021 5:15:00 PM 4.63 40.334 0.185 7.78 13.91 12.89
3/13/2021 5:30:00 PM 4.56 40.208 0.185 7.75 14.48 12.82
3/13/2021 5:45:00 PM 4.5 40.1 0.186 7.69 15.77 12.77
3/13/2021 6:00:00 PM 4.43 39.974 0.186 7.68 14.48 12.71
3/13/2021 6:15:00 PM 4.36 39.848 0.186 7.66 15.3 12.66
3/13/2021 6:30:00 PM 4.29 39.722 0.186 7.64 17.26 12.63
3/13/2021 6:45:00 PM 4.2 39.56 0.187 7.59 17.9 12.6
3/13/2021 7:00:00 PM 4.12 39.416 0.187 7.6 18.58 12.59
3/13/2021 7:15:00 PM 4.02 39.236 0.188 7.56 18.01 12.59
3/13/2021 7:30:00 PM 3.93 39.074 0.187 7.57 19.46 12.59
3/13/2021 7:45:00 PM 3.83 38.894 0.188 7.56 21.49 12.61
3/13/2021 8:00:00 PM 3.73 38.714 0.188 7.55 19.2 12.63
3/13/2021 8:15:00 PM 3.63 38.534 0.188 7.54 20.22 12.65
3/13/2021 8:30:00 PM 3.52 38.336 0.188 7.53 19.51 12.67
3/13/2021 8:45:00 PM 3.41 38.138 0.189 7.53 21.04 12.7
3/13/2021 9:00:00 PM 3.31 37.958 0.189 7.49 20.28 12.72
3/13/2021 9:15:00 PM 3.22 37.796 0.189 7.52 19.85 12.75
3/13/2021 9:30:00 PM 3.13 37.634 0.19 7.52 20.93 12.78
3/13/2021 9:45:00 PM 3.05 37.49 0.19 7.49 19.6 12.81
3/13/2021 10:00:00 PM 2.97 37.346 0.19 7.52 20.59 12.84
3/13/2021 10:15:00 PM 2.88 37.184 0.19 7.52 19.67 12.87
3/13/2021 10:30:00 PM 2.8 37.04 0.19 7.51 18.11 12.89
3/13/2021 10:45:00 PM 2.72 36.896 0.191 7.51 18.13 12.93
3/13/2021 11:00:00 PM 2.63 36.734 0.191 7.51 29.54 12.96
3/13/2021 11:15:00 PM 2.54 36.572 0.191 7.51 19.86 12.99
3/13/2021 11:30:00 PM 2.46 36.428 0.192 7.51 18.41 13.02
3/13/2021 11:45:00 PM 2.37 36.266 0.192 7.51 20.12 13.06
3/14/2021 12:00:00 AM 2.28 36.104 0.192 7.51 19.34 13.09
3/14/2021 12:15:00 AM 2.2 35.96 0.193 7.51 19.04 13.12
3/14/2021 12:30:00 AM 2.12 35.816 0.193 7.51 18.66 13.15
3/14/2021 12:45:00 AM 2.04 35.672 0.194 7.48 19.2 13.18
3/14/2021 1:00:00 AM 1.96 35.528 0.193 7.51 21.71 13.21
3/14/2021 1:15:00 AM 1.89 35.402 0.194 7.51 20.47 13.24
3/14/2021 1:30:00 AM 1.83 35.294 0.194 7.51 20.24 13.26
3/14/2021 1:45:00 AM 1.76 35.168 0.194 7.51 19.19 13.29
3/14/2021 3:00:00 AM 1.48 34.664 0.196 7.52 18.84 13.41
3/14/2021 3:15:00 AM 1.44 34.592 0.197 7.52 19.52 13.43
3/14/2021 3:30:00 AM 1.41 34.538 0.197 7.53 20.6 13.45
3/14/2021 3:45:00 AM 1.38 34.484 0.197 7.53 19.95 13.46
3/14/2021 4:00:00 AM 1.36 34.448 0.197 7.53 18.45 13.47
3/14/2021 5:15:00 AM 1.33 34.394 0.197 7.53 20.02 13.47
3/14/2021 5:30:00 AM 1.29 34.322 0.198 7.53 19.29 13.48
3/14/2021 5:45:00 AM 1.26 34.268 0.198 7.53 18.45 13.49
3/14/2021 6:00:00 AM 1.22 34.196 0.199 7.53 18.91 13.52
3/14/2021 6:15:00 AM 1.17 34.106 0.199 7.53 18.81 13.53
3/14/2021 6:30:00 AM 1.12 34.016 0.198 7.53 18.26 13.55
3/14/2021 6:45:00 AM 1.09 33.962 0.199 7.53 19.78 13.56
3/14/2021 7:00:00 AM 1.05 33.89 0.199 7.53 19.23 13.57
3/14/2021 7:15:00 AM 1 33.8 0.199 7.54 18.42 13.59
3/14/2021 7:30:00 AM 0.97 33.746 0.2 7.53 19.26 13.6
3/14/2021 7:45:00 AM 0.92 33.656 0.2 7.54 19.54 13.65
3/14/2021 8:00:00 AM 0.89 33.602 0.2 7.55 17.87 13.71
3/14/2021 8:15:00 AM 0.87 33.566 0.2 7.56 18.26 13.78
3/14/2021 8:30:00 AM 0.86 33.548 0.2 7.58 18.12 13.85
3/14/2021 8:45:00 AM 0.88 33.584 0.201 7.6 17.82 13.94
3/14/2021 9:00:00 AM 0.9 33.62 0.201 7.63 17.33 14.01
3/14/2021 9:15:00 AM 0.94 33.692 0.201 7.64 17.56 14.07
3/14/2021 9:30:00 AM 1 33.8 0.202 7.67 17.89 14.12
3/14/2021 9:45:00 AM 1.08 33.944 0.202 7.69 18.32 14.17
3/14/2021 10:00:00 AM 1.18 34.124 0.202 7.72 18.48 14.21
3/14/2021 10:15:00 AM 1.3 34.34 0.202 7.73 16.6 14.24
3/14/2021 10:30:00 AM 1.44 34.592 0.201 7.76 16.95 14.26
3/14/2021 10:45:00 AM 1.58 34.844 0.202 7.78 16.92 14.26
3/14/2021 11:00:00 AM 1.76 35.168 0.201 7.8 18.08 14.25
3/14/2021 11:15:00 AM 1.9 35.42 0.201 7.82 17.62 14.23
3/14/2021 11:30:00 AM 2.02 35.636 0.201 7.83 16.92 14.21
3/14/2021 11:45:00 AM 2.06 35.708 0.201 7.83 16.85 14.18
3/14/2021 12:00:00 PM 2.22 35.996 0.201 7.86 15.81 14.16
3/14/2021 12:15:00 PM 2.38 36.284 0.201 7.87 16.85 14.14
3/14/2021 12:30:00 PM 2.52 36.536 0.201 7.89 17.44 14.1
3/14/2021 12:45:00 PM 2.71 36.878 0.201 7.91 17.05 14.06
3/14/2021 1:00:00 PM 2.91 37.238 0.201 7.93 16.36 14
3/14/2021 1:15:00 PM 3.04 37.472 0.201 7.94 17.45 13.94
3/14/2021 1:30:00 PM 3.13 37.634 0.201 7.93 16.71 13.87
3/14/2021 1:45:00 PM 3.31 37.958 0.201 7.96 17.09 13.85
3/14/2021 2:00:00 PM 3.46 38.228 0.201 7.96 16.68 13.75
3/14/2021 2:15:00 PM 3.65 38.57 0.202 7.96 16.71 13.72
3/14/2021 2:30:00 PM 3.78 38.804 0.201 7.99 16.7 13.67
3/14/2021 2:45:00 PM 3.93 39.074 0.202 8 16.59 13.63
3/14/2021 3:00:00 PM 4.05 39.29 0.202 8.01 17.63 13.59
3/14/2021 3:15:00 PM 4.21 39.578 0.202 8.03 17.45 13.55
3/14/2021 3:30:00 PM 4.26 39.668 0.202 8.02 17.07 13.5
3/14/2021 3:45:00 PM 4.38 39.884 0.202 8.04 17.5 13.46
3/14/2021 4:00:00 PM 4.48 40.064 0.202 8.04 16.95 13.43
3/14/2021 4:15:00 PM 4.57 40.226 0.202 8.05 17.32 13.4
3/14/2021 4:30:00 PM 4.55 40.19 0.202 8.04 17.08 13.34
3/14/2021 4:45:00 PM 4.52 40.136 0.203 8.02 16.86 13.3
3/14/2021 5:00:00 PM 4.57 40.226 0.203 8.02 17.04 13.27
3/14/2021 5:15:00 PM 4.54 40.172 0.204 8.01 16.62 13.24
3/14/2021 5:30:00 PM 4.5 40.1 0.204 8 17.44 13.23
3/14/2021 5:45:00 PM 4.43 39.974 0.204 7.98 17.1 13.19
3/14/2021 6:00:00 PM 4.39 39.902 0.204 7.97 17.14 13.16
3/14/2021 6:15:00 PM 4.29 39.722 0.204 7.94 16.83 13.12
3/14/2021 6:30:00 PM 4.2 39.56 0.204 7.9 16.61 13.07
3/14/2021 6:45:00 PM 4.11 39.398 0.204 7.87 17.35 13.01
3/14/2021 7:00:00 PM 4.01 39.218 0.204 7.83 17.62 12.94
3/14/2021 7:15:00 PM 3.91 39.038 0.205 7.79 17.15 12.88
3/14/2021 7:30:00 PM 3.79 38.822 0.205 7.75 17.5 12.83
3/14/2021 7:45:00 PM 3.69 38.642 0.205 7.72 17.64 12.79
3/14/2021 8:00:00 PM 3.58 38.444 0.205 7.69 17.39 12.76
3/14/2021 8:15:00 PM 3.47 38.246 0.205 7.67 17.27 12.76
3/14/2021 8:30:00 PM 3.36 38.048 0.206 7.66 16.73 12.78
3/14/2021 8:45:00 PM 3.25 37.85 0.206 7.64 16.28 12.79
3/14/2021 9:00:00 PM 3.14 37.652 0.207 7.63 21.34 12.82
3/14/2021 9:15:00 PM 3.02 37.436 0.207 7.62 20.66 12.84
3/14/2021 9:30:00 PM 2.91 37.238 0.207 7.61 19.74 12.88
3/14/2021 9:45:00 PM 2.77 36.986 0.207 7.59 19.95 12.92
3/14/2021 10:00:00 PM 2.64 36.752 0.208 7.59 17.22 12.97
3/14/2021 10:15:00 PM 2.49 36.482 0.208 7.58 18.52 13.01
3/14/2021 10:30:00 PM 2.38 36.284 0.208 7.57 17.87 13.03
3/14/2021 10:45:00 PM 2.27 36.086 0.208 7.57 20.18 13.09
3/14/2021 11:00:00 PM 2.16 35.888 0.209 7.57 18.83 13.13
3/14/2021 11:15:00 PM 2.04 35.672 0.208 7.57 19.15 13.19
3/14/2021 11:30:00 PM 1.92 35.456 0.209 7.54 18.31 13.24
3/14/2021 11:45:00 PM 1.78 35.204 0.209 7.56 18.28 13.29
3/15/2021 12:00:00 AM 1.66 34.988 0.209 7.56 18.41 13.35
3/15/2021 12:15:00 AM 1.54 34.772 0.21 7.55 18.7 13.39
3/15/2021 12:30:00 AM 1.41 34.538 0.211 7.55 17.93 13.44
3/15/2021 12:45:00 AM 1.27 34.286 0.211 7.55 18.14 13.5
3/15/2021 1:00:00 AM 1.14 34.052 0.211 7.55 18.01 13.55
3/15/2021 1:15:00 AM 1.01 33.818 0.211 7.55 18.31 13.62
3/15/2021 1:30:00 AM 0.9 33.62 0.212 7.55 18.46 13.65
3/15/2021 1:45:00 AM 0.77 33.386 0.212 7.55 18.27 13.71
3/15/2021 2:00:00 AM 0.64 33.152 0.213 7.55 18.2 13.76
3/15/2021 2:15:00 AM 0.53 32.954 0.213 7.55 18.26 13.82
3/15/2021 2:30:00 AM 0.43 32.774 0.213 7.55 17.57 13.86
3/15/2021 2:45:00 AM 0.33 32.594 0.214 7.56 17.73 13.91
3/15/2021 3:00:00 AM 0.22 32.396 0.214 7.55 17.24 13.96
3/15/2021 3:15:00 AM 0.13 32.234 0.215 7.55 18.23 14
3/15/2021 3:30:00 AM 0.04 32.072 0.215 7.55 16.88 14.04
3/15/2021 3:45:00 AM -0.03 31.946 0.216 7.55 17.5 14.06
3/15/2021 4:00:00 AM -0.07 31.874 0.216 7.55 17.12 14.11
3/15/2021 4:15:00 AM -0.06 31.892 0.217 7.58 18.23 14.14
3/15/2021 4:30:00 AM -0.06 31.892 0.218 7.57 17.26 14.15
3/15/2021 4:45:00 AM -0.05 31.91 0.219 7.57 17.35 14.15
3/15/2021 5:00:00 AM -0.04 31.928 0.22 7.57 17.7 14.13
3/15/2021 5:15:00 AM -0.03 31.946 0.222 7.56 18.07 14.04
3/15/2021 5:30:00 AM -0.03 31.946 0.222 7.56 17.62 14.04
3/15/2021 5:45:00 AM -0.03 31.946 0.224 7.55 17.71 14.02
3/15/2021 6:00:00 AM -0.03 31.946 0.224 7.55 17.16 14.03
3/15/2021 6:15:00 AM -0.03 31.946 0.225 7.55 17.18 14.03
3/15/2021 6:30:00 AM -0.02 31.964 0.227 7.54 16.69 14
3/15/2021 6:45:00 AM -0.01 31.982 0.229 7.53 16.83 14
3/15/2021 7:00:00 AM 0.02 32.036 0.234 7.5 17.18 13.92
3/15/2021 7:15:00 AM 0.02 32.036 0.234 7.49 16.67 13.93
3/15/2021 7:30:00 AM 0.02 32.036 0.236 7.49 16.41 13.91
3/15/2021 7:45:00 AM 0.03 32.054 0.237 7.48 16.72 13.92
3/15/2021 8:00:00 AM 0.03 32.054 0.238 7.48 17.46 13.96
3/15/2021 8:15:00 AM 0.03 32.054 0.238 7.49 17.12 14.04
3/15/2021 8:30:00 AM 0.04 32.072 0.24 7.51 16.54 14.14
3/15/2021 8:45:00 AM 0.06 32.108 0.241 7.52 16.55 14.26
3/15/2021 9:00:00 AM 0.08 32.144 0.242 7.55 16.59 14.4
3/15/2021 9:15:00 AM 0.1 32.18 0.242 7.56 16.67 14.51
3/15/2021 9:30:00 AM 0.12 32.216 0.242 7.59 16.28 14.68
3/15/2021 9:45:00 AM 0.13 32.234 0.242 7.62 15.73 14.72
3/15/2021 10:00:00 AM 0.18 32.324 0.244 7.62 15.98 14.84
3/15/2021 10:15:00 AM 0.22 32.396 0.244 7.65 15.09 14.89
3/15/2021 10:30:00 AM 0.24 32.432 0.245 7.67 15.55 14.91
3/15/2021 10:45:00 AM 0.28 32.504 0.245 7.7 15.4 14.94
3/15/2021 11:00:00 AM 0.32 32.576 0.244 7.73 15.54 14.97
3/15/2021 11:15:00 AM 0.49 32.882 0.245 7.76 15.26 14.96
3/15/2021 11:30:00 AM 0.67 33.206 0.244 7.79 15.4 14.97
3/15/2021 11:45:00 AM 0.82 33.476 0.243 7.82 15.12 14.91
3/15/2021 12:00:00 PM 0.93 33.674 0.242 7.86 15.4 14.93
3/15/2021 12:15:00 PM 1 33.8 0.241 7.89 15.47 14.92
3/15/2021 12:30:00 PM 1.08 33.944 0.239 7.92 15.86 14.87
3/15/2021 12:45:00 PM 1.17 34.106 0.237 7.93 15.57 14.84
3/15/2021 1:00:00 PM 1.28 34.304 0.236 7.94 16.08 14.86
3/15/2021 1:15:00 PM 1.38 34.484 0.232 7.95 15.64 14.78
3/15/2021 1:30:00 PM 1.48 34.664 0.229 7.96 15.39 14.76
3/15/2021 1:45:00 PM 1.59 34.862 0.225 7.97 15.46 14.7
3/15/2021 2:00:00 PM 1.72 35.096 0.223 7.98 15.87 14.65
3/15/2021 2:15:00 PM 1.87 35.366 0.224 7.99 16.24 14.6
3/15/2021 2:30:00 PM 2.02 35.636 0.226 8.02 16.27 14.59
3/15/2021 2:45:00 PM 2.17 35.906 0.228 8.03 16.04 14.54
3/15/2021 3:00:00 PM 2.31 36.158 0.228 8.05 16.2 14.48
3/15/2021 3:15:00 PM 2.43 36.374 0.228 8.06 16.45 14.44
3/15/2021 3:30:00 PM 2.57 36.626 0.228 8.08 16.93 14.37
3/15/2021 3:45:00 PM 2.71 36.878 0.226 8.09 17.27 14.3
3/15/2021 4:00:00 PM 2.83 37.094 0.224 8.09 17.57 14.24
3/15/2021 4:15:00 PM 2.92 37.256 0.222 8.09 17.82 14.17
3/15/2021 4:30:00 PM 3.01 37.418 0.221 8.09 17.26 14.13
3/15/2021 4:45:00 PM 3.1 37.58 0.219 8.1 17.01 14.06
3/15/2021 5:00:00 PM 3.12 37.616 0.219 8.09 17.04 14.03
3/15/2021 5:15:00 PM 3.13 37.634 0.22 8.09 17.22 13.98
3/15/2021 5:30:00 PM 3.09 37.562 0.221 8.08 17.21 13.92
3/15/2021 5:45:00 PM 3.05 37.49 0.223 8.06 16.6 13.88
3/15/2021 6:00:00 PM 2.99 37.382 0.224 8.03 17.27 13.82
3/15/2021 6:15:00 PM 2.93 37.274 0.225 8.02 16.88 13.78
3/15/2021 6:30:00 PM 2.86 37.148 0.225 7.99 17.06 13.7
3/15/2021 6:45:00 PM 2.79 37.022 0.226 7.95 17.82 13.6
3/15/2021 7:00:00 PM 2.71 36.878 0.226 7.91 16.99 13.52
3/15/2021 7:15:00 PM 2.65 36.77 0.227 7.87 16.99 13.44
3/15/2021 7:30:00 PM 2.57 36.626 0.227 7.84 17.01 13.38
3/15/2021 7:45:00 PM 2.5 36.5 0.228 7.8 16.79 13.32
3/15/2021 8:00:00 PM 2.43 36.374 0.228 7.77 17.58 13.29
3/15/2021 8:15:00 PM 2.36 36.248 0.228 7.75 17.45 13.25
3/15/2021 8:30:00 PM 2.28 36.104 0.227 7.73 17.58 13.24
3/15/2021 8:45:00 PM 2.2 35.96 0.228 7.71 18.86 13.23
3/15/2021 9:00:00 PM 2.11 35.798 0.228 7.69 17.75 13.26
3/15/2021 9:15:00 PM 2.01 35.618 0.228 7.68 18.62 13.26
3/15/2021 9:30:00 PM 1.91 35.438 0.229 7.67 18.14 13.27
3/15/2021 9:45:00 PM 1.81 35.258 0.228 7.66 18.06 13.33
3/15/2021 10:00:00 PM 1.71 35.078 0.229 7.65 17.93 13.33
3/15/2021 10:15:00 PM 1.61 34.898 0.228 7.64 17.2 13.38
3/15/2021 10:30:00 PM 1.52 34.736 0.228 7.64 17.54 13.36
3/15/2021 10:45:00 PM 1.44 34.592 0.228 7.63 16.97 13.37
3/15/2021 11:00:00 PM 1.35 34.43 0.228 7.63 15.98 13.43
3/15/2021 11:15:00 PM 1.27 34.286 0.228 7.62 16.72 13.48
3/15/2021 11:30:00 PM 1.19 34.142 0.228 7.62 16.48 13.52
3/15/2021 11:45:00 PM 1.11 33.998 0.228 7.62 16.65 13.53
3/16/2021 12:00:00 AM 1.04 33.872 0.228 7.61 16.28 13.5
3/16/2021 12:15:00 AM 0.98 33.764 0.228 7.61 16.6 13.61
3/16/2021 12:30:00 AM 0.9 33.62 0.227 7.62 16.72 13.62
3/16/2021 12:45:00 AM 0.85 33.53 0.228 7.61 16.9 13.66
3/16/2021 1:00:00 AM 0.79 33.422 0.228 7.61 16.45 13.65
3/16/2021 1:15:00 AM 0.72 33.296 0.228 7.61 16.88 13.72
3/16/2021 1:30:00 AM 0.67 33.206 0.228 7.62 16.64 13.74
3/16/2021 1:45:00 AM 0.62 33.116 0.228 7.61 15.71 13.75
3/16/2021 2:00:00 AM 0.57 33.026 0.227 7.61 15.95 13.77
3/16/2021 2:15:00 AM 0.53 32.954 0.228 7.61 13.08 13.79
3/16/2021 2:30:00 AM 0.49 32.882 0.228 7.61 13.15 13.81
3/16/2021 2:45:00 AM 0.45 32.81 0.229 7.61 13.19 13.82
3/16/2021 3:00:00 AM 0.42 32.756 0.229 7.61 12.84 13.82
3/16/2021 3:15:00 AM 0.38 32.684 0.23 7.61 13.48 13.84
3/16/2021 3:30:00 AM 0.35 32.63 0.23 7.61 13.56 13.88
3/16/2021 3:45:00 AM 0.31 32.558 0.23 7.61 12.92 13.89
3/16/2021 4:00:00 AM 0.26 32.468 0.23 7.61 13.33 13.9
3/16/2021 4:15:00 AM 0.23 32.414 0.23 7.61 12.8 13.84
3/16/2021 4:30:00 AM 0.2 32.36 0.231 7.62 13.05 13.85
3/16/2021 4:45:00 AM 0.17 32.306 0.231 7.62 12.89 13.92
3/16/2021 5:00:00 AM 0.14 32.252 0.232 7.62 12.87 13.94
3/16/2021 5:15:00 AM 0.11 32.198 0.232 7.62 12.83 13.94
3/16/2021 5:30:00 AM 0.08 32.144 0.233 7.62 12.47 13.94
3/16/2021 5:45:00 AM 0.06 32.108 0.233 7.62 12.98 13.96
3/16/2021 6:00:00 AM 0.02 32.036 0.233 7.62 12.27 13.9
3/16/2021 6:15:00 AM -0.01 31.982 0.234 7.61 12.56 13.92
3/16/2021 6:30:00 AM -0.03 31.946 0.234 7.59 12.58 13.95
3/16/2021 6:45:00 AM -0.04 31.928 0.235 7.62 12.28 13.93
3/16/2021 7:00:00 AM -0.05 31.91 0.235 7.62 12.28 13.93
3/16/2021 7:15:00 AM -0.06 31.892 0.235 7.62 12.28 13.92
3/16/2021 7:30:00 AM -0.06 31.892 0.236 7.62 12.23 14.01
3/16/2021 7:45:00 AM -0.06 31.892 0.236 7.62 12.12 14
3/16/2021 8:00:00 AM -0.05 31.91 0.236 7.63 12.25 14.01
3/16/2021 8:15:00 AM -0.05 31.91 0.236 7.64 12.42 14.09
3/16/2021 8:30:00 AM -0.04 31.928 0.236 7.64 12.2 14.13
3/16/2021 8:45:00 AM -0.04 31.928 0.236 7.66 12.12 14.24
3/16/2021 9:00:00 AM -0.03 31.946 0.236 7.67 12.06 14.22
3/16/2021 9:15:00 AM -0.02 31.964 0.236 7.69 11.95 14.35
3/16/2021 9:30:00 AM -0.02 31.964 0.236 7.7 11.9 14.38
3/16/2021 9:45:00 AM -0.01 31.982 0.237 7.72 11.94 14.44
3/16/2021 10:00:00 AM 0 32 0.237 7.74 11.68 14.52
3/16/2021 10:15:00 AM 0.01 32.018 0.237 7.76 11.87 14.56
3/16/2021 10:30:00 AM 0.02 32.036 0.237 7.78 11.6 14.63
3/16/2021 10:45:00 AM 0.03 32.054 0.238 7.79 12.04 14.65
3/16/2021 11:00:00 AM 0.06 32.108 0.238 7.82 11.57 14.71
3/16/2021 11:15:00 AM 0.09 32.162 0.237 7.83 17.86 14.75
3/16/2021 11:30:00 AM 0.13 32.234 0.237 7.85 11.97 14.74
3/16/2021 11:45:00 AM 0.18 32.324 0.238 7.87 11.85 14.81
3/16/2021 12:00:00 PM 0.24 32.432 0.237 7.89 11.34 14.84
3/16/2021 12:15:00 PM 0.28 32.504 0.237 7.9 11.81 14.82
3/16/2021 12:30:00 PM 0.31 32.558 0.237 7.91 11.48 14.78
3/16/2021 12:45:00 PM 0.33 32.594 0.237 7.92 11.78 14.78
3/16/2021 1:00:00 PM 0.37 32.666 0.237 7.93 11.41 14.78
3/16/2021 1:15:00 PM 0.41 32.738 0.237 7.94 12.34 14.81
3/16/2021 1:30:00 PM 0.49 32.882 0.238 7.98 11.57 14.84
3/16/2021 1:45:00 PM 0.56 33.008 0.237 8.01 11.4 14.84
3/16/2021 2:00:00 PM 0.6 33.08 0.238 8.02 11.26 14.84
3/16/2021 2:15:00 PM 0.64 33.152 0.238 8.03 11.41 14.87
3/16/2021 2:30:00 PM 0.66 33.188 0.238 8.04 11.44 14.81
3/16/2021 2:45:00 PM 0.67 33.206 0.238 8.04 11.37 14.74
3/16/2021 3:00:00 PM 0.67 33.206 0.238 8.03 11.8 14.72
3/16/2021 3:15:00 PM 0.7 33.26 0.238 8.03 11.46 14.67
3/16/2021 3:30:00 PM 0.71 33.278 0.238 8.04 11.58 14.72
3/16/2021 3:45:00 PM 0.71 33.278 0.238 8.04 11.77 14.67
3/16/2021 4:00:00 PM 0.72 33.296 0.237 8.04 11.78 14.66
3/16/2021 4:15:00 PM 0.75 33.35 0.237 8.03 11.48 14.62
3/16/2021 4:30:00 PM 0.77 33.386 0.237 8.03 11.66 14.61
3/16/2021 4:45:00 PM 0.83 33.494 0.237 8.03 11.47 14.63
3/16/2021 5:00:00 PM 0.89 33.602 0.237 8.06 11.47 14.66
3/16/2021 5:15:00 PM 0.91 33.638 0.237 8.04 11.31 14.55
3/16/2021 5:30:00 PM 0.93 33.674 0.236 8.05 11.52 14.56
3/16/2021 5:45:00 PM 0.96 33.728 0.237 8.04 11.26 14.48
3/16/2021 6:00:00 PM 0.97 33.746 0.238 8.03 11.18 14.46
3/16/2021 6:15:00 PM 0.98 33.764 0.239 8 11.12 14.33
3/16/2021 6:30:00 PM 0.97 33.746 0.239 7.97 11.31 14.25
3/16/2021 6:45:00 PM 0.96 33.728 0.24 7.94 13.27 14.19
3/16/2021 7:00:00 PM 0.95 33.71 0.24 7.91 12.92 14.05
3/16/2021 7:15:00 PM 0.94 33.692 0.24 7.88 13.14 14.02
3/16/2021 7:30:00 PM 0.94 33.692 0.24 7.85 17.07 13.97
3/16/2021 7:45:00 PM 0.94 33.692 0.24 7.82 11.69 13.85
3/16/2021 8:00:00 PM 0.94 33.692 0.24 7.8 10.6 13.82
3/16/2021 8:15:00 PM 0.94 33.692 0.24 7.79 11.55 13.78
3/16/2021 8:30:00 PM 0.94 33.692 0.239 7.77 11.21 13.75
3/16/2021 8:45:00 PM 0.94 33.692 0.24 7.75 11.1 13.69
3/16/2021 9:00:00 PM 0.95 33.71 0.239 7.74 11.33 13.69
3/16/2021 9:15:00 PM 0.95 33.71 0.239 7.73 11.95 13.65
3/16/2021 9:30:00 PM 0.96 33.728 0.239 7.71 9.11 13.65
3/16/2021 9:45:00 PM 0.95 33.71 0.24 7.72 9.32 13.61
3/16/2021 10:00:00 PM 0.96 33.728 0.24 7.71 9.38 13.6
3/16/2021 10:15:00 PM 0.95 33.71 0.24 7.7 9.42 13.61
3/16/2021 10:30:00 PM 0.95 33.71 0.24 7.69 9.4 13.62
3/16/2021 10:45:00 PM 0.94 33.692 0.24 7.69 8.96 13.61
3/16/2021 11:00:00 PM 0.94 33.692 0.24 7.68 9.15 13.53
3/16/2021 11:15:00 PM 0.94 33.692 0.24 7.68 8.88 13.58
3/16/2021 11:30:00 PM 0.93 33.674 0.24 7.67 9.41 13.57
3/16/2021 11:45:00 PM 0.92 33.656 0.24 7.67 9.02 13.57
3/17/2021 12:00:00 AM 0.91 33.638 0.24 7.67 8.91 13.61
3/17/2021 12:15:00 AM 0.91 33.638 0.24 7.67 9.22 13.59
3/17/2021 12:30:00 AM 0.9 33.62 0.24 7.66 8.99 13.59
3/17/2021 12:45:00 AM 0.9 33.62 0.24 7.66 9.02 13.62
3/17/2021 1:00:00 AM 0.89 33.602 0.24 7.66 9.23 13.6
3/17/2021 1:15:00 AM 0.89 33.602 0.24 7.66 9.56 13.52
3/17/2021 1:30:00 AM 0.89 33.602 0.241 7.66 9.08 13.58
3/17/2021 1:45:00 AM 0.89 33.602 0.241 7.66 9.01 13.6
3/17/2021 2:00:00 AM 0.89 33.602 0.241 7.66 8.93 13.6
3/17/2021 2:15:00 AM 0.89 33.602 0.241 7.66 9.13 13.6
3/17/2021 2:30:00 AM 0.89 33.602 0.241 7.66 8.98 13.56
3/17/2021 2:45:00 AM 0.9 33.62 0.242 7.66 9.04 13.58
3/17/2021 3:00:00 AM 0.9 33.62 0.241 7.66 8.93 13.6
3/17/2021 3:15:00 AM 0.9 33.62 0.241 7.66 9.12 13.55
3/17/2021 3:30:00 AM 0.9 33.62 0.241 7.66 9.21 13.53
3/17/2021 3:45:00 AM 0.9 33.62 0.241 7.66 9.01 13.57
3/17/2021 4:00:00 AM 0.9 33.62 0.242 7.65 8.93 13.53
3/17/2021 4:15:00 AM 0.89 33.602 0.242 7.66 9.05 13.52
3/17/2021 4:30:00 AM 0.87 33.566 0.242 7.65 9.13 13.57
3/17/2021 4:45:00 AM 0.84 33.512 0.242 7.65 9.13 13.54
3/17/2021 5:00:00 AM 0.8 33.44 0.242 7.64 8.96 13.56
3/17/2021 5:15:00 AM 0.76 33.368 0.243 7.64 8.98 13.6
3/17/2021 5:30:00 AM 0.72 33.296 0.242 7.64 8.98 13.58
3/17/2021 5:45:00 AM 0.68 33.224 0.242 7.64 8.91 13.59
3/17/2021 6:00:00 AM 0.67 33.206 0.243 7.65 8.75 13.61
3/17/2021 6:15:00 AM 0.66 33.188 0.243 7.65 9.12 13.59
3/17/2021 6:30:00 AM 0.65 33.17 0.243 7.63 8.89 13.62
3/17/2021 6:45:00 AM 0.64 33.152 0.242 7.65 8.85 13.66
3/17/2021 7:00:00 AM 0.64 33.152 0.243 7.65 8.81 13.63
3/17/2021 7:15:00 AM 0.65 33.17 0.243 7.65 8.89 13.62
3/17/2021 7:30:00 AM 0.65 33.17 0.243 7.64 8.86 13.62
3/17/2021 7:45:00 AM 0.66 33.188 0.243 7.65 8.95 13.62
3/17/2021 8:00:00 AM 0.67 33.206 0.244 7.66 9.09 13.71
3/17/2021 8:15:00 AM 0.68 33.224 0.244 7.68 8.8 13.85
3/17/2021 8:30:00 AM 0.7 33.26 0.245 7.7 8.62 13.92
3/17/2021 8:45:00 AM 0.72 33.296 0.245 7.73 9.05 14.05
3/17/2021 9:00:00 AM 0.74 33.332 0.244 7.76 9.07 14.17
3/17/2021 9:15:00 AM 0.77 33.386 0.245 7.78 9.04 14.25
3/17/2021 9:30:00 AM 0.81 33.458 0.245 7.81 8.84 14.38
3/17/2021 9:45:00 AM 0.87 33.566 0.244 7.85 8.73 14.48
3/17/2021 10:00:00 AM 0.96 33.728 0.244 7.89 8.67 14.56
3/17/2021 10:15:00 AM 1.04 33.872 0.244 7.92 9.01 14.64
3/17/2021 10:30:00 AM 1.1 33.98 0.244 7.95 8.98 14.64
3/17/2021 10:45:00 AM 1.19 34.142 0.244 7.97 9.04 14.68
3/17/2021 11:00:00 AM 1.29 34.322 0.244 8 8.8 14.68
3/17/2021 11:15:00 AM 1.42 34.556 0.244 8.03 8.94 14.66
3/17/2021 11:30:00 AM 1.59 34.862 0.243 8.08 8.82 14.73
3/17/2021 11:45:00 AM 1.79 35.222 0.243 8.11 8.84 14.69
3/17/2021 12:00:00 PM 2.01 35.618 0.242 8.15 8.64 14.72
3/17/2021 12:15:00 PM 2.3 36.14 0.242 8.17 8.93 14.7
3/17/2021 12:30:00 PM 2.67 36.806 0.241 8.2 8.65 14.61
3/17/2021 12:45:00 PM 2.92 37.256 0.241 8.23 8.98 14.56
3/17/2021 1:00:00 PM 3.12 37.616 0.241 8.24 8.89 14.53
3/17/2021 1:15:00 PM 3.37 38.066 0.239 8.27 8.61 14.46
3/17/2021 1:30:00 PM 3.66 38.588 0.24 8.29 9.08 14.41
3/17/2021 1:45:00 PM 3.88 38.984 0.24 8.31 8.56 14.3
3/17/2021 2:00:00 PM 4.14 39.452 0.24 8.34 8.73 14.22
3/17/2021 2:15:00 PM 4.4 39.92 0.241 8.35 9.18 14.09
3/17/2021 2:30:00 PM 4.62 40.316 0.242 8.38 9.26 14.08
3/17/2021 2:45:00 PM 4.83 40.694 0.243 8.4 9.47 13.99
3/17/2021 3:00:00 PM 5.07 41.126 0.242 8.43 9.22 13.93
3/17/2021 3:15:00 PM 5.29 41.522 0.241 8.45 9.32 13.82
3/17/2021 3:30:00 PM 5.5 41.9 0.24 8.47 9.13 13.77
3/17/2021 3:45:00 PM 5.69 42.242 0.239 8.5 9.16 13.7
3/17/2021 4:00:00 PM 5.87 42.566 0.238 8.51 9.14 13.6
3/17/2021 4:15:00 PM 6.01 42.818 0.239 8.52 9.45 13.51
3/17/2021 4:30:00 PM 6.16 43.088 0.238 8.55 9.21 13.43
3/17/2021 4:45:00 PM 6.26 43.268 0.238 8.54 9.66 13.39
3/17/2021 5:00:00 PM 6.35 43.43 0.237 8.55 9.58 13.29
3/17/2021 5:15:00 PM 6.4 43.52 0.238 8.54 9.41 13.24
3/17/2021 5:30:00 PM 6.45 43.61 0.238 8.54 10.19 13.13
3/17/2021 5:45:00 PM 6.47 43.646 0.238 8.53 10 13.07
3/17/2021 6:00:00 PM 6.46 43.628 0.236 8.5 14.64 12.87
3/17/2021 6:15:00 PM 6.43 43.574 0.24 8.48 8.63 12.85
3/17/2021 6:30:00 PM 6.41 43.538 0.241 8.44 7.19 12.75
3/17/2021 6:45:00 PM 6.38 43.484 0.242 8.39 6.82 12.62
3/17/2021 7:00:00 PM 6.34 43.412 0.242 8.33 7.16 12.47
3/17/2021 7:15:00 PM 6.29 43.322 0.241 8.25 7.17 12.32
3/17/2021 7:30:00 PM 6.24 43.232 0.241 8.17 7.08 12.15
3/17/2021 7:45:00 PM 6.19 43.142 0.24 8.08 7.43 12.05
3/17/2021 8:00:00 PM 6.14 43.052 0.239 8.01 8.21 11.95
3/17/2021 8:15:00 PM 6.09 42.962 0.239 7.94 7.72 11.86
3/17/2021 8:30:00 PM 6.04 42.872 0.238 7.9 8.27 11.78
3/17/2021 8:45:00 PM 5.99 42.782 0.238 7.85 7.47 11.7
3/17/2021 9:00:00 PM 5.94 42.692 0.237 7.82 7.95 11.68
3/17/2021 9:15:00 PM 5.87 42.566 0.237 7.8 7.71 11.63
3/17/2021 9:30:00 PM 5.81 42.458 0.237 7.78 7.55 11.68
3/17/2021 9:45:00 PM 5.73 42.314 0.237 7.73 8 11.72
3/17/2021 10:00:00 PM 5.64 42.152 0.236 7.74 8.26 11.74
3/17/2021 10:15:00 PM 5.55 41.99 0.237 7.72 9.13 11.76
3/17/2021 10:30:00 PM 5.45 41.81 0.237 7.71 8.38 11.79
3/17/2021 10:45:00 PM 5.35 41.63 0.237 7.69 8.51 11.76
3/17/2021 11:00:00 PM 5.24 41.432 0.237 7.69 8.23 11.78
3/17/2021 11:15:00 PM 5.13 41.234 0.237 7.67 9.87 11.87
3/17/2021 11:30:00 PM 5.02 41.036 0.237 7.67 8.65 11.92
3/17/2021 11:45:00 PM 4.91 40.838 0.238 7.66 9.15 11.93
3/18/2021 12:00:00 AM 4.8 40.64 0.238 7.66 10.97 11.98
3/18/2021 12:15:00 AM 4.69 40.442 0.238 7.65 8.7 12.02
3/18/2021 12:30:00 AM 4.56 40.208 0.238 7.65 8.81 12.08
3/18/2021 12:45:00 AM 4.45 40.01 0.238 7.64 13.54 12.04
3/18/2021 1:00:00 AM 4.35 39.83 0.238 7.65 9.33 12.13
3/18/2021 1:15:00 AM 4.25 39.65 0.238 7.64 10.06 12.18
3/18/2021 1:30:00 AM 4.17 39.506 0.238 7.64 10.14 12.19
3/18/2021 1:45:00 AM 4.1 39.38 0.238 7.64 16.2 12.24
3/18/2021 2:00:00 AM 4.02 39.236 0.238 7.64 9.32 12.25
3/18/2021 2:15:00 AM 3.95 39.11 0.238 7.64 10.13 12.31
3/18/2021 2:30:00 AM 3.9 39.02 0.238 7.65 10.73 12.31
3/18/2021 2:45:00 AM 3.84 38.912 0.239 7.65 12.62 12.33
3/18/2021 3:00:00 AM 3.79 38.822 0.239 7.65 9.1 12.37
3/18/2021 3:15:00 AM 3.74 38.732 0.24 7.65 9.33 12.37
3/18/2021 3:30:00 AM 3.69 38.642 0.239 7.65 9.51 12.4
3/18/2021 3:45:00 AM 3.65 38.57 0.239 7.65 10.14 12.44
3/18/2021 4:00:00 AM 3.61 38.498 0.239 7.65 10.85 12.46
3/18/2021 4:15:00 AM 3.57 38.426 0.239 7.66 8.17 12.45
3/18/2021 4:30:00 AM 3.54 38.372 0.239 7.65 9.14 12.48
3/18/2021 4:45:00 AM 3.5 38.3 0.239 7.66 8.28 12.49
3/18/2021 5:00:00 AM 3.46 38.228 0.238 7.66 8.06 12.46
3/18/2021 5:15:00 AM 3.44 38.192 0.239 7.65 8.43 12.51
3/18/2021 5:30:00 AM 3.4 38.12 0.238 7.66 7.57 12.51
3/18/2021 5:45:00 AM 3.37 38.066 0.238 7.65 8.24 12.5
3/18/2021 6:00:00 AM 3.35 38.03 0.237 7.65 8.06 12.52
3/18/2021 6:15:00 AM 3.32 37.976 0.237 7.66 8 12.5
3/18/2021 6:30:00 AM 3.3 37.94 0.237 7.63 8.62 12.53
3/18/2021 6:45:00 AM 3.28 37.904 0.236 7.65 8.35 12.53
3/18/2021 7:00:00 AM 3.26 37.868 0.236 7.65 7.9 12.57
3/18/2021 7:15:00 AM 3.24 37.832 0.236 7.65 7.88 12.53
3/18/2021 7:30:00 AM 3.22 37.796 0.236 7.65 8.49 12.59
3/18/2021 7:45:00 AM 3.2 37.76 0.235 7.65 8.33 12.61
3/18/2021 8:00:00 AM 3.18 37.724 0.235 7.66 8 12.62
3/18/2021 8:15:00 AM 3.17 37.706 0.235 7.66 8.01 12.65
3/18/2021 8:30:00 AM 3.15 37.67 0.235 7.68 7.83 12.68
3/18/2021 8:45:00 AM 3.14 37.652 0.235 7.68 8.33 12.72
3/18/2021 9:00:00 AM 3.13 37.634 0.234 7.7 8.21 12.8
3/18/2021 9:15:00 AM 3.13 37.634 0.234 7.71 7.95 12.86
3/18/2021 9:30:00 AM 3.13 37.634 0.236 7.73 8.2 12.95
3/18/2021 9:45:00 AM 3.13 37.634 0.236 7.74 8.15 13.05
3/18/2021 10:00:00 AM 3.12 37.616 0.235 7.77 8.29 13.14
3/18/2021 10:15:00 AM 3.12 37.616 0.234 7.78 7.91 13.18
3/18/2021 10:30:00 AM 3.13 37.634 0.234 7.8 7.79 13.26
3/18/2021 10:45:00 AM 3.13 37.634 0.233 7.81 8.1 13.34
3/18/2021 11:00:00 AM 3.13 37.634 0.233 7.83 8.79 13.36
3/18/2021 11:15:00 AM 3.14 37.652 0.233 7.86 7.61 13.38
3/18/2021 11:30:00 AM 3.14 37.652 0.233 7.87 7.8 13.42
3/18/2021 11:45:00 AM 3.15 37.67 0.233 7.9 8.17 13.48
3/18/2021 12:00:00 PM 3.16 37.688 0.233 7.91 7.84 13.49
3/18/2021 12:15:00 PM 3.16 37.688 0.232 7.92 7.65 13.51
3/18/2021 12:30:00 PM 3.16 37.688 0.232 7.93 7.49 13.5
3/18/2021 12:45:00 PM 3.17 37.706 0.232 7.94 8.28 13.52
3/18/2021 1:00:00 PM 3.18 37.724 0.233 7.95 8.16 13.51
3/18/2021 1:15:00 PM 3.19 37.742 0.233 7.97 8.38 13.55
3/18/2021 1:30:00 PM 3.2 37.76 0.235 8 9.25 13.61
3/18/2021 1:45:00 PM 3.21 37.778 0.236 8.02 9.26 13.65
3/18/2021 2:00:00 PM 3.22 37.796 0.238 8.04 9.66 13.67
3/18/2021 2:15:00 PM 3.23 37.814 0.242 8.05 10.41 13.66
3/18/2021 2:30:00 PM 3.26 37.868 0.251 8.08 10.58 13.69
3/18/2021 2:45:00 PM 3.29 37.922 0.261 8.1 11.69 13.71
3/18/2021 3:00:00 PM 3.31 37.958 0.273 8.11 12.27 13.7
3/18/2021 3:15:00 PM 3.32 37.976 0.286 8.12 14.45 13.68
3/18/2021 3:30:00 PM 3.33 37.994 0.293 8.11 15.87 13.6
3/18/2021 3:45:00 PM 3.33 37.994 0.293 8.08 20.26 13.52
3/18/2021 4:00:00 PM 3.32 37.976 0.288 8.04 23.31 13.44
3/18/2021 4:15:00 PM 3.29 37.922 0.277 8 17.82 13.36
3/18/2021 4:30:00 PM 3.27 37.886 0.265 7.96 22.04 13.31
3/18/2021 4:45:00 PM 3.24 37.832 0.255 7.91 37.89 13.22
3/18/2021 5:00:00 PM 3.21 37.778 0.247 7.86 34.57 13.15
3/18/2021 5:15:00 PM 3.17 37.706 0.067 7.82 37.34 13.09
3/18/2021 5:30:00 PM 3.12 37.616 0.242 7.78 45.91 13.05
3/18/2021 5:45:00 PM 3.09 37.562 0.247 7.76 55.14 13.02
3/18/2021 6:00:00 PM 3.04 37.472 0.251 7.74 59.17 12.99
3/18/2021 6:15:00 PM 2.99 37.382 0.257 7.71 51.41 12.99
3/18/2021 6:30:00 PM 2.94 37.292 0.264 7.7 66.06 12.99
3/18/2021 6:45:00 PM 2.89 37.202 0.268 7.68 63.34 12.98
3/18/2021 7:00:00 PM 2.84 37.112 0.269 7.67 64.55 12.99
3/18/2021 7:15:00 PM 2.79 37.022 0.27 7.66 100.71 13
3/18/2021 7:30:00 PM 2.74 36.932 0.269 7.64 58.3 13.01
3/18/2021 7:45:00 PM 2.69 36.842 0.269 7.64 67.13 13.02
3/18/2021 8:00:00 PM 2.65 36.77 0.269 7.63 53.18 13.03
3/18/2021 8:15:00 PM 2.61 36.698 0.269 7.62 60.61 13.05
3/18/2021 8:30:00 PM 2.56 36.608 0.268 7.61 52.44 13.06
3/18/2021 8:45:00 PM 2.52 36.536 0.267 7.6 53.76 13.07
3/18/2021 9:00:00 PM 2.48 36.464 0.266 7.6 67.94 13.08
3/18/2021 9:15:00 PM 2.44 36.392 0.265 7.6 73.47 13.1
3/18/2021 9:30:00 PM 2.4 36.32 0.263 7.59 52.84 13.12
3/18/2021 9:45:00 PM 2.36 36.248 0.261 7.59 64.67 13.14
3/18/2021 10:00:00 PM 2.31 36.158 0.258 7.59 74.79 13.16
3/18/2021 10:15:00 PM 2.26 36.068 0.256 7.58 51.41 13.17
3/18/2021 10:30:00 PM 2.21 35.978 0.254 7.58 53.4 13.19
3/18/2021 10:45:00 PM 2.16 35.888 0.252 7.58 42.07 13.21
3/18/2021 11:00:00 PM 2.11 35.798 0.25 7.58 41.1 13.23
3/18/2021 11:15:00 PM 2.06 35.708 0.249 7.58 44.68 13.25
3/18/2021 11:30:00 PM 2.01 35.618 0.247 7.57 37.83 13.27
3/18/2021 11:45:00 PM 1.95 35.51 0.245 7.57 32.82 13.29
3/19/2021 12:00:00 AM 1.87 35.366 0.244 7.57 44.03 13.31
3/19/2021 12:15:00 AM 1.81 35.258 0.243 7.56 34.27 13.33
3/19/2021 12:30:00 AM 1.73 35.114 0.242 7.56 35.33 13.35
3/19/2021 12:45:00 AM 1.67 35.006 0.241 7.56 33.87 13.38
3/19/2021 1:00:00 AM 1.62 34.916 0.239 7.57 34.19 13.41
3/19/2021 1:15:00 AM 1.56 34.808 0.239 7.56 32.49 13.43
3/19/2021 1:30:00 AM 1.5 34.7 0.238 7.56 28.55 13.46
3/19/2021 1:45:00 AM 1.45 34.61 0.237 7.56 29.3 13.48
3/19/2021 2:00:00 AM 1.38 34.484 0.236 7.53 26.63 13.51
3/19/2021 2:15:00 AM 1.3 34.34 0.235 7.56 31.06 13.53
3/19/2021 2:30:00 AM 1.22 34.196 0.235 7.56 23.72 13.57
3/19/2021 2:45:00 AM 1.15 34.07 0.234 7.56 26.64 13.59
3/19/2021 3:00:00 AM 1.08 33.944 0.234 7.56 26.67 13.62
3/19/2021 3:15:00 AM 1.01 33.818 0.233 7.56 25.84 13.65
3/19/2021 3:30:00 AM 0.94 33.692 0.233 7.56 24.3 13.68
3/19/2021 3:45:00 AM 0.87 33.566 0.232 7.56 26.28 13.71
3/19/2021 4:00:00 AM 0.8 33.44 0.232 7.56 22.67 13.73
3/19/2021 4:15:00 AM 0.73 33.314 0.232 7.56 22.73 13.76
3/19/2021 4:30:00 AM 0.66 33.188 0.231 7.55 21.27 13.8
3/19/2021 4:45:00 AM 0.59 33.062 0.231 7.56 22.68 13.82
3/19/2021 5:00:00 AM 0.51 32.918 0.23 7.54 22.39 13.86
3/19/2021 5:15:00 AM 0.44 32.792 0.23 7.56 21 13.89
3/19/2021 5:30:00 AM 0.37 32.666 0.23 7.56 20.56 13.92
3/19/2021 5:45:00 AM 0.3 32.54 0.23 7.55 21.94 13.96
3/19/2021 6:00:00 AM 0.24 32.432 0.23 7.55 23.28 13.98
3/19/2021 6:15:00 AM 0.16 32.288 0.229 7.55 19.42 14.01
3/19/2021 6:30:00 AM 0.1 32.18 0.23 7.56 18.28 14.05
3/19/2021 6:45:00 AM 0.03 32.054 0.23 7.56 21.86 14.07
3/19/2021 7:00:00 AM -0.02 31.964 0.23 7.56 17.98 14.1
3/19/2021 7:15:00 AM -0.08 31.856 0.23 7.56 19.18 14.13
3/19/2021 7:30:00 AM -0.07 31.874 0.231 7.56 20.09 14.18
3/19/2021 7:45:00 AM -0.07 31.874 0.231 7.58 16.96 14.22
3/19/2021 8:00:00 AM -0.06 31.892 0.231 7.58 18.24 14.27
3/19/2021 8:15:00 AM -0.06 31.892 0.23 7.6 17.86 14.34
3/19/2021 8:30:00 AM -0.06 31.892 0.23 7.61 17.92 14.42
3/19/2021 8:45:00 AM -0.05 31.91 0.23 7.62 18.79 14.48
3/19/2021 9:00:00 AM -0.04 31.928 0.23 7.64 16.64 14.53
3/19/2021 9:15:00 AM -0.04 31.928 0.231 7.65 17.09 14.59
3/19/2021 9:30:00 AM -0.03 31.946 0.231 7.67 16.55 14.64
3/19/2021 9:45:00 AM -0.01 31.982 0.232 7.68 15.13 14.69
3/19/2021 10:00:00 AM 0.02 32.036 0.232 7.71 16.46 14.73
3/19/2021 10:15:00 AM 0.09 32.162 0.232 7.73 15.9 14.77
3/19/2021 10:30:00 AM 0.19 32.342 0.233 7.76 15.89 14.81
3/19/2021 10:45:00 AM 0.3 32.54 0.232 7.78 14.4 14.83
3/19/2021 11:00:00 AM 0.47 32.846 0.232 7.81 15.49 14.84
3/19/2021 11:15:00 AM 0.65 33.17 0.232 7.83 15.65 14.84
3/19/2021 11:30:00 AM 0.83 33.494 0.231 7.85 15.37 14.82
3/19/2021 11:45:00 AM 1 33.8 0.231 7.87 14.96 14.81
3/19/2021 12:00:00 PM 1.17 34.106 0.23 7.88 14.8 14.79
3/19/2021 12:15:00 PM 1.36 34.448 0.23 7.9 14.11 14.76
3/19/2021 12:30:00 PM 1.55 34.79 0.231 7.92 13.66 14.72
3/19/2021 12:45:00 PM 1.75 35.15 0.231 7.94 13.17 14.67
3/19/2021 1:00:00 PM 1.96 35.528 0.231 7.96 12.85 14.6
3/19/2021 1:15:00 PM 2.18 35.924 0.232 7.98 14.15 14.54
3/19/2021 1:30:00 PM 2.43 36.374 0.232 8 13.76 14.46
3/19/2021 1:45:00 PM 2.66 36.788 0.231 8.02 13.98 14.38
3/19/2021 2:00:00 PM 2.89 37.202 0.231 8.03 13.35 14.3
3/19/2021 2:15:00 PM 3.1 37.58 0.23 8.05 14.04 14.22
3/19/2021 2:30:00 PM 3.31 37.958 0.229 8.06 13.99 14.15
3/19/2021 2:45:00 PM 3.51 38.318 0.228 8.06 13.58 14.06
3/19/2021 3:00:00 PM 3.72 38.696 0.227 8.08 14.08 14
3/19/2021 3:15:00 PM 3.9 39.02 0.227 8.1 13.53 13.91
3/19/2021 3:30:00 PM 4.05 39.29 0.227 8.11 12.6 13.86
3/19/2021 3:45:00 PM 4.2 39.56 0.227 8.12 14.98 13.8
3/19/2021 4:00:00 PM 4.31 39.758 0.227 8.12 14.6 13.73
3/19/2021 4:15:00 PM 4.39 39.902 0.227 8.12 15.3 13.68
3/19/2021 4:30:00 PM 4.44 39.992 0.226 8.12 14.11 13.64
3/19/2021 4:45:00 PM 4.48 40.064 0.227 8.12 14.97 13.6
3/19/2021 5:00:00 PM 4.49 40.082 0.227 8.08 18.73 13.55
3/19/2021 5:15:00 PM 4.47 40.046 0.227 8.07 24.54 13.51
3/19/2021 5:30:00 PM 4.45 40.01 0.227 8.07 14.09 13.47
3/19/2021 5:45:00 PM 4.4 39.92 0.228 8.05 14.4 13.42
3/19/2021 6:00:00 PM 4.33 39.794 0.228 8.02 13.61 13.37
3/19/2021 6:15:00 PM 4.26 39.668 0.228 7.99 14.07 13.31
3/19/2021 6:30:00 PM 4.19 39.542 0.228 7.95 13.36 13.25
3/19/2021 6:45:00 PM 4.12 39.416 0.228 7.92 14.2 13.18
3/19/2021 7:00:00 PM 4.05 39.29 0.229 7.87 12.4 13.1
3/19/2021 7:15:00 PM 3.97 39.146 0.228 7.83 11.26 13.04
3/19/2021 7:30:00 PM 3.89 39.002 0.228 7.79 12.03 12.98
3/19/2021 7:45:00 PM 3.8 38.84 0.228 7.76 11.92 12.93
3/19/2021 8:00:00 PM 3.71 38.678 0.228 7.72 11.82 12.9
3/19/2021 8:15:00 PM 3.62 38.516 0.229 7.7 11.04 12.89
3/19/2021 8:30:00 PM 3.52 38.336 0.23 7.68 11.99 12.88
3/19/2021 8:45:00 PM 3.41 38.138 0.23 7.64 11.18 12.89
3/19/2021 9:00:00 PM 3.3 37.94 0.231 7.65 11.18 12.9
3/19/2021 9:15:00 PM 3.19 37.742 0.231 7.64 11.63 12.92
3/19/2021 9:30:00 PM 3.08 37.544 0.232 7.62 11.26 12.94
3/19/2021 9:45:00 PM 2.96 37.328 0.231 7.62 10.97 12.98
3/19/2021 10:00:00 PM 2.85 37.13 0.232 7.58 11.83 13
3/19/2021 10:15:00 PM 2.73 36.914 0.233 7.6 12.18 13.04
3/19/2021 10:30:00 PM 2.61 36.698 0.233 7.59 11.32 13.08
3/19/2021 10:45:00 PM 2.49 36.482 0.234 7.59 11.02 13.12
3/19/2021 11:00:00 PM 2.38 36.284 0.234 7.58 10.06 13.17
3/19/2021 11:15:00 PM 2.27 36.086 0.234 7.58 10.93 13.2
3/19/2021 11:30:00 PM 2.16 35.888 0.235 7.58 10.53 13.24
3/19/2021 11:45:00 PM 2.05 35.69 0.235 7.58 11.12 13.29
3/20/2021 12:00:00 AM 1.96 35.528 0.235 7.57 10.15 13.32
3/20/2021 12:15:00 AM 1.86 35.348 0.236 7.57 11.47 13.36
3/20/2021 12:30:00 AM 1.76 35.168 0.236 7.55 10.67 13.41
3/20/2021 12:45:00 AM 1.66 34.988 0.236 7.57 10.37 13.44
3/20/2021 1:00:00 AM 1.57 34.826 0.236 7.57 11.72 13.48
3/20/2021 1:15:00 AM 1.47 34.646 0.236 7.57 11.16 13.53
3/20/2021 1:30:00 AM 1.38 34.484 0.237 7.55 9.84 13.56
3/20/2021 1:45:00 AM 1.29 34.322 0.237 7.56 10.46 13.6
3/20/2021 2:00:00 AM 1.2 34.16 0.237 7.56 10.43 13.65
3/20/2021 2:15:00 AM 1.11 33.998 0.238 7.56 9.83 13.69
3/20/2021 2:30:00 AM 1.02 33.836 0.238 7.56 9.42 13.72
3/20/2021 2:45:00 AM 0.93 33.674 0.238 7.57 10.03 13.76
3/20/2021 3:00:00 AM 0.85 33.53 0.239 7.55 10.67 13.78
3/20/2021 3:15:00 AM 0.77 33.386 0.24 7.56 9.34 13.82
3/20/2021 3:30:00 AM 0.69 33.242 0.24 7.56 9.35 13.85
3/20/2021 3:45:00 AM 0.61 33.098 0.24 7.56 9.57 13.89
3/20/2021 4:00:00 AM 0.53 32.954 0.24 7.57 8.82 13.92
3/20/2021 4:15:00 AM 0.45 32.81 0.241 7.56 9.92 13.95
3/20/2021 4:30:00 AM 0.38 32.684 0.241 7.56 9.89 13.99
3/20/2021 4:45:00 AM 0.3 32.54 0.242 7.56 9.37 14.01
3/20/2021 5:00:00 AM 0.23 32.414 0.242 7.56 8.75 14.05
3/20/2021 5:15:00 AM 0.16 32.288 0.242 7.56 9.19 14.08
3/20/2021 5:30:00 AM 0.09 32.162 0.243 7.56 9.07 14.1
3/20/2021 5:45:00 AM 0.02 32.036 0.244 7.55 9.26 14.14
3/20/2021 6:00:00 AM -0.04 31.928 0.243 7.57 8.77 14.18
3/20/2021 6:15:00 AM -0.07 31.874 0.244 7.57 9.21 14.21
3/20/2021 6:30:00 AM -0.06 31.892 0.244 7.58 9.69 14.23
3/20/2021 6:45:00 AM -0.06 31.892 0.245 7.57 8.85 14.25
3/20/2021 7:00:00 AM -0.06 31.892 0.246 7.58 8.82 14.27
3/20/2021 7:15:00 AM -0.06 31.892 0.247 7.58 9.42 14.28
3/20/2021 7:30:00 AM -0.05 31.91 0.247 7.59 8.9 14.3
3/20/2021 7:45:00 AM -0.04 31.928 0.249 7.58 9.5 14.31
3/20/2021 8:00:00 AM -0.04 31.928 0.249 7.6 8.27 14.37
3/20/2021 8:15:00 AM -0.03 31.946 0.249 7.61 8.81 14.47
3/20/2021 8:30:00 AM -0.01 31.982 0.251 7.61 8.72 14.54
3/20/2021 8:45:00 AM -0.01 31.982 0.252 7.64 8.11 14.61
3/20/2021 9:00:00 AM 0.02 32.036 0.252 7.65 8.3 14.68
3/20/2021 9:15:00 AM 0.03 32.054 0.253 7.67 8.02 14.78
3/20/2021 9:30:00 AM 0.05 32.09 0.254 7.68 8.43 14.78
3/20/2021 9:45:00 AM 0.08 32.144 0.255 7.71 7.86 14.88
3/20/2021 10:00:00 AM 0.11 32.198 0.254 7.74 8.12 14.89
3/20/2021 10:15:00 AM 0.22 32.396 0.254 7.77 8.04 14.94
3/20/2021 10:30:00 AM 0.38 32.684 0.253 7.8 8.59 15.04
3/20/2021 10:45:00 AM 0.6 33.08 0.251 7.85 8.35 15.07
3/20/2021 11:00:00 AM 0.83 33.494 0.252 7.88 8.71 15.09
3/20/2021 11:15:00 AM 1.07 33.926 0.251 7.92 8.34 15.07
3/20/2021 11:30:00 AM 1.33 34.394 0.251 7.94 8.18 15.04
3/20/2021 11:45:00 AM 1.59 34.862 0.249 7.96 8.55 14.99
3/20/2021 12:00:00 PM 1.85 35.33 0.247 7.99 8.52 14.93
3/20/2021 12:15:00 PM 2.1 35.78 0.245 8.01 8.16 14.88
3/20/2021 12:30:00 PM 2.36 36.248 0.243 8.02 8.65 14.83
3/20/2021 12:45:00 PM 2.61 36.698 0.242 8.04 8.99 14.77
3/20/2021 1:00:00 PM 2.85 37.13 0.242 8.07 7.89 14.69
3/20/2021 1:15:00 PM 3.11 37.598 0.243 8.1 8.2 14.6
3/20/2021 1:30:00 PM 3.37 38.066 0.244 8.12 8.76 14.52
3/20/2021 1:45:00 PM 3.63 38.534 0.245 8.14 9.53 14.42
3/20/2021 2:00:00 PM 3.91 39.038 0.244 8.17 9.48 14.33
3/20/2021 2:15:00 PM 4.18 39.524 0.244 8.19 9.12 14.23
3/20/2021 2:30:00 PM 4.47 40.046 0.242 8.22 8.98 14.11
3/20/2021 2:45:00 PM 4.74 40.532 0.241 8.25 9.02 14.01
3/20/2021 3:00:00 PM 5 41 0.24 8.26 9.34 13.92
3/20/2021 3:15:00 PM 5.25 41.45 0.239 8.28 8.7 13.81
3/20/2021 3:30:00 PM 5.49 41.882 0.238 8.3 9.92 13.72
3/20/2021 3:45:00 PM 5.7 42.26 0.238 8.31 9.28 13.63
3/20/2021 4:00:00 PM 5.9 42.62 0.239 8.33 11.42 13.54
3/20/2021 4:15:00 PM 6.07 42.926 0.24 8.34 8.72 13.47
3/20/2021 4:30:00 PM 6.19 43.142 0.242 8.34 8.79 13.4
3/20/2021 4:45:00 PM 6.3 43.34 0.243 8.36 8.98 13.33
3/20/2021 5:00:00 PM 6.36 43.448 0.243 8.35 9.37 13.26
3/20/2021 5:15:00 PM 6.39 43.502 0.244 8.34 9.61 13.21
3/20/2021 5:30:00 PM 6.4 43.52 0.243 8.33 9.5 13.13
3/20/2021 5:45:00 PM 6.38 43.484 0.243 8.3 9.61 13.06
3/20/2021 6:00:00 PM 6.33 43.394 0.242 8.26 9.39 12.98
3/20/2021 6:15:00 PM 6.28 43.304 0.241 8.23 9.02 12.91
3/20/2021 6:30:00 PM 6.22 43.196 0.241 8.17 10.36 12.8
3/20/2021 6:45:00 PM 6.14 43.052 0.241 8.11 8.94 12.7
3/20/2021 7:00:00 PM 6.06 42.908 0.241 8.04 8.81 12.6
3/20/2021 7:15:00 PM 5.97 42.746 0.24 7.97 9.44 12.48
3/20/2021 7:30:00 PM 5.89 42.602 0.241 7.9 9.99 12.37
3/20/2021 7:45:00 PM 5.81 42.458 0.241 7.85 10.06 12.29
3/20/2021 8:00:00 PM 5.73 42.314 0.241 7.81 8.64 12.22
3/20/2021 8:15:00 PM 5.65 42.17 0.241 7.77 11.94 12.18
3/20/2021 8:30:00 PM 5.57 42.026 0.241 7.74 10.47 12.16
3/20/2021 8:45:00 PM 5.47 41.846 0.24 7.72 9.92 12.14
3/20/2021 9:00:00 PM 5.37 41.666 0.241 7.69 9.84 12.14
3/20/2021 9:15:00 PM 5.26 41.468 0.24 7.67 11.21 12.15
3/20/2021 9:30:00 PM 5.14 41.252 0.24 7.66 9.02 12.17
3/20/2021 9:45:00 PM 5.02 41.036 0.24 7.64 9.65 12.17
3/20/2021 10:00:00 PM 4.9 40.82 0.24 7.63 9.69 12.23
3/20/2021 10:15:00 PM 4.78 40.604 0.24 7.62 11.43 12.25
3/20/2021 10:30:00 PM 4.64 40.352 0.24 7.61 11.03 12.28
3/20/2021 10:45:00 PM 4.52 40.136 0.24 7.61 9.37 12.31
3/20/2021 11:00:00 PM 4.4 39.92 0.241 7.59 10.63 12.35
3/20/2021 11:15:00 PM 4.26 39.668 0.241 7.59 9.13 12.4
3/20/2021 11:30:00 PM 4.12 39.416 0.241 7.59 9.81 12.46
3/20/2021 11:45:00 PM 3.99 39.182 0.241 7.59 8.94 12.51
3/21/2021 12:00:00 AM 3.85 38.93 0.241 7.58 9.23 12.55
3/21/2021 12:15:00 AM 3.73 38.714 0.242 7.58 9.05 12.59
3/21/2021 12:30:00 AM 3.61 38.498 0.242 7.56 9.6 12.64
3/21/2021 12:45:00 AM 3.48 38.264 0.243 7.58 10.13 12.69
3/21/2021 1:00:00 AM 3.35 38.03 0.243 7.56 10.88 12.73
3/21/2021 1:15:00 AM 3.24 37.832 0.243 7.58 13.23 12.78
3/21/2021 1:30:00 AM 3.13 37.634 0.244 7.58 10.88 12.82
3/21/2021 1:45:00 AM 3.02 37.436 0.244 7.58 9.94 12.85
3/21/2021 2:00:00 AM 2.91 37.238 0.244 7.58 10.04 12.9
3/21/2021 2:15:00 AM 2.8 37.04 0.244 7.58 10.57 12.94
3/21/2021 2:30:00 AM 2.69 36.842 0.245 7.58 9.64 12.98
3/21/2021 2:45:00 AM 2.58 36.644 0.244 7.58 10.11 13.02
3/21/2021 3:00:00 AM 2.47 36.446 0.245 7.58 9.18 13.05
3/21/2021 3:15:00 AM 2.36 36.248 0.245 7.58 9.86 13.09
3/21/2021 3:30:00 AM 2.25 36.05 0.244 7.58 9.55 13.16
3/21/2021 3:45:00 AM 2.16 35.888 0.245 7.55 9.51 13.19
3/21/2021 4:00:00 AM 2.06 35.708 0.245 7.58 9.49 13.23
3/21/2021 4:15:00 AM 1.96 35.528 0.245 7.57 9.43 13.27
3/21/2021 4:30:00 AM 1.86 35.348 0.246 7.58 9.48 13.3
3/21/2021 4:45:00 AM 1.77 35.186 0.247 7.58 9.97 13.35
3/21/2021 5:00:00 AM 1.67 35.006 0.247 7.58 9.82 13.39
3/21/2021 5:15:00 AM 1.58 34.844 0.247 7.58 10.4 13.43
3/21/2021 5:30:00 AM 1.49 34.682 0.248 7.57 9.05 13.46
3/21/2021 5:45:00 AM 1.4 34.52 0.248 7.58 9.15 13.51
3/21/2021 6:00:00 AM 1.31 34.358 0.248 7.58 9.51 13.55
3/21/2021 6:15:00 AM 1.22 34.196 0.247 7.58 8.39 13.59
3/21/2021 6:30:00 AM 1.14 34.052 0.247 7.57 8.22 13.62
3/21/2021 6:45:00 AM 1.06 33.908 0.248 7.58 9.2 13.64
3/21/2021 7:00:00 AM 0.98 33.764 0.247 7.58 8.67 13.68
3/21/2021 7:15:00 AM 0.9 33.62 0.248 7.58 8.33 13.73
3/21/2021 7:30:00 AM 0.83 33.494 0.248 7.58 8.71 13.78
3/21/2021 7:45:00 AM 0.76 33.368 0.248 7.6 9.27 13.87
3/21/2021 8:00:00 AM 0.69 33.242 0.247 7.61 8.46 14
3/21/2021 8:15:00 AM 0.65 33.17 0.248 7.64 8.83 14.13
3/21/2021 8:30:00 AM 0.63 33.134 0.247 7.67 9.13 14.29
3/21/2021 8:45:00 AM 0.62 33.116 0.247 7.7 8.34 14.43
3/21/2021 9:00:00 AM 0.63 33.134 0.247 7.73 7.99 14.55
3/21/2021 9:15:00 AM 0.65 33.17 0.247 7.76 7.79 14.66
3/21/2021 9:30:00 AM 0.7 33.26 0.247 7.78 8.8 14.73
3/21/2021 9:45:00 AM 0.79 33.422 0.247 7.81 7.91 14.8
3/21/2021 10:00:00 AM 0.91 33.638 0.247 7.85 7.8 14.85
3/21/2021 10:15:00 AM 1.07 33.926 0.247 7.88 7.79 14.9
3/21/2021 10:30:00 AM 1.27 34.286 0.247 7.92 7.31 14.92
3/21/2021 10:45:00 AM 1.48 34.664 0.247 7.94 7.71 14.94
3/21/2021 11:00:00 AM 1.74 35.132 0.247 7.98 7.51 14.93
3/21/2021 11:15:00 AM 1.99 35.582 0.247 8.01 7.8 14.92
3/21/2021 11:30:00 AM 2.27 36.086 0.247 8.04 8.15 14.89
3/21/2021 11:45:00 AM 2.54 36.572 0.247 8.07 7.83 14.83
3/21/2021 12:00:00 PM 2.84 37.112 0.247 8.1 8.49 14.78
3/21/2021 12:15:00 PM 3.13 37.634 0.245 8.14 8.04 14.73
3/21/2021 12:30:00 PM 3.43 38.174 0.246 8.17 8.19 14.67
3/21/2021 12:45:00 PM 3.71 38.678 0.245 8.2 7.9 14.58
3/21/2021 1:00:00 PM 4.01 39.218 0.245 8.23 8.22 14.5
3/21/2021 1:15:00 PM 4.31 39.758 0.244 8.26 8.17 14.42
3/21/2021 1:30:00 PM 4.59 40.262 0.244 8.28 8.49 14.32
3/21/2021 1:45:00 PM 4.88 40.784 0.244 8.32 9.1 14.23
3/21/2021 2:00:00 PM 5.17 41.306 0.244 8.34 8.81 14.13
3/21/2021 2:15:00 PM 5.46 41.828 0.243 8.38 7.75 14.03
3/21/2021 2:30:00 PM 5.78 42.404 0.243 8.41 7.93 13.9
3/21/2021 2:45:00 PM 6.06 42.908 0.243 8.44 8.21 13.82
3/21/2021 3:00:00 PM 6.34 43.412 0.243 8.46 8.22 13.73
3/21/2021 3:15:00 PM 6.62 43.916 0.243 8.5 7.82 13.61
3/21/2021 3:30:00 PM 6.88 44.384 0.242 8.53 8.05 13.51
3/21/2021 3:45:00 PM 7.1 44.78 0.243 8.53 8.37 13.42
3/21/2021 4:00:00 PM 7.3 45.14 0.243 8.55 7.59 13.32
3/21/2021 4:15:00 PM 7.5 45.5 0.242 8.58 7.43 13.23
3/21/2021 4:30:00 PM 7.64 45.752 0.243 8.59 7.33 13.17
3/21/2021 4:45:00 PM 7.75 45.95 0.243 8.59 8.51 13.08
3/21/2021 5:00:00 PM 7.84 46.112 0.242 8.58 7.68 12.99
3/21/2021 5:15:00 PM 7.89 46.202 0.243 8.58 7.79 12.9
3/21/2021 5:30:00 PM 7.91 46.238 0.242 8.58 7.73 12.82
3/21/2021 5:45:00 PM 7.9 46.22 0.242 8.55 8.22 12.73
3/21/2021 6:00:00 PM 7.87 46.166 0.242 8.53 7.91 12.65
3/21/2021 6:15:00 PM 7.83 46.094 0.242 8.49 8.15 12.54
3/21/2021 6:30:00 PM 7.77 45.986 0.243 8.44 7.73 12.43
3/21/2021 6:45:00 PM 7.7 45.86 0.243 8.37 8.32 12.31
3/21/2021 7:00:00 PM 7.62 45.716 0.243 8.29 8.27 12.18
3/21/2021 7:15:00 PM 7.53 45.554 0.244 8.18 8.24 12.03
3/21/2021 7:30:00 PM 7.43 45.374 0.244 8.09 8.5 11.91
3/21/2021 7:45:00 PM 7.34 45.212 0.244 8 7.91 11.8
3/21/2021 8:00:00 PM 7.26 45.068 0.245 7.93 9.12 11.69
3/21/2021 8:15:00 PM 7.18 44.924 0.245 7.88 8.47 11.62
3/21/2021 8:30:00 PM 7.09 44.762 0.245 7.83 8.65 11.59
3/21/2021 8:45:00 PM 6.99 44.582 0.245 7.79 9.4 11.57
3/21/2021 9:00:00 PM 6.88 44.384 0.245 7.76 8.64 11.57
3/21/2021 9:15:00 PM 6.76 44.168 0.245 7.73 8.81 11.57
3/21/2021 9:30:00 PM 6.64 43.952 0.245 7.71 10.26 11.57
3/21/2021 9:45:00 PM 6.51 43.718 0.245 7.69 9.7 11.6
3/21/2021 10:00:00 PM 6.38 43.484 0.246 7.67 9.4 11.61
3/21/2021 10:15:00 PM 6.24 43.232 0.245 7.66 10.67 11.65
3/21/2021 10:30:00 PM 6.09 42.962 0.245 7.64 9.71 11.68
3/21/2021 10:45:00 PM 5.95 42.71 0.245 7.64 9.12 11.74
3/21/2021 11:00:00 PM 5.81 42.458 0.245 7.62 9.91 11.75
3/21/2021 11:15:00 PM 5.66 42.188 0.246 7.61 9.7 11.81
3/21/2021 11:30:00 PM 5.52 41.936 0.246 7.6 9.55 11.85
3/21/2021 11:45:00 PM 5.36 41.648 0.246 7.6 10.24 11.9
3/22/2021 12:00:00 AM 5.21 41.378 0.246 7.6 9.39 11.96
3/22/2021 12:15:00 AM 5.06 41.108 0.246 7.59 9.41 12
3/22/2021 12:30:00 AM 4.91 40.838 0.247 7.59 9.04 12.07
3/22/2021 12:45:00 AM 4.77 40.586 0.247 7.58 9.74 12.09
3/22/2021 1:00:00 AM 4.62 40.316 0.247 7.59 9.57 12.16
3/22/2021 1:15:00 AM 4.48 40.064 0.247 7.59 9.82 12.22
3/22/2021 1:30:00 AM 4.34 39.812 0.247 7.57 9.51 12.27
3/22/2021 1:45:00 AM 4.2 39.56 0.247 7.59 8.71 12.3
3/22/2021 2:00:00 AM 4.07 39.326 0.248 7.59 10.12 12.36
3/22/2021 2:15:00 AM 3.94 39.092 0.247 7.57 8.69 12.43
3/22/2021 2:30:00 AM 3.82 38.876 0.248 7.58 8.89 12.45
3/22/2021 2:45:00 AM 3.69 38.642 0.248 7.59 8.6 12.51
3/22/2021 3:00:00 AM 3.57 38.426 0.249 7.59 9.15 12.54
3/22/2021 3:15:00 AM 3.46 38.228 0.249 7.59 8.96 12.6
3/22/2021 3:30:00 AM 3.34 38.012 0.25 7.58 9.14 12.63
3/22/2021 3:45:00 AM 3.21 37.778 0.25 7.59 9.21 12.68
3/22/2021 4:00:00 AM 3.11 37.598 0.25 7.59 9.1 12.71
3/22/2021 4:15:00 AM 2.99 37.382 0.25 7.59 9.45 12.77
3/22/2021 4:30:00 AM 2.88 37.184 0.251 7.57 8.69 12.8
3/22/2021 4:45:00 AM 2.76 36.968 0.251 7.59 9.01 12.84
3/22/2021 5:00:00 AM 2.66 36.788 0.251 7.59 10.07 12.9
3/22/2021 5:15:00 AM 2.54 36.572 0.251 7.57 8.94 12.95
3/22/2021 5:30:00 AM 2.43 36.374 0.251 7.6 8.55 13
3/22/2021 5:45:00 AM 2.32 36.176 0.25 7.6 10.01 13.04
3/22/2021 6:00:00 AM 2.22 35.996 0.25 7.6 9.05 13.09
3/22/2021 6:15:00 AM 2.12 35.816 0.25 7.6 9.77 13.11
3/22/2021 6:30:00 AM 2.02 35.636 0.25 7.6 9.04 13.16
3/22/2021 6:45:00 AM 1.91 35.438 0.249 7.6 9.13 13.21
3/22/2021 7:00:00 AM 1.83 35.294 0.25 7.6 8.72 13.24
3/22/2021 7:15:00 AM 1.73 35.114 0.25 7.6 8.71 13.3
3/22/2021 7:30:00 AM 1.64 34.952 0.25 7.6 9.28 13.36
3/22/2021 7:45:00 AM 1.56 34.808 0.249 7.62 9.02 13.48
3/22/2021 8:00:00 AM 1.49 34.682 0.249 7.64 8.65 13.63
3/22/2021 8:15:00 AM 1.44 34.592 0.249 7.66 8.08 13.78
3/22/2021 8:30:00 AM 1.41 34.538 0.249 7.7 8.14 13.97
3/22/2021 8:45:00 AM 1.39 34.502 0.249 7.73 8.38 14.15
3/22/2021 9:00:00 AM 1.4 34.52 0.249 7.77 7.62 14.29
3/22/2021 9:15:00 AM 1.42 34.556 0.249 7.81 7.98 14.4
3/22/2021 9:30:00 AM 1.47 34.646 0.249 7.84 7.59 14.49
3/22/2021 9:45:00 AM 1.55 34.79 0.249 7.88 8.2 14.56
3/22/2021 10:00:00 AM 1.69 35.042 0.249 7.92 8.15 14.62
3/22/2021 10:15:00 AM 1.84 35.312 0.248 7.95 8.51 14.66
3/22/2021 10:30:00 AM 2.04 35.672 0.248 8 7.72 14.71
3/22/2021 10:45:00 AM 2.28 36.104 0.248 8.04 7.87 14.72
3/22/2021 11:00:00 AM 2.55 36.59 0.248 8.08 8.04 14.73
3/22/2021 11:15:00 AM 2.83 37.094 0.249 8.1 7.91 14.73
3/22/2021 11:30:00 AM 3.09 37.562 0.248 8.16 7.4 14.68
3/22/2021 11:45:00 AM 3.36 38.048 0.247 8.18 8.18 14.67
3/22/2021 12:00:00 PM 3.65 38.57 0.246 8.24 7.74 14.62
3/22/2021 12:15:00 PM 3.96 39.128 0.246 8.26 8.04 14.58
3/22/2021 12:30:00 PM 4.25 39.65 0.246 8.29 7.84 14.5
3/22/2021 12:45:00 PM 4.54 40.172 0.246 8.35 7.83 14.43
3/22/2021 1:00:00 PM 4.84 40.712 0.246 8.38 7.95 14.36
3/22/2021 1:15:00 PM 5.14 41.252 0.245 8.42 8.12 14.27
3/22/2021 1:30:00 PM 5.43 41.774 0.245 8.46 7.48 14.17
3/22/2021 1:45:00 PM 5.71 42.278 0.246 8.49 7.23 14.09
3/22/2021 2:00:00 PM 6.02 42.836 0.245 8.53 7.88 13.98
3/22/2021 2:15:00 PM 6.31 43.358 0.245 8.56 7.68 13.88
3/22/2021 2:30:00 PM 6.58 43.844 0.245 8.59 7.76 13.79
3/22/2021 2:45:00 PM 6.87 44.366 0.245 8.63 7.29 13.7
3/22/2021 3:00:00 PM 7.15 44.87 0.244 8.66 7.7 13.57
3/22/2021 3:15:00 PM 7.41 45.338 0.245 8.68 7.8 13.51
3/22/2021 3:30:00 PM 7.66 45.788 0.244 8.71 7.51 13.37
3/22/2021 3:45:00 PM 7.92 46.256 0.243 8.72 7.41 13.27
3/22/2021 4:00:00 PM 8.12 46.616 0.244 8.75 7.6 13.19
3/22/2021 4:15:00 PM 8.28 46.904 0.244 8.76 7.57 13.13
3/22/2021 4:30:00 PM 8.45 47.21 0.243 8.79 7.68 13.02
3/22/2021 4:45:00 PM 8.56 47.408 0.243 8.78 8.16 12.93
3/22/2021 5:00:00 PM 8.65 47.57 0.243 8.79 8.59 12.85
3/22/2021 5:15:00 PM 8.7 47.66 0.243 8.78 8.84 12.76
3/22/2021 5:30:00 PM 8.71 47.678 0.243 8.79 8.54 12.68
3/22/2021 5:45:00 PM 8.7 47.66 0.243 8.77 9.15 12.6
3/22/2021 6:00:00 PM 8.67 47.606 0.243 8.75 8.56 12.49
3/22/2021 6:15:00 PM 8.62 47.516 0.243 8.72 10.67 12.38
3/22/2021 6:30:00 PM 8.56 47.408 0.243 8.69 8.38 12.28
3/22/2021 6:45:00 PM 8.49 47.282 0.243 8.63 8.44 12.13
3/22/2021 7:00:00 PM 8.42 47.156 0.243 8.56 9.23 11.99
3/22/2021 7:15:00 PM 8.33 46.994 0.244 8.47 8.53 11.85
3/22/2021 7:30:00 PM 8.24 46.832 0.245 8.36 8.65 11.67
3/22/2021 7:45:00 PM 8.15 46.67 0.245 8.24 8.3 11.53
3/22/2021 8:00:00 PM 8.06 46.508 0.245 8.13 7.9 11.42
3/22/2021 8:15:00 PM 7.97 46.346 0.245 8.04 9.11 11.33
3/22/2021 8:30:00 PM 7.88 46.184 0.245 7.97 8.61 11.27
3/22/2021 8:45:00 PM 7.79 46.022 0.246 7.91 8.79 11.23
3/22/2021 9:00:00 PM 7.7 45.86 0.245 7.86 8.29 11.22
3/22/2021 9:15:00 PM 7.6 45.68 0.246 7.82 8.98 11.21
3/22/2021 9:30:00 PM 7.48 45.464 0.247 7.79 8.36 11.2
3/22/2021 9:45:00 PM 7.37 45.266 0.247 7.76 10.19 11.21
3/22/2021 10:00:00 PM 7.24 45.032 0.246 7.73 10.77 11.23
3/22/2021 10:15:00 PM 7.11 44.798 0.246 7.71 11.92 11.25
3/22/2021 10:30:00 PM 6.99 44.582 0.247 7.7 10.69 11.27
3/22/2021 10:45:00 PM 6.85 44.33 0.247 7.68 10.36 11.33
3/22/2021 11:00:00 PM 6.72 44.096 0.247 7.66 9.95 11.36
3/22/2021 11:15:00 PM 6.58 43.844 0.247 7.65 11.21 11.4
3/22/2021 11:30:00 PM 6.44 43.592 0.248 7.64 9.77 11.43
3/22/2021 11:45:00 PM 6.29 43.322 0.247 7.64 10.11 11.5
3/23/2021 12:00:00 AM 6.14 43.052 0.248 7.63 9.9 11.54
3/23/2021 12:15:00 AM 5.99 42.782 0.248 7.62 11.7 11.57
3/23/2021 12:30:00 AM 5.85 42.53 0.248 7.61 9.43 11.64
3/23/2021 12:45:00 AM 5.7 42.26 0.248 7.61 10.31 11.69
3/23/2021 1:00:00 AM 5.56 42.008 0.249 7.61 9.35 11.74
3/23/2021 1:15:00 AM 5.42 41.756 0.249 7.6 9.03 11.78
3/23/2021 1:30:00 AM 5.27 41.486 0.249 7.6 9.38 11.85
3/23/2021 1:45:00 AM 5.12 41.216 0.25 7.6 10.01 11.9
3/23/2021 2:00:00 AM 4.99 40.982 0.25 7.6 16.98 11.92
3/23/2021 2:15:00 AM 4.85 40.73 0.25 7.6 12.7 11.99
3/23/2021 2:30:00 AM 4.72 40.496 0.25 7.6 45.45 12.05
3/23/2021 2:45:00 AM 4.59 40.262 0.249 7.6 11.93 12.1
3/23/2021 3:00:00 AM 4.46 40.028 0.25 7.61 12.99 12.13
3/23/2021 3:15:00 AM 4.35 39.83 0.25 7.6 13.65 12.17
3/23/2021 3:30:00 AM 4.22 39.596 0.251 7.6 27.3 12.2
3/23/2021 3:45:00 AM 4.11 39.398 0.251 7.61 10.16 12.24
3/23/2021 4:00:00 AM 3.99 39.182 0.251 7.61 10.44 12.29
3/23/2021 4:15:00 AM 3.89 39.002 0.251 7.6 9.9 12.34
3/23/2021 4:30:00 AM 3.77 38.786 0.251 7.61 9 12.39
3/23/2021 4:45:00 AM 3.66 38.588 0.251 7.61 10.89 12.42
3/23/2021 5:00:00 AM 3.55 38.39 0.251 7.61 11.47 12.46
3/23/2021 5:15:00 AM 3.45 38.21 0.251 7.61 10.48 12.47
3/23/2021 5:30:00 AM 3.34 38.012 0.251 7.61 10.07 12.53
3/23/2021 5:45:00 AM 3.23 37.814 0.252 7.61 9.58 12.59
3/23/2021 6:00:00 AM 3.12 37.616 0.251 7.61 9.21 12.64
3/23/2021 6:15:00 AM 3.02 37.436 0.252 7.62 9.31 12.66
3/23/2021 6:30:00 AM 2.91 37.238 0.252 7.61 9.88 12.72
3/23/2021 6:45:00 AM 2.81 37.058 0.252 7.61 9.56 12.75
3/23/2021 7:00:00 AM 2.71 36.878 0.252 7.59 9.56 12.8
3/23/2021 7:15:00 AM 2.61 36.698 0.252 7.6 9.83 12.84
3/23/2021 7:30:00 AM 2.52 36.536 0.252 7.62 10.08 12.92
3/23/2021 7:45:00 AM 2.44 36.392 0.252 7.63 10.82 13.05
3/23/2021 8:00:00 AM 2.37 36.266 0.252 7.63 9.75 13.18
3/23/2021 8:15:00 AM 2.31 36.158 0.252 7.68 9.72 13.36
3/23/2021 8:30:00 AM 2.28 36.104 0.253 7.72 8.49 13.49
3/23/2021 8:45:00 AM 2.27 36.086 0.254 7.75 9.64 13.72
3/23/2021 9:00:00 AM 2.28 36.104 0.253 7.81 8.7 13.9
3/23/2021 9:15:00 AM 2.31 36.158 0.253 7.85 9.54 14.05
3/23/2021 9:30:00 AM 2.36 36.248 0.253 7.89 9.48 14.2
3/23/2021 9:45:00 AM 2.43 36.374 0.253 7.95 8.75 14.28
3/23/2021 10:00:00 AM 2.56 36.608 0.253 7.98 7.98 14.35
3/23/2021 10:15:00 AM 2.69 36.842 0.251 8.04 8.4 14.41
3/23/2021 10:30:00 AM 2.89 37.202 0.251 8.09 8.71 14.46
3/23/2021 10:45:00 AM 3.11 37.598 0.25 8.15 8.01 14.5
3/23/2021 11:00:00 AM 3.39 38.102 0.251 8.19 8.17 14.53
3/23/2021 11:15:00 AM 3.66 38.588 0.251 8.25 8.43 14.53
3/23/2021 11:30:00 AM 3.94 39.092 0.251 8.3 8.76 14.5
3/23/2021 11:45:00 AM 4.21 39.578 0.251 8.33 8.44 14.48
3/23/2021 12:00:00 PM 4.44 39.992 0.251 8.39 9.01 14.46
3/23/2021 12:15:00 PM 4.7 40.46 0.25 8.43 8.56 14.45
3/23/2021 12:30:00 PM 4.96 40.928 0.25 8.45 8.85 14.36
3/23/2021 12:45:00 PM 5.19 41.342 0.249 8.52 8.09 14.34
3/23/2021 1:00:00 PM 5.47 41.846 0.248 8.56 7.84 14.28
3/23/2021 1:15:00 PM 5.74 42.332 0.247 8.6 8.45 14.2
3/23/2021 1:30:00 PM 6.02 42.836 0.246 8.64 10.87 14.1
3/23/2021 1:45:00 PM 6.25 43.25 0.246 8.67 8.74 14.08
3/23/2021 2:00:00 PM 6.5 43.7 0.246 8.7 8.7 14
3/23/2021 2:15:00 PM 6.8 44.24 0.246 8.74 8.93 13.86
3/23/2021 2:30:00 PM 7.04 44.672 0.246 8.77 8.65 13.79
3/23/2021 2:45:00 PM 7.31 45.158 0.245 8.8 7.6 13.72
3/23/2021 3:00:00 PM 7.55 45.59 0.245 8.83 8.08 13.6
3/23/2021 3:15:00 PM 7.73 45.914 0.245 8.85 7.62 13.54
3/23/2021 3:30:00 PM 7.95 46.31 0.245 8.88 7.98 13.47
3/23/2021 3:45:00 PM 8.12 46.616 0.245 8.91 7.96 13.33
3/23/2021 4:00:00 PM 8.24 46.832 0.244 8.92 9.01 13.29
3/23/2021 4:15:00 PM 8.35 47.03 0.245 8.93 8.65 13.22
3/23/2021 4:30:00 PM 8.41 47.138 0.245 8.95 8.91 13.12
3/23/2021 4:45:00 PM 8.46 47.228 0.244 8.95 9.1 13.03
3/23/2021 5:00:00 PM 8.52 47.336 0.244 8.96 9.18 12.93
3/23/2021 5:15:00 PM 8.55 47.39 0.244 8.96 9.67 12.82
3/23/2021 5:30:00 PM 8.58 47.444 0.245 8.95 9.85 12.79
3/23/2021 5:45:00 PM 8.63 47.534 0.245 8.94 10.18 12.74
3/23/2021 6:00:00 PM 8.65 47.57 0.245 8.95 9.66 12.63
3/23/2021 6:15:00 PM 8.66 47.588 0.245 8.94 9.17 12.51
3/23/2021 6:30:00 PM 8.66 47.588 0.245 8.91 9.48 12.38
3/23/2021 6:45:00 PM 8.66 47.588 0.245 8.89 9.42 12.26
3/23/2021 7:00:00 PM 8.65 47.57 0.245 8.85 9.58 12.15
3/23/2021 7:15:00 PM 8.61 47.498 0.245 8.8 9.82 11.97
3/23/2021 7:30:00 PM 8.55 47.39 0.246 8.71 10.33 11.75
3/23/2021 7:45:00 PM 8.49 47.282 0.246 8.62 10.74 11.55
3/23/2021 8:00:00 PM 8.42 47.156 0.246 8.51 10.35 11.4
3/23/2021 8:15:00 PM 8.36 47.048 0.247 8.41 9.6 11.27
3/23/2021 8:30:00 PM 8.31 46.958 0.247 8.3 10.25 11.19
3/23/2021 8:45:00 PM 8.24 46.832 0.247 8.2 9.33 11.13
3/23/2021 9:00:00 PM 8.16 46.688 0.248 8.12 10.59 11.09
3/23/2021 9:15:00 PM 8.08 46.544 0.248 8.04 9.45 11.07
3/23/2021 9:30:00 PM 8.02 46.436 0.248 7.96 9.87 11.06
3/23/2021 9:45:00 PM 7.95 46.31 0.248 7.93 9.56 11.04
3/23/2021 10:00:00 PM 7.87 46.166 0.249 7.88 8.87 11.05
3/23/2021 10:15:00 PM 7.77 45.986 0.249 7.84 9.29 11.05
3/23/2021 10:30:00 PM 7.67 45.806 0.249 7.8 9.11 11.05
3/23/2021 10:45:00 PM 7.57 45.626 0.249 7.77 9.35 11.07
3/23/2021 11:00:00 PM 7.48 45.464 0.249 7.75 9.75 11.04
3/23/2021 11:15:00 PM 7.38 45.284 0.249 7.72 9.56 11.09
3/23/2021 11:30:00 PM 7.28 45.104 0.249 7.71 9.62 11.12
3/23/2021 11:45:00 PM 7.19 44.942 0.25 7.7 9.49 11.13
3/24/2021 12:00:00 AM 7.11 44.798 0.25 7.69 12 11.15
3/24/2021 12:15:00 AM 7.04 44.672 0.25 7.68 9.6 11.19
3/24/2021 12:30:00 AM 6.97 44.546 0.25 7.65 10 11.19
3/24/2021 12:45:00 AM 6.89 44.402 0.25 7.67 9.58 11.22
3/24/2021 1:00:00 AM 6.82 44.276 0.251 7.66 9.38 11.23
3/24/2021 1:15:00 AM 6.73 44.114 0.25 7.66 10.7 11.29
3/24/2021 1:30:00 AM 6.66 43.988 0.25 7.66 10.01 11.3
3/24/2021 1:45:00 AM 6.59 43.862 0.25 7.65 10.44 11.32
3/24/2021 2:00:00 AM 6.5 43.7 0.25 7.65 13.67 11.36
3/24/2021 2:15:00 AM 6.43 43.574 0.251 7.64 10.52 11.38
3/24/2021 2:30:00 AM 6.36 43.448 0.25 7.64 10.87 11.39
3/24/2021 2:45:00 AM 6.3 43.34 0.251 7.64 9.75 11.43
3/24/2021 3:00:00 AM 6.23 43.214 0.251 7.64 9.22 11.46
3/24/2021 3:15:00 AM 6.17 43.106 0.251 7.64 9.06 11.48
3/24/2021 3:30:00 AM 6.12 43.016 0.251 7.64 9.79 11.5
3/24/2021 3:45:00 AM 6.08 42.944 0.252 7.64 9.62 11.52
3/24/2021 4:00:00 AM 6.04 42.872 0.252 7.65 8.73 11.54
3/24/2021 4:15:00 AM 6 42.8 0.252 7.65 9.65 11.56
3/24/2021 4:30:00 AM 5.97 42.746 0.253 7.65 8.81 11.57
3/24/2021 4:45:00 AM 5.94 42.692 0.253 7.65 10.3 11.58
3/24/2021 5:00:00 AM 5.9 42.62 0.253 7.65 9.75 11.6
3/24/2021 5:15:00 AM 5.87 42.566 0.254 7.63 10.32 11.62
3/24/2021 5:30:00 AM 5.84 42.512 0.253 7.65 9.13 11.64
3/24/2021 5:45:00 AM 5.82 42.476 0.253 7.66 8.98 11.66
3/24/2021 6:00:00 AM 5.79 42.422 0.253 7.67 8.72 11.67
3/24/2021 6:15:00 AM 5.77 42.386 0.253 7.66 9.75 11.66
3/24/2021 6:30:00 AM 5.75 42.35 0.253 7.64 8.21 11.67
3/24/2021 6:45:00 AM 5.73 42.314 0.252 7.66 8.41 11.67
3/24/2021 7:00:00 AM 5.7 42.26 0.252 7.65 9.7 11.67
3/24/2021 7:15:00 AM 5.68 42.224 0.251 7.66 8.44 11.71
3/24/2021 7:30:00 AM 5.67 42.206 0.251 7.67 8.4 11.71
3/24/2021 7:45:00 AM 5.66 42.188 0.251 7.67 9.5 11.75
3/24/2021 8:00:00 AM 5.65 42.17 0.251 7.67 8.02 11.77
3/24/2021 8:15:00 AM 5.64 42.152 0.25 7.68 8.35 11.85
3/24/2021 8:30:00 AM 5.64 42.152 0.249 7.7 8.29 11.9
3/24/2021 8:45:00 AM 5.64 42.152 0.249 7.71 8 11.95
3/24/2021 9:00:00 AM 5.65 42.17 0.249 7.74 9.07 12.09
3/24/2021 9:15:00 AM 5.65 42.17 0.249 7.75 7.95 12.18
3/24/2021 9:30:00 AM 5.66 42.188 0.248 7.78 8.34 12.2
3/24/2021 9:45:00 AM 5.68 42.224 0.247 7.8 8.51 12.32
3/24/2021 10:00:00 AM 5.69 42.242 0.246 7.82 8.54 12.39
3/24/2021 10:15:00 AM 5.73 42.314 0.246 7.87 8.83 12.61
3/24/2021 10:30:00 AM 5.77 42.386 0.245 7.91 8.72 12.77
3/24/2021 10:45:00 AM 5.8 42.44 0.246 7.99 10.12 12.88
3/24/2021 11:00:00 AM 5.85 42.53 0.248 8.03 10.01 12.99
3/24/2021 11:15:00 AM 5.92 42.656 0.25 8.1 10.36 13.05
3/24/2021 11:30:00 AM 6.01 42.818 0.253 8.17 10.4 13.16
3/24/2021 11:45:00 AM 6.13 43.034 0.259 8.24 11.82 13.27
3/24/2021 12:00:00 PM 6.24 43.232 0.272 8.3 14.97 13.28
3/24/2021 12:15:00 PM 6.37 43.466 0.28 8.35 17.5 13.35
3/24/2021 12:30:00 PM 6.47 43.646 0.278 8.39 16.26 13.33
3/24/2021 12:45:00 PM 6.56 43.808 0.281 8.41 15.33 13.35
3/24/2021 1:00:00 PM 6.67 44.006 0.278 8.43 18.39 13.32
3/24/2021 1:15:00 PM 6.74 44.132 0.271 8.45 23.9 13.25
3/24/2021 1:30:00 PM 6.87 44.366 0.264 8.48 25.2 13.23
3/24/2021 1:45:00 PM 7.04 44.672 0.258 8.56 20.94 13.28
3/24/2021 2:00:00 PM 7.2 44.96 0.253 8.61 19.47 13.27
3/24/2021 2:15:00 PM 7.36 45.248 0.249 8.65 19.18 13.24
3/24/2021 2:30:00 PM 7.46 45.428 0.246 8.66 17.69 13.15
3/24/2021 2:45:00 PM 7.52 45.536 0.242 8.65 19.17 13.01
3/24/2021 3:00:00 PM 7.56 45.608 0.24 8.62 20.53 12.85
3/24/2021 3:15:00 PM 7.62 45.716 0.238 8.6 24.04 12.74
3/24/2021 3:30:00 PM 7.68 45.824 0.237 8.59 18.42 12.66
3/24/2021 3:45:00 PM 7.74 45.932 0.236 8.58 21.83 12.6
3/24/2021 4:00:00 PM 7.82 46.076 0.237 8.44 47.56 12.32
3/24/2021 4:15:00 PM 7.93 46.274 0.239 8.16 119.66 11.85
3/24/2021 4:30:00 PM 8.01 46.418 0.24 8.01 149.18 11.59
3/24/2021 4:45:00 PM 8.07 46.526 0.24 7.95 187.89 11.48
3/24/2021 5:00:00 PM 8.11 46.598 0.24 7.89 162.57 11.42
3/24/2021 5:15:00 PM 8.11 46.598 0.24 7.89 129.26 11.4
3/24/2021 5:30:00 PM 8.11 46.598 0.241 7.88 131.7 11.4
3/24/2021 5:45:00 PM 8.12 46.616 0.243 7.87 116.65 11.39
3/24/2021 6:00:00 PM 8.14 46.652 0.249 7.86 129.02 11.35
3/24/2021 6:15:00 PM 8.14 46.652 0.255 7.84 132.68 11.31
3/24/2021 6:30:00 PM 8.14 46.652 0.26 7.83 131.64 11.28
3/24/2021 6:45:00 PM 8.12 46.616 0.261 7.8 136.8 11.27
3/24/2021 7:00:00 PM 8.09 46.562 0.259 7.82 80.81 11.3
3/24/2021 7:15:00 PM 8.08 46.544 0.256 7.83 65.77 11.32
3/24/2021 7:30:00 PM 8.06 46.508 0.254 7.82 48.81 11.31
3/24/2021 7:45:00 PM 8.05 46.49 0.251 7.81 58.14 11.25
3/24/2021 8:00:00 PM 8.02 46.436 0.249 7.78 84.65 11.21
3/24/2021 8:15:00 PM 7.99 46.382 0.247 7.76 120.67 11.18
3/24/2021 8:30:00 PM 7.97 46.346 0.246 7.75 169.45 11.16
3/24/2021 8:45:00 PM 7.94 46.292 0.245 7.74 147.36 11.16
3/24/2021 9:00:00 PM 7.91 46.238 0.245 7.72 152.41 11.15
3/24/2021 9:15:00 PM 7.9 46.22 0.245 7.72 116.45 11.15
3/24/2021 9:30:00 PM 7.88 46.184 0.245 7.72 82.25 11.15
3/24/2021 9:45:00 PM 7.86 46.148 0.245 7.71 63.07 11.16
3/24/2021 10:00:00 PM 7.84 46.112 0.245 7.71 66.78 11.15
3/24/2021 10:15:00 PM 7.82 46.076 0.246 7.7 44.39 11.15
3/24/2021 10:30:00 PM 7.79 46.022 0.246 7.7 35.21 11.16
3/24/2021 10:45:00 PM 7.78 46.004 0.246 7.7 30.11 11.16
3/24/2021 11:00:00 PM 7.77 45.986 0.246 7.69 27.66 11.15
3/24/2021 11:15:00 PM 7.76 45.968 0.246 7.69 26.88 11.16
3/24/2021 11:30:00 PM 7.74 45.932 0.246 7.69 24.4 11.16
3/24/2021 11:45:00 PM 7.73 45.914 0.246 7.68 21.57 11.16
3/25/2021 12:00:00 AM 7.7 45.86 0.246 7.68 22.14 11.17
3/25/2021 12:15:00 AM 7.68 45.824 0.246 7.68 23.42 11.16
3/25/2021 12:30:00 AM 7.66 45.788 0.246 7.68 19.71 11.18
3/25/2021 12:45:00 AM 7.65 45.77 0.246 7.67 19.9 11.17
3/25/2021 1:00:00 AM 7.63 45.734 0.246 7.67 19.33 11.18
3/25/2021 1:15:00 AM 7.61 45.698 0.246 7.67 18.92 11.17
3/25/2021 1:30:00 AM 7.58 45.644 0.246 7.67 19.6 11.19
3/25/2021 1:45:00 AM 7.54 45.572 0.245 7.67 19.35 11.19
3/25/2021 2:00:00 AM 7.49 45.482 0.245 7.66 18.01 11.2
3/25/2021 2:15:00 AM 7.44 45.392 0.245 7.66 18.69 11.21
3/25/2021 2:30:00 AM 7.4 45.32 0.245 7.66 18.47 11.23
3/25/2021 2:45:00 AM 7.37 45.266 0.245 7.66 18.46 11.23
3/25/2021 3:00:00 AM 7.35 45.23 0.245 7.66 24.44 11.24
3/25/2021 3:15:00 AM 7.35 45.23 0.245 7.66 18.55 11.24
3/25/2021 3:30:00 AM 7.32 45.176 0.245 7.66 16.89 11.24
3/25/2021 3:45:00 AM 7.29 45.122 0.245 7.66 16.52 11.27
3/25/2021 4:00:00 AM 7.25 45.05 0.245 7.66 17.01 11.28
3/25/2021 4:15:00 AM 7.21 44.978 0.245 7.66 20.87 11.28
3/25/2021 4:30:00 AM 7.15 44.87 0.245 7.65 18.31 11.28
3/25/2021 4:45:00 AM 7.1 44.78 0.245 7.64 18.05 11.31
3/25/2021 5:00:00 AM 7.04 44.672 0.245 7.65 16.65 11.33
3/25/2021 5:15:00 AM 6.97 44.546 0.245 7.64 16.98 11.34
3/25/2021 5:30:00 AM 6.91 44.438 0.245 7.64 16.74 11.36
3/25/2021 5:45:00 AM 6.86 44.348 0.245 7.64 16.97 11.37
3/25/2021 6:00:00 AM 6.8 44.24 0.245 7.65 16.99 11.39
3/25/2021 6:15:00 AM 6.75 44.15 0.245 7.64 17.81 11.41
3/25/2021 6:30:00 AM 6.7 44.06 0.245 7.64 15.37 11.43
3/25/2021 6:45:00 AM 6.64 43.952 0.245 7.64 16.54 11.45
3/25/2021 7:00:00 AM 6.58 43.844 0.245 7.64 16.39 11.48
3/25/2021 7:15:00 AM 6.52 43.736 0.245 7.64 16.66 11.5
3/25/2021 7:30:00 AM 6.46 43.628 0.245 7.64 15.58 11.55
3/25/2021 7:45:00 AM 6.41 43.538 0.245 7.66 16.74 11.67
3/25/2021 8:00:00 AM 6.36 43.448 0.245 7.68 17.42 11.79
3/25/2021 8:15:00 AM 6.34 43.412 0.245 7.71 16.39 11.94
3/25/2021 8:30:00 AM 6.31 43.358 0.245 7.75 13.52 12.1
3/25/2021 8:45:00 AM 6.29 43.322 0.245 7.78 13.78 12.18
3/25/2021 9:00:00 AM 6.3 43.34 0.245 7.82 13.26 12.36
3/25/2021 9:15:00 AM 6.33 43.394 0.245 7.86 14.97 12.48
3/25/2021 9:30:00 AM 6.39 43.502 0.244 7.91 15.04 12.57
3/25/2021 9:45:00 AM 6.49 43.682 0.245 7.96 14.33 12.68
3/25/2021 10:00:00 AM 6.61 43.898 0.244 8.02 14.5 12.75
3/25/2021 10:15:00 AM 6.74 44.132 0.244 8.07 14.3 12.83
3/25/2021 10:30:00 AM 6.9 44.42 0.243 8.14 14.09 12.9
3/25/2021 10:45:00 AM 7.08 44.744 0.244 8.19 13.51 12.96
3/25/2021 11:00:00 AM 7.27 45.086 0.243 8.27 13.39 12.99
3/25/2021 11:15:00 AM 7.49 45.482 0.243 8.34 12.68 13.02
3/25/2021 11:30:00 AM 7.74 45.932 0.243 8.4 12.9 13.01
3/25/2021 11:45:00 AM 8.02 46.436 0.242 8.47 12.67 13.02
3/25/2021 12:00:00 PM 8.33 46.994 0.242 8.51 14.17 13
3/25/2021 12:15:00 PM 8.65 47.57 0.242 8.55 12.75 12.97
3/25/2021 12:30:00 PM 8.97 48.146 0.242 8.6 13.97 12.93
3/25/2021 12:45:00 PM 9.26 48.668 0.242 8.64 12.97 12.9
3/25/2021 1:00:00 PM 9.56 49.208 0.241 8.69 11.55 12.83
3/25/2021 1:15:00 PM 9.84 49.712 0.241 8.72 12.72 12.81
3/25/2021 1:30:00 PM 10.09 50.162 0.241 8.75 14.69 12.66
3/25/2021 1:45:00 PM 10.33 50.594 0.241 8.78 14.16 12.65
3/25/2021 2:00:00 PM 10.58 51.044 0.24 8.79 13.74 12.59
3/25/2021 2:15:00 PM 10.86 51.548 0.24 8.84 13.66 12.54
3/25/2021 2:30:00 PM 11.14 52.052 0.24 8.87 13.08 12.47
3/25/2021 2:45:00 PM 11.41 52.538 0.24 8.9 13.62 12.38
3/25/2021 3:00:00 PM 11.64 52.952 0.24 8.92 13.37 12.31
3/25/2021 3:15:00 PM 11.85 53.33 0.24 8.94 27.58 9.65
3/25/2021 3:30:00 PM 12.02 53.636 0.24 8.94 14.49 12.15
3/25/2021 3:45:00 PM 12.17 53.906 0.239 8.97 11.27 12.06
3/25/2021 4:00:00 PM 12.29 54.122 0.239 8.97 12.39 11.98
3/25/2021 4:15:00 PM 12.39 54.302 0.239 8.98 11.72 11.92
3/25/2021 4:30:00 PM 12.45 54.41 0.24 8.98 11.37 11.82
3/25/2021 4:45:00 PM 12.5 54.5 0.239 8.98 10.91 11.71
3/25/2021 5:00:00 PM 12.52 54.536 0.24 8.94 23.61 11.61
3/25/2021 5:15:00 PM 12.53 54.554 0.239 8.94 13.29 11.47
3/25/2021 5:30:00 PM 12.54 54.572 0.239 8.9 12.38 11.35
3/25/2021 5:45:00 PM 12.53 54.554 0.239 8.89 10.89 11.21
3/25/2021 6:00:00 PM 12.52 54.536 0.24 8.85 11.54 11.1
3/25/2021 6:15:00 PM 12.5 54.5 0.24 8.8 11.45 10.95
3/25/2021 6:30:00 PM 12.48 54.464 0.24 8.75 11.27 10.83
3/25/2021 6:45:00 PM 12.44 54.392 0.24 8.68 13.3 10.69
3/25/2021 7:00:00 PM 12.4 54.32 0.24 8.6 11.56 10.53
3/25/2021 7:15:00 PM 12.34 54.212 0.241 8.51 11.43 10.41
3/25/2021 7:30:00 PM 12.28 54.104 0.241 8.41 11.27 10.28
3/25/2021 7:45:00 PM 12.21 53.978 0.241 8.31 11.89 10.18
3/25/2021 8:00:00 PM 12.14 53.852 0.242 8.2 11.64 10.1
3/25/2021 8:15:00 PM 12.06 53.708 0.242 8.11 12.79 10.05
3/25/2021 8:30:00 PM 11.98 53.564 0.242 8.02 12.79 10.04
3/25/2021 8:45:00 PM 11.9 53.42 0.242 7.95 12.62 10
3/25/2021 9:00:00 PM 11.82 53.276 0.243 7.9 11.66 10
3/25/2021 9:15:00 PM 11.75 53.15 0.243 7.85 12.01 9.98
3/25/2021 9:30:00 PM 11.67 53.006 0.244 7.82 12.49 9.97
3/25/2021 9:45:00 PM 11.59 52.862 0.243 7.79 19.28 9.97
3/25/2021 10:00:00 PM 11.52 52.736 0.244 7.76 12.32 9.98
3/25/2021 10:15:00 PM 11.44 52.592 0.244 7.75 12.31 9.98
3/25/2021 10:30:00 PM 11.34 52.412 0.245 7.73 11.8 10
3/25/2021 10:45:00 PM 11.26 52.268 0.245 7.72 12.63 10.02
3/25/2021 11:00:00 PM 11.19 52.142 0.245 7.69 130.99 9.98
3/25/2021 11:15:00 PM 11.12 52.016 0.246 7.69 16.61 10.03
3/25/2021 11:30:00 PM 11.05 51.89 0.246 7.71 11.85 10.04
3/25/2021 11:45:00 PM 10.98 51.764 0.246 7.67 11.3 10.08
3/26/2021 12:00:00 AM 10.92 51.656 0.246 7.66 12.61 10.08
3/26/2021 12:15:00 AM 10.86 51.548 0.246 7.66 11.97 10.1
3/26/2021 12:30:00 AM 10.79 51.422 0.246 7.66 11.68 10.11
3/26/2021 12:45:00 AM 10.74 51.332 0.246 7.66 11.8 10.13
3/26/2021 1:00:00 AM 10.68 51.224 0.246 7.66 11.42 10.16
3/26/2021 1:15:00 AM 10.63 51.134 0.247 7.66 14.18 10.14
3/26/2021 1:30:00 AM 10.57 51.026 0.247 7.66 31.22 10.17
3/26/2021 1:45:00 AM 10.52 50.936 0.247 7.64 253.9 10.18
3/26/2021 2:00:00 AM 10.46 50.828 0.247 7.65 13.55 10.19
3/26/2021 2:15:00 AM 10.42 50.756 0.247 7.65 13.48 10.2
3/26/2021 2:30:00 AM 10.36 50.648 0.248 7.65 15.36 10.2
3/26/2021 2:45:00 AM 10.31 50.558 0.248 7.65 18.9 10.21
3/26/2021 3:00:00 AM 10.27 50.486 0.248 7.64 38.36 10.21
3/26/2021 3:15:00 AM 10.22 50.396 0.248 7.65 15.85 10.23
3/26/2021 3:30:00 AM 10.18 50.324 0.248 7.64 141.68 10.24
3/26/2021 3:45:00 AM 10.13 50.234 0.249 7.65 15.71 10.23
3/26/2021 4:00:00 AM 10.09 50.162 0.249 7.64 12.61 10.25
3/26/2021 4:15:00 AM 10.04 50.072 0.249 7.62 48.06 10.24
3/26/2021 4:30:00 AM 9.99 49.982 0.249 7.64 28.3 10.27
3/26/2021 4:45:00 AM 9.96 49.928 0.249 7.64 36.53 10.26
3/26/2021 5:00:00 AM 9.94 49.892 0.25 7.65 18.44 10.26
3/26/2021 5:15:00 AM 9.89 49.802 0.249 7.65 11.96 10.3
3/26/2021 5:30:00 AM 9.84 49.712 0.25 7.63 372.22 10.28
3/26/2021 5:45:00 AM 9.78 49.604 0.25 7.64 12.08 10.27
3/26/2021 6:00:00 AM 9.73 49.514 0.25 7.65 12.73 10.31
3/26/2021 6:15:00 AM 9.68 49.424 0.25 7.65 15.53 10.32
3/26/2021 6:30:00 AM 9.67 49.406 0.25 7.64 15.05 10.34
3/26/2021 6:45:00 AM 9.66 49.388 0.249 7.66 15.69 10.33
3/26/2021 7:00:00 AM 9.64 49.352 0.249 7.66 19.49 10.32
3/26/2021 7:15:00 AM 9.62 49.316 0.249 7.67 12.68 10.35
3/26/2021 7:30:00 AM 9.62 49.316 0.249 7.68 16.55 10.39
3/26/2021 7:45:00 AM 9.63 49.334 0.249 7.69 79.55 10.44
3/26/2021 8:00:00 AM 9.61 49.298 0.249 7.71 17.52 10.55
3/26/2021 8:15:00 AM 9.61 49.298 0.249 7.74 12.41 10.7
3/26/2021 8:30:00 AM 9.62 49.316 0.249 7.79 12.68 10.9
3/26/2021 8:45:00 AM 9.64 49.352 0.249 7.84 580.03 11.06
3/26/2021 9:00:00 AM 9.64 49.352 0.249 7.88 12.54 11.2
3/26/2021 9:15:00 AM 9.67 49.406 0.25 7.92 12.7 11.31
3/26/2021 9:30:00 AM 9.73 49.514 0.25 7.98 19.17 11.42
3/26/2021 9:45:00 AM 9.86 49.748 0.25 8.06 11.28 11.62
3/26/2021 10:00:00 AM 10.01 50.018 0.25 8.13 12.26 11.72
3/26/2021 10:15:00 AM 10.19 50.342 0.249 8.21 16.78 11.88
3/26/2021 10:30:00 AM 10.4 50.72 0.249 8.28 11.16 11.98
3/26/2021 10:45:00 AM 10.55 50.99 0.249 8.36 146.79 12.03
3/26/2021 11:00:00 AM 10.69 51.242 0.248 8.4 12.07 12.03
3/26/2021 11:15:00 AM 10.89 51.602 0.248 8.46 29.84 12.06
3/26/2021 11:30:00 AM 11.07 51.926 0.248 8.53 12.72 12.1
3/26/2021 11:45:00 AM 11.28 52.304 0.247 8.56 15.29 12.09
3/26/2021 12:00:00 PM 11.32 52.376 0.247 8.6 11.93 12.07
3/26/2021 12:15:00 PM 11.49 52.682 0.247 8.65 39.48 12.08
3/26/2021 12:30:00 PM 11.73 53.114 0.247 8.73 14.5 12.11
3/26/2021 12:45:00 PM 11.68 53.024 0.247 8.71 16.01 11.95
3/26/2021 1:00:00 PM 11.78 53.204 0.246 8.75 15.37 11.96
3/26/2021 1:15:00 PM 11.81 53.258 0.246 8.76 15.18 11.92
3/26/2021 1:30:00 PM 11.92 53.456 0.245 8.8 14.56 11.89
3/26/2021 1:45:00 PM 11.97 53.546 0.245 8.81 15.44 11.89
3/26/2021 2:00:00 PM 12.04 53.672 0.244 8.85 11.39 11.88
3/26/2021 2:15:00 PM 12.09 53.762 0.244 8.86 11.09 11.84
3/26/2021 2:30:00 PM 12.08 53.744 0.244 8.86 12.85 11.73
3/26/2021 2:45:00 PM 12.02 53.636 0.243 8.84 141.77 11.54
3/26/2021 3:00:00 PM 11.94 53.492 0.243 8.81 36.3 11.42
3/26/2021 3:15:00 PM 11.87 53.366 0.244 8.79 26.3 11.35
3/26/2021 3:30:00 PM 11.81 53.258 0.244 8.77 19.87 11.27
3/26/2021 3:45:00 PM 11.75 53.15 0.244 8.76 19.95 11.29
3/26/2021 4:00:00 PM 11.72 53.096 0.244 8.77 21.97 11.33
3/26/2021 4:15:00 PM 11.69 53.042 0.244 8.78 15.87 11.34
3/26/2021 4:30:00 PM 11.67 53.006 0.244 8.81 14.2 11.4
3/26/2021 4:45:00 PM 11.62 52.916 0.245 8.79 13.75 11.38
3/26/2021 5:00:00 PM 11.56 52.808 0.245 8.79 13.79 11.34
3/26/2021 5:15:00 PM 11.51 52.718 0.245 8.78 13.18 11.32
3/26/2021 5:30:00 PM 11.42 52.556 0.245 8.74 14.56 11.26
3/26/2021 5:45:00 PM 11.33 52.394 0.246 8.7 13.04 11.17
3/26/2021 6:00:00 PM 11.24 52.232 0.247 8.64 13.85 11.04
3/26/2021 6:15:00 PM 11.13 52.034 0.249 8.58 13.34 10.95
3/26/2021 6:30:00 PM 11.03 51.854 0.251 8.51 15.43 10.83
3/26/2021 6:45:00 PM 10.93 51.674 0.252 8.44 15.21 10.77
3/26/2021 7:00:00 PM 10.83 51.494 0.253 8.36 15.07 10.7
3/26/2021 7:15:00 PM 10.73 51.314 0.252 8.3 15.57 10.64
3/26/2021 7:30:00 PM 10.63 51.134 0.252 8.23 12.51 10.59
3/26/2021 7:45:00 PM 10.53 50.954 0.252 8.16 12.51 10.54
3/26/2021 8:00:00 PM 10.44 50.792 0.252 8.09 13.07 10.5
3/26/2021 8:15:00 PM 10.33 50.594 0.251 8.03 12.19 10.47
3/26/2021 8:30:00 PM 10.23 50.414 0.251 7.98 12.3 10.46
3/26/2021 8:45:00 PM 10.14 50.252 0.25 7.93 12.23 10.46
3/26/2021 9:00:00 PM 10.05 50.09 0.251 7.89 11.91 10.46
3/26/2021 9:15:00 PM 9.95 49.91 0.25 7.86 12.19 10.45
3/26/2021 9:30:00 PM 9.86 49.748 0.25 7.83 12.5 10.47
3/26/2021 9:45:00 PM 9.77 49.586 0.25 7.81 11.28 10.48
3/26/2021 10:00:00 PM 9.68 49.424 0.25 7.79 10.87 10.5
3/26/2021 10:15:00 PM 9.58 49.244 0.25 7.77 11.92 10.52
3/26/2021 10:30:00 PM 9.49 49.082 0.25 7.75 11.69 10.53
3/26/2021 10:45:00 PM 9.4 48.92 0.25 7.75 10.82 10.56
3/26/2021 11:00:00 PM 9.31 48.758 0.25 7.71 10.75 10.57
3/26/2021 11:15:00 PM 9.23 48.614 0.25 7.72 10.56 10.59
3/26/2021 11:30:00 PM 9.16 48.488 0.25 7.72 10.54 10.61
3/26/2021 11:45:00 PM 9.09 48.362 0.251 7.71 10.85 10.64
3/27/2021 12:00:00 AM 9.02 48.236 0.251 7.71 10.5 10.64
3/27/2021 12:15:00 AM 8.96 48.128 0.251 7.7 10.84 10.66
3/27/2021 12:30:00 AM 8.89 48.002 0.252 7.7 11.06 10.68
3/27/2021 12:45:00 AM 8.83 47.894 0.252 7.69 11.9 10.7
3/27/2021 1:00:00 AM 8.76 47.768 0.252 7.69 12.53 10.72
3/27/2021 1:15:00 AM 8.71 47.678 0.252 7.69 12.53 10.75
3/27/2021 1:30:00 AM 8.66 47.588 0.253 7.69 12.3 10.75
3/27/2021 1:45:00 AM 8.59 47.462 0.253 7.66 11.95 10.78
3/27/2021 2:00:00 AM 8.54 47.372 0.253 7.69 11.05 10.8
3/27/2021 2:15:00 AM 8.48 47.264 0.254 7.68 12.79 10.81
3/27/2021 2:30:00 AM 8.43 47.174 0.254 7.68 10.69 10.82
3/27/2021 2:45:00 AM 8.37 47.066 0.254 7.67 10.49 10.84
3/27/2021 3:00:00 AM 8.31 46.958 0.254 7.68 11.14 10.88
3/27/2021 3:15:00 AM 8.26 46.868 0.255 7.67 11.59 10.86
3/27/2021 3:30:00 AM 8.2 46.76 0.255 7.65 10.84 10.91
3/27/2021 3:45:00 AM 8.15 46.67 0.255 7.67 10.71 10.91
3/27/2021 4:00:00 AM 8.1 46.58 0.255 7.67 11.3 10.94
3/27/2021 4:15:00 AM 8.05 46.49 0.256 7.68 11.23 10.95
3/27/2021 4:30:00 AM 8 46.4 0.256 7.68 10.99 10.96
3/27/2021 4:45:00 AM 7.97 46.346 0.256 7.68 11.42 10.97
3/27/2021 5:00:00 AM 7.93 46.274 0.256 7.68 10.96 10.99
3/27/2021 5:15:00 AM 7.89 46.202 0.256 7.68 11.14 11.01
3/27/2021 5:30:00 AM 7.85 46.13 0.257 7.68 10.57 11
3/27/2021 5:45:00 AM 7.81 46.058 0.256 7.68 10.57 11.02
3/27/2021 6:00:00 AM 7.78 46.004 0.257 7.68 10.58 11.04
3/27/2021 6:15:00 AM 7.74 45.932 0.257 7.68 10.44 11.05
3/27/2021 6:30:00 AM 7.7 45.86 0.257 7.68 10.02 11.05
3/27/2021 6:45:00 AM 7.66 45.788 0.257 7.68 10.57 11.07
3/27/2021 7:00:00 AM 7.62 45.716 0.257 7.67 10.53 11.09
3/27/2021 7:15:00 AM 7.59 45.662 0.257 7.69 10.68 11.13
3/27/2021 7:30:00 AM 7.55 45.59 0.257 7.7 10.72 11.17
3/27/2021 7:45:00 AM 7.52 45.536 0.257 7.7 10.25 11.2
3/27/2021 8:00:00 AM 7.5 45.5 0.257 7.7 10.33 11.26
3/27/2021 8:15:00 AM 7.48 45.464 0.257 7.72 10.46 11.32
3/27/2021 8:30:00 AM 7.46 45.428 0.257 7.74 10.65 11.48
3/27/2021 8:45:00 AM 7.46 45.428 0.257 7.78 10.17 11.6
3/27/2021 9:00:00 AM 7.47 45.446 0.257 7.82 10.22 11.83
3/27/2021 9:15:00 AM 7.5 45.5 0.257 7.88 9.85 12.09
3/27/2021 9:30:00 AM 7.52 45.536 0.256 7.93 9.36 12.16
3/27/2021 9:45:00 AM 7.55 45.59 0.257 7.99 9.56 12.32
3/27/2021 10:00:00 AM 7.62 45.716 0.256 8.07 9.33 12.51
3/27/2021 10:15:00 AM 7.66 45.788 0.256 8.11 11.39 12.59
3/27/2021 10:30:00 AM 7.7 45.86 0.257 8.16 10.46 12.63
3/27/2021 10:45:00 AM 7.76 45.968 0.256 8.22 9.64 12.73
3/27/2021 11:00:00 AM 7.83 46.094 0.256 8.27 9.86 12.79
3/27/2021 11:15:00 AM 7.96 46.328 0.256 8.34 9.21 12.88
3/27/2021 11:30:00 AM 8.07 46.526 0.255 8.42 9.13 12.95
3/27/2021 11:45:00 AM 8.3 46.94 0.255 8.47 9.17 13.02
3/27/2021 12:00:00 PM 8.57 47.426 0.255 8.54 9.15 13.08
3/27/2021 12:15:00 PM 8.74 47.732 0.255 8.6 9.29 13.12
3/27/2021 12:30:00 PM 8.91 48.038 0.255 8.64 9.13 13.09
3/27/2021 12:45:00 PM 9.26 48.668 0.256 8.7 9.49 13.1
3/27/2021 1:00:00 PM 9.59 49.262 0.256 8.74 8.74 13.1
3/27/2021 1:15:00 PM 9.85 49.73 0.256 8.77 8.92 13.05
3/27/2021 1:30:00 PM 10.14 50.252 0.255 8.8 8.87 13.01
3/27/2021 1:45:00 PM 10.44 50.792 0.254 8.86 8.93 12.96
3/27/2021 2:00:00 PM 10.65 51.17 0.254 8.88 8.94 12.93
3/27/2021 2:15:00 PM 10.79 51.422 0.254 8.91 9.38 12.87
3/27/2021 2:30:00 PM 10.95 51.71 0.255 8.92 9.62 12.84
3/27/2021 2:45:00 PM 11.08 51.944 0.255 8.96 9.17 12.78
3/27/2021 3:00:00 PM 11.19 52.142 0.255 8.97 10.45 12.73
3/27/2021 3:15:00 PM 11.32 52.376 0.254 9 9.67 12.67
3/27/2021 3:30:00 PM 11.45 52.61 0.254 9.02 8.97 12.64
3/27/2021 3:45:00 PM 11.53 52.754 0.253 9.04 9 12.54
3/27/2021 4:00:00 PM 11.61 52.898 0.253 9.04 9.37 12.47
3/27/2021 4:15:00 PM 11.68 53.024 0.252 9.06 9.08 12.39
3/27/2021 4:30:00 PM 11.73 53.114 0.252 9.08 9.03 12.32
3/27/2021 4:45:00 PM 11.79 53.222 0.251 9.08 10.39 12.28
3/27/2021 5:00:00 PM 11.84 53.312 0.251 9.09 9.31 12.17
3/27/2021 5:15:00 PM 11.88 53.384 0.251 9.09 9.45 12.08
3/27/2021 5:30:00 PM 11.92 53.456 0.251 9.09 9.2 12.02
3/27/2021 5:45:00 PM 11.93 53.474 0.251 9.08 9.12 11.85
3/27/2021 6:00:00 PM 11.92 53.456 0.251 9.06 9.51 11.68
3/27/2021 6:15:00 PM 11.89 53.402 0.251 9.05 9.76 11.55
3/27/2021 6:30:00 PM 11.85 53.33 0.251 9 10.33 11.38
3/27/2021 6:45:00 PM 11.8 53.24 0.252 8.98 9.94 11.21
3/27/2021 7:00:00 PM 11.75 53.15 0.252 8.93 9.68 11.01
3/27/2021 7:15:00 PM 11.69 53.042 0.252 8.87 9.77 10.84
3/27/2021 7:30:00 PM 11.61 52.898 0.253 8.79 9.84 10.66
3/27/2021 7:45:00 PM 11.54 52.772 0.253 8.72 10.32 10.51
3/27/2021 8:00:00 PM 11.45 52.61 0.254 8.64 9.41 10.38
3/27/2021 8:15:00 PM 11.38 52.484 0.253 8.55 9.61 10.28
3/27/2021 8:30:00 PM 11.29 52.322 0.253 8.46 9.08 10.21
3/27/2021 8:45:00 PM 11.2 52.16 0.254 8.34 9.88 10.16
3/27/2021 9:00:00 PM 11.1 51.98 0.253 8.26 9.31 10.12
3/27/2021 9:15:00 PM 11.01 51.818 0.254 8.15 16.34 10.08
3/27/2021 9:30:00 PM 10.91 51.638 0.254 8.08 9.64 10.07
3/27/2021 9:45:00 PM 10.8 51.44 0.254 8.01 8.41 10.11
3/27/2021 10:00:00 PM 10.68 51.224 0.254 7.95 10.03 10.13
3/27/2021 10:15:00 PM 10.57 51.026 0.255 7.9 9.61 10.14
3/27/2021 10:30:00 PM 10.46 50.828 0.255 7.85 10.96 10.13
3/27/2021 10:45:00 PM 10.34 50.612 0.255 7.81 9.32 10.15
3/27/2021 11:00:00 PM 10.22 50.396 0.255 7.8 10.96 10.18
3/27/2021 11:15:00 PM 10.11 50.198 0.256 7.77 12.15 10.19
3/27/2021 11:30:00 PM 9.98 49.964 0.255 7.74 11.15 10.22
3/27/2021 11:45:00 PM 9.85 49.73 0.256 7.72 11.33 10.26
3/28/2021 12:00:00 AM 9.72 49.496 0.256 7.71 10.3 10.28
3/28/2021 12:15:00 AM 9.59 49.262 0.256 7.69 9.77 10.32
3/28/2021 12:30:00 AM 9.46 49.028 0.257 7.68 10.14 10.34
3/28/2021 12:45:00 AM 9.34 48.812 0.258 7.65 9.68 10.37
3/28/2021 1:00:00 AM 9.21 48.578 0.258 7.66 9.49 10.41
3/28/2021 1:15:00 AM 9.08 48.344 0.258 7.65 9.43 10.45
3/28/2021 1:30:00 AM 8.96 48.128 0.258 7.65 10.09 10.48
3/28/2021 1:45:00 AM 8.83 47.894 0.258 7.65 8.91 10.5
3/28/2021 2:00:00 AM 8.71 47.678 0.259 7.64 9.64 10.54
3/28/2021 2:15:00 AM 8.58 47.444 0.258 7.64 9.8 10.59
3/28/2021 2:30:00 AM 8.47 47.246 0.26 7.63 10.02 10.62
3/28/2021 2:45:00 AM 8.36 47.048 0.259 7.63 8.75 10.66
3/28/2021 3:00:00 AM 8.24 46.832 0.259 7.63 9.81 10.69
3/28/2021 3:15:00 AM 8.12 46.616 0.26 7.63 9.29 10.73
3/28/2021 3:30:00 AM 8.01 46.418 0.26 7.63 11.97 10.75
3/28/2021 3:45:00 AM 7.91 46.238 0.26 7.63 8.08 10.78
3/28/2021 4:00:00 AM 7.82 46.076 0.261 7.63 9.02 10.8
3/28/2021 4:15:00 AM 7.71 45.878 0.26 7.63 8.27 10.85
3/28/2021 4:30:00 AM 7.62 45.716 0.261 7.63 8.78 10.88
3/28/2021 4:45:00 AM 7.53 45.554 0.261 7.63 8.28 10.89
3/28/2021 5:00:00 AM 7.45 45.41 0.261 7.64 7.79 10.94
3/28/2021 5:15:00 AM 7.38 45.284 0.261 7.64 7.99 10.96
3/28/2021 5:30:00 AM 7.31 45.158 0.261 7.64 10.75 10.98
3/28/2021 5:45:00 AM 7.25 45.05 0.262 7.64 8.08 11.01
3/28/2021 6:00:00 AM 7.19 44.942 0.262 7.64 8.26 11.02
3/28/2021 6:15:00 AM 7.13 44.834 0.262 7.64 8.67 11.06
3/28/2021 6:30:00 AM 7.08 44.744 0.263 7.65 8.19 11.07
3/28/2021 6:45:00 AM 7.03 44.654 0.263 7.65 8.36 11.09
3/28/2021 7:00:00 AM 7 44.6 0.263 7.66 8.8 11.12
3/28/2021 7:15:00 AM 6.98 44.564 0.263 7.66 8.8 11.12
3/28/2021 7:30:00 AM 6.97 44.546 0.264 7.67 8.92 11.15
3/28/2021 7:45:00 AM 6.97 44.546 0.264 7.69 8.38 11.18
3/28/2021 8:00:00 AM 6.97 44.546 0.264 7.7 10.53 11.22
3/28/2021 8:15:00 AM 6.98 44.564 0.264 7.7 9.03 11.27
3/28/2021 8:30:00 AM 7 44.6 0.264 7.74 9.03 11.35
3/28/2021 8:45:00 AM 7.01 44.618 0.263 7.75 10.3 11.41
3/28/2021 9:00:00 AM 7.02 44.636 0.264 7.77 9.08 11.48
3/28/2021 9:15:00 AM 7.04 44.672 0.263 7.79 8.59 11.54
3/28/2021 9:30:00 AM 7.06 44.708 0.263 7.82 8.44 11.64
3/28/2021 9:45:00 AM 7.1 44.78 0.263 7.85 11.32 11.75
3/28/2021 10:00:00 AM 7.16 44.888 0.263 7.88 8.98 11.93
3/28/2021 10:15:00 AM 7.2 44.96 0.263 7.95 8.06 12.08
3/28/2021 10:30:00 AM 7.25 45.05 0.263 7.98 8.41 12.14
3/28/2021 10:45:00 AM 7.34 45.212 0.262 8.06 8.15 12.28
3/28/2021 11:00:00 AM 7.45 45.41 0.262 8.11 8.83 12.44
3/28/2021 11:15:00 AM 7.56 45.608 0.262 8.18 7.44 12.57
3/28/2021 11:30:00 AM 7.68 45.824 0.262 8.25 7.48 12.69
3/28/2021 11:45:00 AM 7.82 46.076 0.262 8.33 8.63 12.76
3/28/2021 12:00:00 PM 7.98 46.364 0.262 8.4 7.65 12.85
3/28/2021 12:15:00 PM 8.13 46.634 0.262 8.46 8.23 12.86
3/28/2021 12:30:00 PM 8.36 47.048 0.261 8.52 7.7 12.93
3/28/2021 12:45:00 PM 8.59 47.462 0.261 8.59 8.51 12.97
3/28/2021 1:00:00 PM 8.77 47.786 0.261 8.64 8.12 12.97
3/28/2021 1:15:00 PM 8.98 48.164 0.26 8.7 7.95 13.01
3/28/2021 1:30:00 PM 9.16 48.488 0.26 8.74 7.7 12.98
3/28/2021 1:45:00 PM 9.27 48.686 0.26 8.75 7.8 12.95
3/28/2021 2:00:00 PM 9.36 48.848 0.26 8.78 8.13 12.85
3/28/2021 2:15:00 PM 9.47 49.046 0.261 8.79 8.69 12.81
3/28/2021 2:30:00 PM 9.58 49.244 0.262 8.83 7.91 12.78
3/28/2021 2:45:00 PM 9.62 49.316 0.26 8.82 8.3 12.56
3/28/2021 3:00:00 PM 9.61 49.298 0.259 8.78 9.51 12.26
3/28/2021 3:15:00 PM 9.59 49.262 0.258 8.75 8.68 12.07
3/28/2021 3:30:00 PM 9.57 49.226 0.257 8.68 7.71 11.82
3/28/2021 3:45:00 PM 9.59 49.262 0.256 8.64 8.71 11.68
3/28/2021 4:00:00 PM 9.63 49.334 0.254 8.66 9.05 11.73
3/28/2021 4:15:00 PM 9.65 49.37 0.254 8.65 11.03 11.64
3/28/2021 4:30:00 PM 9.67 49.406 0.253 8.64 10.25 11.66
3/28/2021 4:45:00 PM 9.69 49.442 0.252 8.69 11.03 11.75
3/28/2021 5:00:00 PM 9.7 49.46 0.252 8.71 11.95 11.79
3/28/2021 5:15:00 PM 9.71 49.478 0.253 8.71 12.08 11.78
3/28/2021 5:30:00 PM 9.73 49.514 0.256 8.72 14.15 11.83
3/28/2021 5:45:00 PM 9.73 49.514 0.262 8.7 17.22 11.81
3/28/2021 6:00:00 PM 9.67 49.406 0.27 8.66 16.27 11.74
3/28/2021 6:15:00 PM 9.6 49.28 0.276 8.61 13.96 11.65
3/28/2021 6:30:00 PM 9.5 49.1 0.278 8.56 16.08 11.57
3/28/2021 6:45:00 PM 9.41 48.938 0.276 8.51 16.11 11.46
3/28/2021 7:00:00 PM 9.28 48.704 0.276 8.42 15.68 11.34
3/28/2021 7:15:00 PM 9.14 48.452 0.276 8.36 14.49 11.22
3/28/2021 7:30:00 PM 9.01 48.218 0.273 8.27 15.63 11.11
3/28/2021 7:45:00 PM 8.91 48.038 0.27 8.21 19.68 11.02
3/28/2021 8:00:00 PM 8.82 47.876 0.267 8.15 21.05 10.95
3/28/2021 8:15:00 PM 8.72 47.696 0.263 8.08 24.73 10.9
3/28/2021 8:30:00 PM 8.63 47.534 0.259 8.03 23.05 10.88
3/28/2021 8:45:00 PM 8.53 47.354 0.256 7.99 25.2 10.88
3/28/2021 9:00:00 PM 8.44 47.192 0.254 7.95 26.55 10.89
3/28/2021 9:15:00 PM 8.31 46.958 0.252 7.91 29.1 10.91
3/28/2021 9:30:00 PM 8.19 46.742 0.252 7.88 28.81 10.92
3/28/2021 9:45:00 PM 8.07 46.526 0.252 7.86 23.38 10.95
3/28/2021 10:00:00 PM 7.96 46.328 0.252 7.84 30.52 10.97
3/28/2021 10:15:00 PM 7.87 46.166 0.252 7.84 30.37 10.99
3/28/2021 10:30:00 PM 7.78 46.004 0.251 7.83 31.41 11.01
3/28/2021 10:45:00 PM 7.68 45.824 0.25 7.81 26.55 11.03
3/28/2021 11:00:00 PM 7.58 45.644 0.249 7.8 29.93 11.07
3/28/2021 11:15:00 PM 7.47 45.446 0.248 7.78 29.36 11.09
3/28/2021 11:30:00 PM 7.36 45.248 0.251 7.77 31.16 11.14
3/28/2021 11:45:00 PM 7.24 45.032 0.256 7.76 23.93 11.17
3/29/2021 12:00:00 AM 7.13 44.834 0.261 7.75 24.99 11.2
3/29/2021 12:15:00 AM 7 44.6 0.265 7.74 39.88 11.23
3/29/2021 12:30:00 AM 6.87 44.366 0.267 7.71 24.52 11.25
3/29/2021 12:45:00 AM 6.76 44.168 0.267 7.73 21.25 11.3
3/29/2021 1:00:00 AM 6.67 44.006 0.266 7.73 24.3 11.32
3/29/2021 1:15:00 AM 6.57 43.826 0.265 7.73 25.8 11.36
3/29/2021 1:30:00 AM 6.47 43.646 0.264 7.72 20.39 11.39
3/29/2021 1:45:00 AM 6.38 43.484 0.263 7.72 21.5 11.42
3/29/2021 2:00:00 AM 6.29 43.322 0.262 7.72 21.57 11.45
3/29/2021 2:15:00 AM 6.18 43.124 0.26 7.71 21.07 11.49
3/29/2021 2:30:00 AM 6.09 42.962 0.261 7.71 22.61 11.51
3/29/2021 2:45:00 AM 5.99 42.782 0.26 7.7 23.06 11.54
3/29/2021 3:00:00 AM 5.89 42.602 0.26 7.7 21.39 11.58
3/29/2021 3:15:00 AM 5.8 42.44 0.26 7.7 19.75 11.61
3/29/2021 3:30:00 AM 5.71 42.278 0.26 7.7 20.31 11.64
3/29/2021 3:45:00 AM 5.63 42.134 0.261 7.7 21.8 11.67
3/29/2021 4:00:00 AM 5.55 41.99 0.261 7.7 16.56 11.7
3/29/2021 4:15:00 AM 5.47 41.846 0.261 7.68 18.07 11.72
3/29/2021 4:30:00 AM 5.39 41.702 0.262 7.7 18.41 11.77
3/29/2021 4:45:00 AM 5.3 41.54 0.262 7.68 18.32 11.79
3/29/2021 5:00:00 AM 5.23 41.414 0.262 7.7 17.2 11.82
3/29/2021 5:15:00 AM 5.16 41.288 0.262 7.7 16.26 11.85
3/29/2021 5:30:00 AM 5.08 41.144 0.262 7.7 14.59 11.88
3/29/2021 5:45:00 AM 5.01 41.018 0.262 7.69 16.16 11.91
3/29/2021 6:00:00 AM 4.94 40.892 0.262 7.7 15.96 11.93
3/29/2021 6:15:00 AM 4.88 40.784 0.262 7.7 14.85 11.97
3/29/2021 6:30:00 AM 4.81 40.658 0.263 7.69 14.83 11.99
3/29/2021 6:45:00 AM 4.75 40.55 0.262 7.69 15.03 12.01
3/29/2021 7:00:00 AM 4.68 40.424 0.262 7.7 13.71 12.05
3/29/2021 7:15:00 AM 4.63 40.334 0.262 7.7 13.7 12.08
3/29/2021 7:30:00 AM 4.57 40.226 0.263 7.7 14.34 12.12
3/29/2021 7:45:00 AM 4.51 40.118 0.263 7.71 13.77 12.18
3/29/2021 8:00:00 AM 4.46 40.028 0.263 7.72 12.84 12.26
3/29/2021 8:15:00 AM 4.41 39.938 0.263 7.74 13 12.34
3/29/2021 8:30:00 AM 4.38 39.884 0.263 7.73 13.66 12.43
3/29/2021 8:45:00 AM 4.35 39.83 0.263 7.78 12.1 12.53
3/29/2021 9:00:00 AM 4.32 39.776 0.263 7.78 12.2 12.63
3/29/2021 9:15:00 AM 4.3 39.74 0.262 7.82 12.45 12.74
3/29/2021 9:30:00 AM 4.26 39.668 0.262 7.84 12.05 12.81
3/29/2021 9:45:00 AM 4.25 39.65 0.262 7.86 11.57 12.9
3/29/2021 10:00:00 AM 4.23 39.614 0.262 7.87 11.7 12.97
3/29/2021 10:15:00 AM 4.23 39.614 0.262 7.87 12.52 13.05
3/29/2021 10:30:00 AM 4.24 39.632 0.261 7.9 11.02 13.16
3/29/2021 10:45:00 AM 4.3 39.74 0.261 7.94 11.31 13.27
3/29/2021 11:00:00 AM 4.33 39.794 0.261 7.96 10.83 13.36
3/29/2021 11:15:00 AM 4.42 39.956 0.26 8.04 9.86 13.46
3/29/2021 11:30:00 AM 4.64 40.352 0.259 8.12 10.99 13.55
3/29/2021 11:45:00 AM 4.71 40.478 0.259 8.16 10.14 13.59
3/29/2021 12:00:00 PM 4.82 40.676 0.258 8.19 10.69 13.64
3/29/2021 12:15:00 PM 4.92 40.856 0.258 8.26 9.12 13.67
3/29/2021 12:30:00 PM 5.07 41.126 0.258 8.3 10.78 13.69
3/29/2021 12:45:00 PM 5.19 41.342 0.258 8.34 9.01 13.7
3/29/2021 1:00:00 PM 5.42 41.756 0.257 8.38 9.77 13.71
3/29/2021 1:15:00 PM 5.67 42.206 0.257 8.41 9.66 13.7
3/29/2021 1:30:00 PM 5.96 42.728 0.257 8.48 9.96 13.69
3/29/2021 1:45:00 PM 6.2 43.16 0.257 8.49 10.25 13.64
3/29/2021 2:00:00 PM 6.33 43.394 0.257 8.52 10.42 13.58
3/29/2021 2:15:00 PM 6.42 43.556 0.256 8.55 10.65 13.51
3/29/2021 2:30:00 PM 6.57 43.826 0.256 8.57 10.89 13.49
3/29/2021 2:45:00 PM 6.66 43.988 0.256 8.59 10.96 13.43
3/29/2021 3:00:00 PM 6.83 44.294 0.256 8.61 10.24 13.38
3/29/2021 3:15:00 PM 7.05 44.69 0.255 8.65 9.86 13.35
3/29/2021 3:30:00 PM 7.3 45.14 0.254 8.69 10.85 13.31
3/29/2021 3:45:00 PM 7.5 45.5 0.255 8.71 10.96 13.24
3/29/2021 4:00:00 PM 7.66 45.788 0.255 8.74 11.07 13.19
3/29/2021 4:15:00 PM 7.81 46.058 0.254 8.75 9.62 13.12
3/29/2021 4:30:00 PM 7.94 46.292 0.254 8.76 10.83 13.05
3/29/2021 4:45:00 PM 8.05 46.49 0.254 8.77 9.48 12.96
3/29/2021 5:00:00 PM 8.11 46.598 0.254 8.78 8.82 12.89
3/29/2021 5:15:00 PM 8.14 46.652 0.254 8.77 10.36 12.83
3/29/2021 5:30:00 PM 8.15 46.67 0.253 8.77 9.59 12.73
3/29/2021 5:45:00 PM 8.15 46.67 0.253 8.76 10.2 12.62
3/29/2021 6:00:00 PM 8.14 46.652 0.253 8.74 9.3 12.51
3/29/2021 6:15:00 PM 8.11 46.598 0.254 8.71 10.64 12.4
3/29/2021 6:30:00 PM 8.06 46.508 0.254 8.67 10.39 12.29
3/29/2021 6:45:00 PM 8.01 46.418 0.255 8.63 11.16 12.14
3/29/2021 7:00:00 PM 7.94 46.292 0.255 8.55 9.99 11.99
3/29/2021 7:15:00 PM 7.89 46.202 0.255 8.47 9.56 11.84
3/29/2021 7:30:00 PM 7.82 46.076 0.255 8.39 9.23 11.71
3/29/2021 7:45:00 PM 7.76 45.968 0.255 8.31 9.92 11.6
3/29/2021 8:00:00 PM 7.7 45.86 0.255 8.21 10.65 11.5
3/29/2021 8:15:00 PM 7.62 45.716 0.256 8.14 9.91 11.43
3/29/2021 8:30:00 PM 7.54 45.572 0.256 8.08 11.26 11.38
3/29/2021 8:45:00 PM 7.46 45.428 0.256 8.01 10.59 11.36
3/29/2021 9:00:00 PM 7.36 45.248 0.256 7.97 10.07 11.34
3/29/2021 9:15:00 PM 7.25 45.05 0.256 7.93 10.82 11.34
3/29/2021 9:30:00 PM 7.14 44.852 0.256 7.89 10.35 11.35
3/29/2021 9:45:00 PM 7.02 44.636 0.256 7.86 10.03 11.37
3/29/2021 10:00:00 PM 6.9 44.42 0.256 7.83 10.85 11.39
3/29/2021 10:15:00 PM 6.77 44.186 0.257 7.8 9.21 11.4
3/29/2021 10:30:00 PM 6.65 43.97 0.256 7.79 10.53 11.43
3/29/2021 10:45:00 PM 6.51 43.718 0.257 7.74 9.71 11.46
3/29/2021 11:00:00 PM 6.38 43.484 0.257 7.75 10.14 11.49
3/29/2021 11:15:00 PM 6.25 43.25 0.257 7.71 11.21 11.52
3/29/2021 11:30:00 PM 6.13 43.034 0.258 7.72 11.72 11.55
3/29/2021 11:45:00 PM 5.99 42.782 0.257 7.71 10.24 11.6
3/30/2021 12:00:00 AM 5.86 42.548 0.258 7.7 10.81 11.64
3/30/2021 12:15:00 AM 5.73 42.314 0.258 7.69 10.78 11.68
3/30/2021 12:30:00 AM 5.6 42.08 0.258 7.69 10.95 11.74
3/30/2021 12:45:00 AM 5.48 41.864 0.259 7.68 9.68 11.78
3/30/2021 1:00:00 AM 5.36 41.648 0.259 7.68 9.85 11.81
3/30/2021 1:15:00 AM 5.24 41.432 0.259 7.67 11.8 11.86
3/30/2021 1:30:00 AM 5.13 41.234 0.26 7.67 9.78 11.88
3/30/2021 1:45:00 AM 5.01 41.018 0.26 7.67 8.98 11.94
3/30/2021 2:00:00 AM 4.91 40.838 0.26 7.66 8.18 11.97
3/30/2021 2:15:00 AM 4.8 40.64 0.261 7.67 8.85 12.01
3/30/2021 2:30:00 AM 4.71 40.478 0.261 7.66 10.37 12.04
3/30/2021 2:45:00 AM 4.6 40.28 0.261 7.66 9.37 12.08
3/30/2021 3:00:00 AM 4.5 40.1 0.261 7.66 9.1 12.13
3/30/2021 3:15:00 AM 4.4 39.92 0.262 7.66 10.02 12.15
3/30/2021 3:30:00 AM 4.31 39.758 0.262 7.66 8.36 12.18
3/30/2021 3:45:00 AM 4.21 39.578 0.262 7.65 9.41 12.22
3/30/2021 4:00:00 AM 4.12 39.416 0.262 7.66 9.27 12.27
3/30/2021 4:15:00 AM 4.04 39.272 0.263 7.66 9.54 12.28
3/30/2021 4:30:00 AM 3.94 39.092 0.263 7.66 9.53 12.33
3/30/2021 4:45:00 AM 3.85 38.93 0.263 7.66 9.02 12.37
3/30/2021 5:00:00 AM 3.75 38.75 0.263 7.64 9 12.41
3/30/2021 5:15:00 AM 3.68 38.624 0.264 7.66 9.69 12.42
3/30/2021 5:30:00 AM 3.59 38.462 0.264 7.66 9.74 12.47
3/30/2021 5:45:00 AM 3.51 38.318 0.264 7.67 9.83 12.5
3/30/2021 6:00:00 AM 3.43 38.174 0.264 7.64 9.85 12.53
3/30/2021 6:15:00 AM 3.36 38.048 0.265 7.66 8.84 12.54
3/30/2021 6:30:00 AM 3.27 37.886 0.265 7.66 9.9 12.59
3/30/2021 6:45:00 AM 3.19 37.742 0.265 7.66 11.16 12.61
3/30/2021 7:00:00 AM 3.11 37.598 0.265 7.66 10.35 12.65
3/30/2021 7:15:00 AM 3.04 37.472 0.265 7.67 9.71 12.7
3/30/2021 7:30:00 AM 2.97 37.346 0.265 7.68 10.15 12.79
3/30/2021 7:45:00 AM 2.92 37.256 0.266 7.7 9.88 12.9
3/30/2021 8:00:00 AM 2.88 37.184 0.266 7.72 9.19 13.04
3/30/2021 8:15:00 AM 2.85 37.13 0.267 7.74 9.13 13.21
3/30/2021 8:30:00 AM 2.84 37.112 0.268 7.79 9.25 13.35
3/30/2021 8:45:00 AM 2.86 37.148 0.268 7.82 9.18 13.49
3/30/2021 9:00:00 AM 2.89 37.202 0.268 7.85 9.2 13.62
3/30/2021 9:15:00 AM 2.94 37.292 0.268 7.89 10.22 13.73
3/30/2021 9:30:00 AM 3.05 37.49 0.268 7.93 9.52 13.83
3/30/2021 9:45:00 AM 3.21 37.778 0.267 7.98 9.43 13.92
3/30/2021 10:00:00 AM 3.4 38.12 0.267 8.01 10.32 13.98
3/30/2021 10:15:00 AM 3.59 38.462 0.266 8.06 9.21 14.04
3/30/2021 10:30:00 AM 3.84 38.912 0.266 8.09 9.16 14.08
3/30/2021 10:45:00 AM 4.12 39.416 0.264 8.16 7.92 14.11
3/30/2021 11:00:00 AM 4.41 39.938 0.264 8.18 8.03 14.11
3/30/2021 11:15:00 AM 4.7 40.46 0.264 8.25 9.41 14.11
3/30/2021 11:30:00 AM 5 41 0.263 8.29 8.57 14.1
3/30/2021 11:45:00 AM 5.31 41.558 0.264 8.32 9.31 14.09
3/30/2021 12:00:00 PM 5.61 42.098 0.263 8.37 9.1 14.04
3/30/2021 12:15:00 PM 5.93 42.674 0.262 8.42 8.93 13.99
3/30/2021 12:30:00 PM 6.26 43.268 0.262 8.45 8.05 13.93
3/30/2021 12:45:00 PM 6.59 43.862 0.262 8.5 8.99 13.88
3/30/2021 1:00:00 PM 6.93 44.474 0.262 8.54 9.11 13.82
3/30/2021 1:15:00 PM 7.27 45.086 0.262 8.58 9.05 13.74
3/30/2021 1:30:00 PM 7.59 45.662 0.261 8.61 9.58 13.63
3/30/2021 1:45:00 PM 7.93 46.274 0.262 8.64 7.17 13.57
3/30/2021 2:00:00 PM 8.21 46.778 0.262 8.68 9.17 13.47
3/30/2021 2:15:00 PM 8.54 47.372 0.262 8.71 9.47 13.38
3/30/2021 2:30:00 PM 8.85 47.93 0.261 8.74 8.64 13.28
3/30/2021 2:45:00 PM 9.15 48.47 0.26 8.78 8.74 13.17
3/30/2021 3:00:00 PM 9.41 48.938 0.261 8.8 9.01 13.11
3/30/2021 3:15:00 PM 9.7 49.46 0.26 8.83 8.47 13.02
3/30/2021 3:30:00 PM 9.97 49.946 0.26 8.86 9.14 12.9
3/30/2021 3:45:00 PM 10.22 50.396 0.259 8.89 7.83 12.79
3/30/2021 4:00:00 PM 10.44 50.792 0.259 8.91 8.45 12.71
3/30/2021 4:15:00 PM 10.61 51.098 0.26 8.92 8.21 12.64
3/30/2021 4:30:00 PM 10.74 51.332 0.259 8.94 8.53 12.54
3/30/2021 4:45:00 PM 10.82 51.476 0.259 8.94 8.7 12.43
3/30/2021 5:00:00 PM 10.89 51.602 0.259 8.95 9.13 12.37
3/30/2021 5:15:00 PM 10.95 51.71 0.259 8.96 9.43 12.27
3/30/2021 5:30:00 PM 10.99 51.782 0.259 8.96 9.23 12.13
3/30/2021 5:45:00 PM 10.99 51.782 0.259 8.95 8.44 12.04
3/30/2021 6:00:00 PM 10.96 51.728 0.259 8.93 8.18 11.87
3/30/2021 6:15:00 PM 10.91 51.638 0.259 8.89 9.05 11.7
3/30/2021 6:30:00 PM 10.87 51.566 0.259 8.87 8.39 11.56
3/30/2021 6:45:00 PM 10.85 51.53 0.259 8.84 8.8 11.48
3/30/2021 7:00:00 PM 10.8 51.44 0.26 8.81 9.36 11.37
3/30/2021 7:15:00 PM 10.74 51.332 0.261 8.76 8.97 11.21
3/30/2021 7:30:00 PM 10.66 51.188 0.262 8.68 8.81 11.03
3/30/2021 7:45:00 PM 10.59 51.062 0.262 8.6 10.38 10.82
3/30/2021 8:00:00 PM 10.53 50.954 0.262 8.51 10.41 10.67
3/30/2021 8:15:00 PM 10.47 50.846 0.263 8.41 8.3 10.55
3/30/2021 8:30:00 PM 10.41 50.738 0.263 8.33 11.43 10.47
3/30/2021 8:45:00 PM 10.35 50.63 0.263 8.24 8.5 10.41
3/30/2021 9:00:00 PM 10.27 50.486 0.262 8.16 9.14 10.37
3/30/2021 9:15:00 PM 10.2 50.36 0.262 8.09 9.96 10.37
3/30/2021 9:30:00 PM 10.13 50.234 0.262 8.04 66.7 10.35
3/30/2021 9:45:00 PM 10.05 50.09 0.261 7.98 22.76 10.34
3/30/2021 10:00:00 PM 9.96 49.928 0.262 7.95 11.8 10.34
3/30/2021 10:15:00 PM 9.87 49.766 0.262 7.91 9.67 10.35
3/30/2021 10:30:00 PM 9.78 49.604 0.262 7.86 10.43 10.36
3/30/2021 10:45:00 PM 9.7 49.46 0.262 7.84 9.87 10.36
3/30/2021 11:00:00 PM 9.61 49.298 0.262 7.82 9.18 10.39
3/30/2021 11:15:00 PM 9.52 49.136 0.263 7.79 9.99 10.39
3/30/2021 11:30:00 PM 9.44 48.992 0.263 7.77 9.91 10.41
3/30/2021 11:45:00 PM 9.35 48.83 0.263 7.76 8.39 10.44
3/31/2021 12:00:00 AM 9.25 48.65 0.263 7.75 9.28 10.47
3/31/2021 12:15:00 AM 9.17 48.506 0.263 7.74 9.82 10.49
3/31/2021 12:30:00 AM 9.08 48.344 0.264 7.72 9.41 10.5
3/31/2021 12:45:00 AM 8.98 48.164 0.264 7.71 9.5 10.53
3/31/2021 1:00:00 AM 8.91 48.038 0.265 7.68 11.85 10.54
3/31/2021 1:15:00 AM 8.82 47.876 0.265 7.7 9.05 10.57
3/31/2021 1:30:00 AM 8.74 47.732 0.266 7.67 10.13 10.58
3/31/2021 1:45:00 AM 8.66 47.588 0.266 7.69 9.03 10.61
3/31/2021 2:00:00 AM 8.58 47.444 0.266 7.69 9.74 10.65
3/31/2021 2:15:00 AM 8.51 47.318 0.266 7.68 10.22 10.66
3/31/2021 2:30:00 AM 8.44 47.192 0.266 7.69 8.92 10.7
3/31/2021 2:45:00 AM 8.36 47.048 0.266 7.69 8.1 10.72
3/31/2021 3:00:00 AM 8.29 46.922 0.267 7.68 9.18 10.74
3/31/2021 3:15:00 AM 8.21 46.778 0.267 7.68 9.05 10.77
3/31/2021 3:30:00 AM 8.14 46.652 0.267 7.67 9.43 10.78
3/31/2021 3:45:00 AM 8.08 46.544 0.268 7.68 8.5 10.8
3/31/2021 4:00:00 AM 8.02 46.436 0.268 7.68 9.72 10.82
3/31/2021 4:15:00 AM 7.96 46.328 0.268 7.66 10.46 10.85
3/31/2021 4:30:00 AM 7.91 46.238 0.268 7.68 9.88 10.87
3/31/2021 4:45:00 AM 7.86 46.148 0.268 7.68 9.62 10.87
3/31/2021 5:00:00 AM 7.82 46.076 0.269 7.67 10.76 10.88
3/31/2021 5:15:00 AM 7.78 46.004 0.269 7.69 10.2 10.91
3/31/2021 5:30:00 AM 7.74 45.932 0.269 7.68 8.6 10.93
3/31/2021 5:45:00 AM 7.7 45.86 0.269 7.68 9.5 10.94
3/31/2021 6:00:00 AM 7.66 45.788 0.269 7.68 8.74 10.96
3/31/2021 6:15:00 AM 7.62 45.716 0.269 7.68 9.98 10.98
3/31/2021 6:30:00 AM 7.59 45.662 0.269 7.69 8.46 10.98
3/31/2021 6:45:00 AM 7.55 45.59 0.269 7.69 9 11
3/31/2021 7:00:00 AM 7.52 45.536 0.27 7.69 8.84 11
3/31/2021 7:15:00 AM 7.49 45.482 0.27 7.69 10.01 11.03
3/31/2021 7:30:00 AM 7.46 45.428 0.27 7.71 9.37 11.07
3/31/2021 7:45:00 AM 7.44 45.392 0.27 7.72 8.16 11.14
3/31/2021 8:00:00 AM 7.42 45.356 0.27 7.73 9.14 11.22
3/31/2021 8:15:00 AM 7.4 45.32 0.27 7.75 8.32 11.32
3/31/2021 8:30:00 AM 7.39 45.302 0.271 7.76 7.81 11.37
3/31/2021 8:45:00 AM 7.39 45.302 0.272 7.78 7.95 11.45
3/31/2021 9:00:00 AM 7.38 45.284 0.272 7.8 8.96 11.53
3/31/2021 9:15:00 AM 7.39 45.302 0.274 7.8 8.89 11.6
3/31/2021 9:30:00 AM 7.39 45.302 0.273 7.84 9.67 11.68
3/31/2021 9:45:00 AM 7.4 45.32 0.272 7.87 8.44 11.8
3/31/2021 10:00:00 AM 7.41 45.338 0.271 7.9 8.59 11.9
3/31/2021 10:15:00 AM 7.41 45.338 0.27 7.92 9.04 11.92
3/31/2021 10:30:00 AM 7.41 45.338 0.27 7.94 8.5 11.97
3/31/2021 10:45:00 AM 7.43 45.374 0.269 7.98 9.21 12.11
3/31/2021 11:00:00 AM 7.44 45.392 0.269 8.01 8.25 12.18
3/31/2021 11:15:00 AM 7.45 45.41 0.269 8.03 7.69 12.23
3/31/2021 11:30:00 AM 7.46 45.428 0.269 8.06 7.74 12.28